ftp/pub/palmer/observations_modified/2019/January/AR190129_BASE.txt

Download

Sample DateTime	Unit Id	WS Avg 2min	WD Avg 2min	WGS 10min	WGD 10min	Air Temp	Rel Humidity	Dew Point	Pyranometer	Quantum	Air Pressure	Snow Level	Rainfall	PW Current	Visibility	CBase 1	CBase 2	CBase 3	Vert Vis
2019/01/29 00:00:00	BASE	0.95	359	1.49	349	2.3	100	2.3	25	59	971.2	NA	0.0000	UP	9999	0	0	0	2850
2019/01/29 00:01:00	BASE	1.01	9	1.49	349	2.3	100	2.3	25	59	971.2	NA	0.0000	UP	9999	0	0	0	2790
2019/01/29 00:02:00	BASE	1.33	16	1.65	8	2.3	100	2.3	25	58	971.2	NA	0.0000	UP	9999	0	0	0	2890
2019/01/29 00:03:00	BASE	1.36	13	1.65	17	2.3	100	2.3	25	58	971.2	NA	0.0000	UP	9999	0	0	0	2990
2019/01/29 00:04:00	BASE	1.30	11	1.65	17	2.3	100	2.3	24	57	971.2	NA	0.0000	UP	9999	0	0	0	2990
2019/01/29 00:05:00	BASE	0.93	18	1.65	17	2.3	100	2.3	24	57	971.2	NA	0.0000	UP	9999	0	0	0	2530
2019/01/29 00:06:00	BASE	0.35	23	1.65	17	2.3	100	2.3	24	56	971.2	NA	0.0000	UP	9999	0	0	0	2460
2019/01/29 00:07:00	BASE	0.33	17	1.65	17	2.3	100	2.3	24	56	971.2	NA	0.0000	UP	9999	0	0	0	2530
2019/01/29 00:08:00	BASE	0.73	16	1.65	17	2.3	100	2.3	24	56	971.2	NA	0.0000	UP	9999	0	0	0	2620
2019/01/29 00:09:00	BASE	0.97	14	1.65	17	2.3	100	2.3	24	57	971.2	NA	0.0000	UP	9999	0	0	0	2890
2019/01/29 00:10:00	BASE	0.68	16	1.65	17	2.3	100	2.3	25	57	971.2	NA	0.0000	UP	9999	0	0	0	3220
2019/01/29 00:11:00	BASE	0.31	19	1.65	17	2.3	100	2.3	25	59	971.2	NA	0.0000	UP	9999	0	0	0	3480
2019/01/29 00:12:00	BASE	0.46	15	1.65	17	2.2	100	2.2	26	60	971.2	NA	0.0000	UP	9000	0	0	0	3770
2019/01/29 00:13:00	BASE	0.30	11	1.54	18	2.2	100	2.2	26	60	971.2	NA	0.0000	UP	9000	0	0	0	5480
2019/01/29 00:14:00	BASE	0.27	9	1.54	18	2.2	100	2.2	26	60	971.1	NA	0.0000	UP BR	9000	0	0	0	5090
2019/01/29 00:15:00	BASE	0.60	8	1.54	18	2.2	100	2.2	27	61	971.1	NA	0.0000	UP BR	9000	0	0	0	5020
2019/01/29 00:16:00	BASE	0.82	0	1.54	18	2.3	100	2.3	27	61	971.2	NA	0.0000	UP BR	9999	0	0	0	5120
2019/01/29 00:17:00	BASE	0.53	341	1.54	18	2.3	100	2.3	26	60	971.2	NA	0.0000	UP BR	9999	0	0	0	6040
2019/01/29 00:18:00	BASE	0.05	334	1.54	18	2.3	100	2.3	26	60	971.2	NA	0.0000	UP BR	9999	0	0	0	6070
2019/01/29 00:19:00	BASE	0.05	345	1.54	18	2.3	100	2.3	26	59	971.2	NA	0.0000	UP BR	9999	0	0	0	4170
2019/01/29 00:20:00	BASE	0.05	343	1.54	18	2.3	100	2.3	26	58	971.1	NA	0.0000	UP BR	9999	980	0	0	0
2019/01/29 00:21:00	BASE	0.52	347	1.39	355	2.3	100	2.3	25	57	971.2	NA	0.0000	UP BR	9999	950	0	0	0
2019/01/29 00:22:00	BASE	1.16	359	1.39	355	2.3	100	2.3	25	56	971.2	NA	0.0000	UP BR	9999	0	0	0	4560
2019/01/29 00:23:00	BASE	1.22	3	1.44	8	2.3	100	2.3	25	55	971.2	NA	0.0000	UP BR	9999	0	0	0	5640
2019/01/29 00:24:00	BASE	1.22	8	1.44	8	2.2	100	2.2	24	55	971.2	NA	0.0000	BR	9999	0	0	0	5870
2019/01/29 00:25:00	BASE	1.18	6	1.44	8	2.1	100	2.1	24	54	971.2	NA	0.0000	BR	9999	3120	0	0	0
2019/01/29 00:26:00	BASE	0.94	4	1.44	8	2.1	100	2.1	24	53	971.2	NA	0.0000	BR	9999	0	0	0	5220
2019/01/29 00:27:00	BASE	0.91	1	1.44	8	2.0	100	2.0	24	52	971.2	NA	0.2540	BR	9999	0	0	0	5150
2019/01/29 00:28:00	BASE	0.94	356	1.44	8	2.0	100	2.0	23	51	971.2	NA	0.0000	BR	9999	0	0	0	5870
2019/01/29 00:29:00	BASE	0.84	356	1.44	8	2.0	100	2.0	22	50	971.2	NA	0.0000	BR	9999	0	0	0	5810
2019/01/29 00:30:00	BASE	0.88	359	1.44	8	2.1	100	2.1	22	48	971.2	NA	0.0000	BR	9999	0	0	0	5540
2019/01/29 00:31:00	BASE	0.64	0	1.44	8	2.1	100	2.1	21	47	971.2	NA	0.0000	BR	9999	0	0	0	6370
2019/01/29 00:32:00	BASE	0.18	7	1.44	8	2.2	100	2.2	20	45	971.2	NA	0.0000	BR	9999	0	0	0	6590
2019/01/29 00:33:00	BASE	0.00	13	1.44	8	2.2	100	2.2	20	43	971.2	NA	0.0000	BR	9999	0	0	0	6070
2019/01/29 00:34:00	BASE	0.00	18	1.39	360	2.2	100	2.2	19	41	971.2	NA	0.0000	BR	9999	0	0	0	6590
2019/01/29 00:35:00	BASE	0.00	26	1.29	9	2.1	100	2.1	18	40	971.2	NA	0.0000	BR	9999	0	0	0	5940
2019/01/29 00:36:00	BASE	0.00	22	1.18	355	2.1	100	2.1	18	38	971.2	NA	0.0000	BR	9999	0	0	0	4130
2019/01/29 00:37:00	BASE	0.05	15	1.18	355	2.1	100	2.1	17	37	971.2	NA	0.0000	BR	9999	0	0	0	5250
2019/01/29 00:38:00	BASE	0.22	14	1.18	355	2.1	100	2.1	17	36	971.2	NA	0.0000	BR	9999	0	0	0	3970
2019/01/29 00:39:00	BASE	0.41	14	1.23	7	2.1	100	2.1	16	35	971.2	NA	0.0000	BR	9999	0	0	0	3900
2019/01/29 00:40:00	BASE	0.41	14	1.23	7	2.1	100	2.1	16	34	971.2	NA	0.0000	BR	9999	0	0	0	4000
2019/01/29 00:41:00	BASE	0.31	14	1.23	7	2.0	100	2.0	15	33	971.2	NA	0.0000	BR	9999	0	0	0	3770
2019/01/29 00:42:00	BASE	0.14	13	1.23	7	2.0	100	2.0	15	32	971.2	NA	0.0000	BR	9999	6200	0	0	0
2019/01/29 00:43:00	BASE	0.00	9	1.23	7	2.1	100	2.1	14	31	971.2	NA	0.0000	BR	9999	0	0	0	6660
2019/01/29 00:44:00	BASE	0.00	7	1.23	7	2.1	100	2.1	14	30	971.2	NA	0.0000	BR	9999	0	0	0	6730
2019/01/29 00:45:00	BASE	0.00	4	1.23	7	2.1	100	2.1	13	28	971.2	NA	0.0000	BR	9999	0	0	0	6430
2019/01/29 00:46:00	BASE	0.05	2	1.23	7	2.2	100	2.2	12	27	971.2	NA	0.0000	BR	9999	5640	0	0	0
2019/01/29 00:47:00	BASE	0.22	357	1.23	7	2.2	100	2.2	12	26	971.2	NA	0.0000	BR	9999	5640	0	0	0
2019/01/29 00:48:00	BASE	0.18	354	1.23	7	2.2	100	2.2	11	25	971.2	NA	0.0000	BR	9999	950	0	0	0
2019/01/29 00:49:00	BASE	0.00	5	1.13	16	2.2	100	2.2	11	24	971.2	NA	0.0000	BR	9999	5740	0	0	0
2019/01/29 00:50:00	BASE	0.00	11	1.13	16	2.2	100	2.2	10	23	971.2	NA	0.0000	BR	9999	5810	0	0	0
2019/01/29 00:51:00	BASE	0.00	11	1.08	352	2.1	100	2.1	10	23	971.2	NA	0.0000	BR	9999	5870	0	0	0
2019/01/29 00:52:00	BASE	0.00	15	1.08	352	2.1	100	2.1	9	22	971.2	NA	0.0000	BR	9999	6070	0	0	0
2019/01/29 00:53:00	BASE	0.00	19	1.08	352	2.2	100	2.2	9	21	971.2	NA	0.0000	BR	9999	0	0	0	7150
2019/01/29 00:54:00	BASE	0.00	16	1.08	352	2.1	100	2.1	9	21	971.2	NA	0.0000	BR	9999	0	0	0	6860
2019/01/29 00:55:00	BASE	0.00	14	1.08	352	2.1	100	2.1	8	20	971.2	NA	0.0000	BR	9999	6070	0	0	0
2019/01/29 00:56:00	BASE	0.09	10	1.08	5	2.2	100	2.2	8	19	971.2	NA	0.0000	BR	9999	0	0	0	6560
2019/01/29 00:57:00	BASE	0.09	5	1.08	5	2.2	100	2.2	8	18	971.2	NA	0.0000		9999	6040	0	0	0
2019/01/29 00:58:00	BASE	0.00	2	1.08	5	2.2	100	2.2	7	18	971.2	NA	0.0000		9999	6140	0	0	0
2019/01/29 00:59:00	BASE	0.00	350	1.08	5	2.2	100	2.2	7	17	971.2	NA	0.0000		9999	0	0	0	6660
2019/01/29 01:00:00	BASE	0.00	344	1.08	5	2.1	100	2.1	7	16	971.2	NA	0.0000		9999	0	0	0	7050
2019/01/29 01:01:00	BASE	0.00	353	1.08	5	2.1	100	2.1	6	16	971.2	NA	0.0000		9999	0	0	0	7250
2019/01/29 01:02:00	BASE	0.00	359	1.08	5	2.1	100	2.1	6	15	971.2	NA	0.0000		9999	6100	0	0	0
2019/01/29 01:03:00	BASE	0.00	353	1.08	5	2.1	100	2.1	6	14	971.2	NA	0.0000		9999	0	0	0	6590
2019/01/29 01:04:00	BASE	0.00	349	1.08	5	2.2	100	2.2	5	13	971.2	NA	0.0000		9999	0	0	0	6990
2019/01/29 01:05:00	BASE	0.00	351	1.08	5	2.2	100	2.2	5	13	971.2	NA	0.0000		9999	1540	0	0	0
2019/01/29 01:06:00	BASE	0.00	360	M	M	2.2	100	2.2	5	12	971.2	NA	0.0000		9999	2360	0	0	0
2019/01/29 01:07:00	BASE	0.00	8	M	M	2.2	100	2.2	5	11	971.2	NA	0.0000		9999	1540	0	0	0
2019/01/29 01:08:00	BASE	0.00	8	M	M	2.2	100	2.2	4	11	971.2	NA	0.0000		9999	0	0	0	6690
2019/01/29 01:09:00	BASE	0.00	4	M	M	2.2	100	2.2	4	10	971.2	NA	0.0000		9999	0	0	0	8010
2019/01/29 01:10:00	BASE	0.00	2	M	M	2.2	100	2.2	4	9	971.2	NA	0.0000		9999	0	0	0	4270
2019/01/29 01:11:00	BASE	0.00	4	M	M	2.2	100	2.2	4	9	971.2	NA	0.0000		9999	0	0	0	6860
2019/01/29 01:12:00	BASE	0.00	2	M	M	2.1	100	2.1	3	8	971.2	NA	0.0000		9999	0	0	0	4660
2019/01/29 01:13:00	BASE	0.00	352	M	M	2.1	100	2.1	3	8	971.2	NA	0.0000		9999	0	0	0	7640
2019/01/29 01:14:00	BASE	0.00	329	M	M	2.1	100	2.1	3	8	971.2	NA	0.0000		9999	0	0	0	7910
2019/01/29 01:15:00	BASE	0.00	299	M	M	2.2	100	2.2	3	7	971.2	NA	0.0000	UP	9999	0	0	0	8040
2019/01/29 01:16:00	BASE	0.00	289	M	M	2.2	100	2.2	3	7	971.2	NA	0.0000	UP	9999	0	0	0	7870
2019/01/29 01:17:00	BASE	0.00	286	M	M	2.2	100	2.2	3	7	971.2	NA	0.0000	UP	9999	0	0	0	7450
2019/01/29 01:18:00	BASE	0.00	280	M	M	2.3	100	2.3	2	6	971.2	NA	0.0000	UP	9999	0	0	0	6330
2019/01/29 01:19:00	BASE	0.00	307	M	M	2.3	100	2.3	2	6	971.2	NA	0.0000	UP	9999	0	0	0	5640
2019/01/29 01:20:00	BASE	0.00	342	M	M	2.3	100	2.3	2	5	971.2	NA	0.0000	UP	9999	0	0	0	4790
2019/01/29 01:21:00	BASE	0.00	324	M	M	2.3	100	2.3	2	5	971.2	NA	0.0000	UP	9999	0	0	0	3810
2019/01/29 01:22:00	BASE	0.00	224	M	M	2.3	100	2.3	2	4	971.2	NA	0.0000	UP	9999	0	0	0	3740
2019/01/29 01:23:00	BASE	0.00	148	M	M	2.3	100	2.3	2	4	971.2	NA	0.0000	UP	9999	0	0	0	3900
2019/01/29 01:24:00	BASE	0.00	138	M	M	2.2	100	2.2	2	4	971.2	NA	0.0000	UP	9999	0	0	0	4200
2019/01/29 01:25:00	BASE	0.00	153	M	M	2.2	100	2.2	2	4	971.2	NA	0.0000	UP	9999	0	0	0	3900
2019/01/29 01:26:00	BASE	0.00	170	M	M	2.2	100	2.2	2	4	971.2	NA	0.0000	UP	9999	1970	0	0	0
2019/01/29 01:27:00	BASE	0.00	173	M	M	2.2	100	2.2	2	3	971.2	NA	0.0000	UP	9999	2000	0	0	0
2019/01/29 01:28:00	BASE	0.00	171	M	M	2.2	100	2.2	2	3	971.2	NA	0.0000	UP	9999	2030	3670	0	0
2019/01/29 01:29:00	BASE	0.00	171	M	M	2.2	100	2.2	2	3	971.2	NA	0.0000	UP	9999	1900	3640	0	0
2019/01/29 01:30:00	BASE	0.00	167	M	M	2.3	100	2.2	1	3	971.2	NA	0.0000	UP	9999	1970	3710	0	0
2019/01/29 01:31:00	BASE	0.00	152	M	M	2.3	100	2.3	1	2	971.2	NA	0.0000	UP	9999	2070	0	0	0
2019/01/29 01:32:00	BASE	0.00	159	M	M	2.3	100	2.3	1	2	971.2	NA	0.0000	UP	9999	2000	0	0	0
2019/01/29 01:33:00	BASE	0.00	177	M	M	2.3	100	2.3	1	2	971.2	NA	0.0000	UP	9999	1900	0	0	0
2019/01/29 01:34:00	BASE	0.00	174	M	M	2.3	100	2.3	1	2	971.2	NA	0.0000	UP	9999	0	0	0	4460
2019/01/29 01:35:00	BASE	0.00	162	M	M	2.3	100	2.3	1	2	971.2	NA	0.0000	UP	9999	2130	0	0	0
2019/01/29 01:36:00	BASE	0.00	138	M	M	2.3	100	2.3	1	1	971.2	NA	0.0000	UP	9999	2200	0	0	0
2019/01/29 01:37:00	BASE	0.00	134	M	M	2.4	100	2.4	1	1	971.2	NA	0.0000	UP	9999	2260	0	0	0
2019/01/29 01:38:00	BASE	0.00	147	M	M	2.4	100	2.4	1	1	971.2	NA	0.0000	UP	9999	1380	3710	0	0
2019/01/29 01:39:00	BASE	0.00	154	M	M	2.4	100	2.4	1	1	971.2	NA	0.0000	UP	9999	2230	0	0	0
2019/01/29 01:40:00	BASE	0.00	155	M	M	2.4	100	2.4	1	1	971.2	NA	0.0000	UP	9999	2360	0	0	0
2019/01/29 01:41:00	BASE	0.00	163	M	M	2.3	100	2.3	1	0	971.2	NA	0.0000	UP	9999	2330	3770	0	0
2019/01/29 01:42:00	BASE	0.00	184	M	M	2.3	100	2.3	1	0	971.2	NA	0.0000	UP	9999	0	0	0	4040
2019/01/29 01:43:00	BASE	0.00	191	M	M	2.3	100	2.3	1	0	971.2	NA	0.0000	UP	9999	1310	0	0	0
2019/01/29 01:44:00	BASE	0.00	178	M	M	2.3	100	2.3	1	0	971.2	NA	0.0000	UP	9999	0	0	0	3940
2019/01/29 01:45:00	BASE	0.00	171	M	M	2.2	100	2.2	1	0	971.2	NA	0.0000	UP	9999	1180	0	0	0
2019/01/29 01:46:00	BASE	0.00	175	M	M	2.2	100	2.2	1	0	971.2	NA	0.0000	UP	9999	1150	0	0	0
2019/01/29 01:47:00	BASE	0.00	178	M	M	2.2	100	2.2	1	0	971.2	NA	0.0000	UP	9999	1210	0	0	0
2019/01/29 01:48:00	BASE	0.00	178	M	M	2.2	100	2.2	1	0	971.2	NA	0.0000	UP	9999	0	0	0	4130
2019/01/29 01:49:00	BASE	0.00	175	M	M	2.2	100	2.2	1	0	971.2	NA	0.0000	UP	9999	0	0	0	4300
2019/01/29 01:50:00	BASE	0.00	152	M	M	2.2	100	2.2	1	0	971.2	NA	0.0000	UP	9999	0	0	0	3970
2019/01/29 01:51:00	BASE	0.00	135	M	M	2.2	100	2.2	1	0	971.2	NA	0.0000	UP	9999	0	0	0	4100
2019/01/29 01:52:00	BASE	0.00	143	M	M	2.3	100	2.3	1	0	971.2	NA	0.0000	UP	9999	1080	0	0	0
2019/01/29 01:53:00	BASE	0.00	155	M	M	2.3	100	2.3	1	0	971.2	NA	0.0000	UP	9999	1150	0	0	0
2019/01/29 01:54:00	BASE	0.00	166	M	M	2.3	100	2.3	1	0	971.2	NA	0.0000	UP	9999	1180	0	0	0
2019/01/29 01:55:00	BASE	0.00	183	M	M	2.3	100	2.3	1	0	971.2	NA	0.0000	UP	9999	1120	0	0	0
2019/01/29 01:56:00	BASE	0.00	196	M	M	2.2	100	2.2	0	0	971.2	NA	0.0000	UP	9999	0	0	0	4990
2019/01/29 01:57:00	BASE	0.00	197	M	M	2.2	100	2.2	0	0	971.2	NA	0.0000	UP	9999	1250	0	0	0
2019/01/29 01:58:00	BASE	0.00	196	M	M	2.2	100	2.2	0	0	971.2	NA	0.0000	UP	9999	0	0	0	4660
2019/01/29 01:59:00	BASE	0.00	185	M	M	2.1	100	2.1	0	0	971.2	NA	0.0000	UP	9999	0	0	0	4890
2019/01/29 02:00:00	BASE	0.00	177	M	M	2.1	100	2.1	0	0	971.2	NA	0.0000	UP	9999	0	0	0	4760
2019/01/29 02:01:00	BASE	0.09	174	1.03	156	2.1	100	2.1	0	0	971.2	NA	0.0000	UP	9999	0	0	0	4590
2019/01/29 02:02:00	BASE	0.50	149	1.34	133	2.1	100	2.1	0	0	971.2	NA	0.0000	UP	9999	0	0	0	5840
2019/01/29 02:03:00	BASE	1.10	133	1.44	143	2.1	100	2.1	0	0	971.2	NA	0.0000	UP	9999	1120	0	0	0
2019/01/29 02:04:00	BASE	1.39	139	1.49	139	2.2	100	2.2	0	0	971.2	NA	0.0000	UP	9999	1180	0	0	0
2019/01/29 02:05:00	BASE	1.21	140	1.49	139	2.2	100	2.2	0	0	971.2	NA	0.0000	UP	9999	1150	0	0	0
2019/01/29 02:06:00	BASE	0.87	137	1.49	139	2.2	100	2.2	0	0	971.2	NA	0.0000	UP	9999	2560	0	0	0
2019/01/29 02:07:00	BASE	0.37	135	1.49	139	2.2	100	2.2	0	0	971.2	NA	0.0000	UP	9999	2300	0	0	0
2019/01/29 02:08:00	BASE	0.00	136	1.49	139	2.1	100	2.1	0	0	971.2	NA	0.0000	UP	9999	2260	0	0	0
2019/01/29 02:09:00	BASE	0.09	135	1.49	139	2.1	100	2.1	0	0	971.2	NA	0.0000	UP	9999	2300	0	0	0
2019/01/29 02:10:00	BASE	0.09	134	1.49	139	2.1	100	2.1	0	0	971.3	NA	0.0000	UP	9999	2400	3840	0	0
2019/01/29 02:11:00	BASE	0.04	130	1.49	139	2.1	100	2.1	0	0	971.3	NA	0.0000	UP	9999	2330	0	0	0
2019/01/29 02:12:00	BASE	0.04	131	1.49	139	2.1	100	2.1	0	0	971.3	NA	0.0000	UP	9999	1350	0	0	0
2019/01/29 02:13:00	BASE	0.00	136	1.49	139	2.1	100	2.1	0	0	971.2	NA	0.0000	UP	9999	1310	0	0	0
2019/01/29 02:14:00	BASE	0.00	139	1.39	140	2.1	100	2.1	0	0	971.2	NA	0.0000	UP	9999	1310	0	0	0
2019/01/29 02:15:00	BASE	0.00	138	1.23	132	2.2	100	2.2	0	0	971.2	NA	0.0000	UP	9999	1210	0	0	0
2019/01/29 02:16:00	BASE	0.00	135	1.03	127	2.2	100	2.2	0	0	971.2	NA	0.0000		9999	1180	0	0	0
2019/01/29 02:17:00	BASE	0.00	140	1.03	127	2.1	100	2.1	0	0	971.2	NA	0.0000		9999	2200	0	0	0
2019/01/29 02:18:00	BASE	0.00	144	1.03	127	2.1	100	2.1	0	0	971.3	NA	0.0000		9999	2430	0	0	0
2019/01/29 02:19:00	BASE	0.00	144	1.03	127	2.1	100	2.1	0	0	971.3	NA	0.0000		9999	2590	0	0	0
2019/01/29 02:20:00	BASE	0.00	143	1.03	127	2.2	100	2.2	0	0	971.3	NA	0.0000		9999	2430	0	0	0
2019/01/29 02:21:00	BASE	0.00	143	M	M	2.2	100	2.2	0	0	971.4	NA	0.0000		9999	2070	4270	0	0
2019/01/29 02:22:00	BASE	0.00	140	M	M	2.1	100	2.1	0	0	971.4	NA	0.0000		9999	2200	0	0	0
2019/01/29 02:23:00	BASE	0.00	129	M	M	2.1	100	2.1	0	0	971.4	NA	0.2540		9999	2260	0	0	0
2019/01/29 02:24:00	BASE	0.00	129	M	M	2.1	100	2.1	0	0	971.4	NA	0.0000		9999	1350	0	0	0
2019/01/29 02:25:00	BASE	0.00	123	M	M	2.1	100	2.1	0	0	971.4	NA	0.0000		9999	4040	0	0	0
2019/01/29 02:26:00	BASE	0.00	110	M	M	2.0	100	2.0	0	0	971.4	NA	0.0000		9999	1250	0	0	0
2019/01/29 02:27:00	BASE	0.00	109	M	M	2.0	100	2.0	0	0	971.4	NA	0.0000		9999	0	0	0	4630
2019/01/29 02:28:00	BASE	0.00	114	M	M	2.0	100	2.0	0	0	971.4	NA	0.0000		9999	0	0	0	4530
2019/01/29 02:29:00	BASE	0.00	118	M	M	2.0	100	2.0	0	0	971.4	NA	0.0000	UP	9999	0	0	0	4630
2019/01/29 02:30:00	BASE	0.00	116	M	M	2.0	100	2.0	0	0	971.4	NA	0.0000	UP	9999	0	0	0	4560
2019/01/29 02:31:00	BASE	0.00	114	M	M	2.0	100	2.0	0	0	971.4	NA	0.0000	UP	9999	0	0	0	4460
2019/01/29 02:32:00	BASE	0.00	114	M	M	2.0	100	2.0	0	0	971.4	NA	0.0000	UP	9999	0	0	0	4560
2019/01/29 02:33:00	BASE	0.00	109	M	M	2.0	100	2.0	0	0	971.4	NA	0.0000	UP	9999	0	0	0	490
2019/01/29 02:34:00	BASE	0.00	105	M	M	2.0	100	2.0	0	0	971.4	NA	0.0000	UP	9999	0	0	0	460
2019/01/29 02:35:00	BASE	0.00	105	M	M	2.0	100	2.0	0	0	971.4	NA	0.0000	UP	9999	0	0	0	390
2019/01/29 02:36:00	BASE	0.00	104	M	M	2.0	100	2.0	0	0	971.4	NA	0.0000	UP	9999	0	0	0	300
2019/01/29 02:37:00	BASE	0.00	104	M	M	2.0	100	2.0	0	0	971.4	NA	0.0000	UP	9999	0	0	0	260
2019/01/29 02:38:00	BASE	0.00	104	M	M	2.0	100	2.0	0	0	971.4	NA	0.0000	UP	9999	3670	0	0	0
2019/01/29 02:39:00	BASE	0.00	104	M	M	2.0	100	2.0	0	0	971.4	NA	0.0000	UP	9999	0	0	0	360
2019/01/29 02:40:00	BASE	0.00	104	M	M	2.1	100	2.1	0	0	971.4	NA	0.0000	UP	9999	0	0	0	360
2019/01/29 02:41:00	BASE	0.00	104	M	M	2.1	100	2.1	0	0	971.4	NA	0.0000		9999	0	0	0	330
2019/01/29 02:42:00	BASE	0.00	116	M	M	2.1	100	2.1	0	0	971.4	NA	0.0000		9999	0	0	0	300
2019/01/29 02:43:00	BASE	0.00	132	M	M	2.1	100	2.1	0	0	971.4	NA	0.0000		9999	0	0	0	3940
2019/01/29 02:44:00	BASE	0.00	138	M	M	2.2	100	2.2	0	0	971.4	NA	0.0000		9999	0	0	0	4040
2019/01/29 02:45:00	BASE	0.00	142	M	M	2.2	100	2.2	0	0	971.4	NA	0.0000	UP	9999	0	0	0	4170
2019/01/29 02:46:00	BASE	0.00	142	M	M	2.2	100	2.2	0	0	971.4	NA	0.0000	UP	9999	0	0	0	4000
2019/01/29 02:47:00	BASE	0.00	141	M	M	2.2	100	2.2	0	0	971.3	NA	0.0000	UP	9999	0	0	0	490
2019/01/29 02:48:00	BASE	0.00	140	M	M	2.2	100	2.2	0	0	971.4	NA	0.0000	UP	9999	0	0	0	330
2019/01/29 02:49:00	BASE	0.09	144	1.03	140	2.1	100	2.1	0	0	971.4	NA	0.0000	UP	9999	0	0	0	330
2019/01/29 02:50:00	BASE	0.09	150	1.03	140	2.1	100	2.1	0	0	971.4	NA	0.0000	UP	9999	0	0	0	3670
2019/01/29 02:51:00	BASE	0.00	150	1.03	140	2.1	100	2.1	0	0	971.4	NA	0.0000	UP	9999	0	0	0	3540
2019/01/29 02:52:00	BASE	0.18	150	1.13	152	2.1	100	2.1	0	0	971.4	NA	0.0000	UP	9999	0	0	0	3510
2019/01/29 02:53:00	BASE	0.77	148	1.44	142	2.1	100	2.1	0	0	971.4	NA	0.0000	UP	9999	0	0	0	3480
2019/01/29 02:54:00	BASE	1.23	150	1.54	153	2.1	100	2.1	0	0	971.4	NA	0.0000	UP	9999	0	0	0	3350
2019/01/29 02:55:00	BASE	1.19	152	1.54	153	2.1	100	2.1	0	0	971.4	NA	0.0000	UP	9999	0	0	0	3280
2019/01/29 02:56:00	BASE	1.13	149	1.54	153	2.1	100	2.1	0	0	971.4	NA	0.0000	UP	9999	0	0	0	3350
2019/01/29 02:57:00	BASE	0.79	150	1.54	153	2.1	100	2.1	0	0	971.4	NA	0.0000	UP	9999	0	0	0	3610
2019/01/29 02:58:00	BASE	0.34	153	1.54	153	2.1	100	2.1	0	0	971.4	NA	0.0000	UP	9999	0	0	0	3710
2019/01/29 02:59:00	BASE	0.41	156	1.54	153	2.1	100	2.1	0	0	971.5	NA	0.0000	UP	9999	0	0	0	3740
2019/01/29 03:00:00	BASE	0.50	159	1.54	153	2.1	100	2.1	0	0	971.5	NA	0.0000	UP	9999	0	0	0	3580
2019/01/29 03:01:00	BASE	0.44	155	1.54	153	2.1	100	2.1	0	0	971.5	NA	0.0000	UP	9999	0	0	0	3410
2019/01/29 03:02:00	BASE	0.35	153	1.54	153	2.1	100	2.1	0	0	971.5	NA	0.0000	UP	9999	0	0	0	3250
2019/01/29 03:03:00	BASE	0.32	150	1.54	153	2.0	100	2.0	0	0	971.5	NA	0.0000	UP	9999	0	0	0	3180
2019/01/29 03:04:00	BASE	0.64	145	1.44	155	2.0	100	2.0	0	0	971.5	NA	0.0000	UP	9999	0	0	0	3220
2019/01/29 03:05:00	BASE	1.04	143	1.39	149	2.0	100	2.0	0	0	971.5	NA	0.0000	UP	9999	0	0	0	2990
2019/01/29 03:06:00	BASE	1.21	141	1.39	145	2.1	100	2.1	0	0	971.5	NA	0.0000	UP	9999	0	0	0	2820
2019/01/29 03:07:00	BASE	1.24	146	1.44	157	2.1	100	2.1	0	0	971.6	NA	0.0000	UP	9999	850	0	0	0
2019/01/29 03:08:00	BASE	1.24	153	1.44	157	2.1	100	2.1	0	0	971.6	NA	0.0000	UP	9999	750	0	0	0
2019/01/29 03:09:00	BASE	0.91	157	1.44	157	2.1	100	2.1	0	0	971.6	NA	0.0000	UP	8000	720	0	0	0
2019/01/29 03:10:00	BASE	0.32	157	1.44	157	2.0	100	2.0	0	0	971.6	NA	0.0000	UP	8000	720	0	0	0
2019/01/29 03:11:00	BASE	0.04	155	1.44	157	2.0	100	2.0	0	0	971.6	NA	0.0000	UP BR	9000	690	0	0	0
2019/01/29 03:12:00	BASE	0.22	155	1.44	157	2.0	100	2.0	0	0	971.6	NA	0.0000	UP BR	9000	690	0	0	0
2019/01/29 03:13:00	BASE	0.22	163	1.44	157	2.0	100	2.0	0	0	971.6	NA	0.0000	UP BR	9000	620	0	0	0
2019/01/29 03:14:00	BASE	0.46	172	1.44	157	2.0	100	2.0	0	0	971.6	NA	0.0000	UP BR	8000	690	0	0	0
2019/01/29 03:15:00	BASE	0.55	179	1.44	157	2.0	100	2.0	0	0	971.6	NA	0.0000	UP BR	7000	690	0	0	0
2019/01/29 03:16:00	BASE	0.09	178	1.44	157	1.9	100	1.9	0	0	971.6	NA	0.2540	UP BR	8000	720	0	0	0
2019/01/29 03:17:00	BASE	0.00	181	1.39	164	1.9	100	1.9	0	0	971.6	NA	0.0000	UP BR	8000	0	0	0	2790
2019/01/29 03:18:00	BASE	0.00	185	1.23	158	1.9	100	1.9	0	0	971.6	NA	0.0000	UP BR	8000	790	0	0	0
2019/01/29 03:19:00	BASE	0.00	187	1.18	177	1.9	100	1.9	0	0	971.6	NA	0.0000	UP BR	8000	790	0	0	0
2019/01/29 03:20:00	BASE	0.00	190	1.18	177	1.9	100	1.9	0	0	971.6	NA	0.0000	UP BR	9000	720	0	0	0
2019/01/29 03:21:00	BASE	0.00	149	1.18	177	1.9	100	1.9	0	0	971.6	NA	0.0000	UP BR	9000	0	0	0	2890
2019/01/29 03:22:00	BASE	0.00	94	1.18	177	2.0	100	2.0	0	0	971.6	NA	0.0000	UP BR	9000	0	0	0	2850
2019/01/29 03:23:00	BASE	0.00	93	1.18	177	2.0	100	2.0	0	0	971.6	NA	0.0000	UP BR	9999	690	0	0	0
2019/01/29 03:24:00	BASE	0.00	93	1.08	180	2.0	100	2.0	0	0	971.6	NA	0.0000	UP BR	9999	720	0	0	0
2019/01/29 03:25:00	BASE	0.00	93	M	M	2.0	100	2.0	0	0	971.6	NA	0.0000	UP BR	9000	820	0	0	0
2019/01/29 03:26:00	BASE	0.00	93	M	M	2.1	100	2.1	0	0	971.6	NA	0.0000	UP BR	8000	0	0	0	3250
2019/01/29 03:27:00	BASE	0.00	93	M	M	2.0	100	2.0	0	0	971.6	NA	0.0000	UP BR	9000	0	0	0	3180
2019/01/29 03:28:00	BASE	0.00	79	M	M	2.0	100	2.0	0	0	971.6	NA	0.0000	UP BR	9000	0	0	0	3150
2019/01/29 03:29:00	BASE	0.00	332	M	M	2.0	100	2.0	0	0	971.6	NA	0.0000	UP BR	9000	0	0	0	3180
2019/01/29 03:30:00	BASE	0.00	332	M	M	1.9	100	1.9	0	0	971.6	NA	0.0000	UP BR	9000	0	0	0	3250
2019/01/29 03:31:00	BASE	0.36	346	1.13	354	1.8	100	1.8	0	0	971.6	NA	0.2540	UP BR	9999	0	0	0	3280
2019/01/29 03:32:00	BASE	0.97	352	1.34	355	1.7	100	1.7	0	0	971.6	NA	0.0000	UP BR	9999	0	0	0	3250
2019/01/29 03:33:00	BASE	1.25	357	1.39	360	1.6	100	1.6	0	0	971.6	NA	0.0000	UP BR	9999	330	950	0	0
2019/01/29 03:34:00	BASE	1.28	2	1.39	360	1.6	100	1.6	0	0	971.6	NA	0.0000	UP BR	9000	330	920	0	0
2019/01/29 03:35:00	BASE	1.22	4	1.39	360	1.6	100	1.6	0	0	971.6	NA	0.0000	UP BR	9000	330	0	0	0
2019/01/29 03:36:00	BASE	1.15	358	1.39	360	1.7	100	1.7	0	0	971.6	NA	0.0000	UP BR	9000	920	0	0	0
2019/01/29 03:37:00	BASE	1.13	349	1.39	360	1.7	100	1.7	0	0	971.6	NA	0.0000	UP BR	9000	890	0	0	0
2019/01/29 03:38:00	BASE	1.20	342	1.39	339	1.7	100	1.7	0	0	971.6	NA	0.0000	UP BR	9000	850	0	0	0
2019/01/29 03:39:00	BASE	1.29	339	1.39	344	1.7	100	1.7	0	0	971.6	NA	0.0000	UP BR	9000	950	0	0	0
2019/01/29 03:40:00	BASE	1.37	339	1.49	339	1.6	100	1.6	0	0	971.6	NA	0.0000	UP BR	9000	890	0	0	0
2019/01/29 03:41:00	BASE	1.44	337	1.54	334	1.5	100	1.5	0	0	971.6	NA	0.0000	UP BR	9999	950	0	0	0
2019/01/29 03:42:00	BASE	1.42	332	1.54	334	1.5	100	1.5	0	0	971.6	NA	0.0000	UP BR	9999	950	0	0	0
2019/01/29 03:43:00	BASE	1.40	326	1.54	334	1.5	100	1.5	0	0	971.6	NA	0.0000	UP BR	9999	920	0	0	0
2019/01/29 03:44:00	BASE	1.50	320	1.65	318	1.5	100	1.5	0	0	971.6	NA	0.0000	UP BR	9999	850	0	0	0
2019/01/29 03:45:00	BASE	1.60	318	1.75	320	1.5	100	1.5	0	0	971.6	NA	0.0000	UP BR	9999	820	0	0	0
2019/01/29 03:46:00	BASE	1.67	319	1.80	319	1.5	100	1.5	0	0	971.6	NA	0.0000	UP	9999	360	0	0	0
2019/01/29 03:47:00	BASE	1.73	319	1.85	316	1.5	100	1.5	0	0	971.6	NA	0.0000	UP	9999	360	0	0	0
2019/01/29 03:48:00	BASE	1.75	319	1.85	321	1.6	100	1.6	0	0	971.6	NA	0.0000	UP	9999	360	0	0	0
2019/01/29 03:49:00	BASE	1.73	319	1.90	317	1.6	100	1.6	0	0	971.6	NA	0.0000	UP	9999	360	0	0	0
2019/01/29 03:50:00	BASE	1.77	318	1.95	317	1.6	100	1.6	0	0	971.6	NA	0.0000	UP	9999	360	0	0	0
2019/01/29 03:51:00	BASE	1.77	320	1.95	317	1.6	100	1.6	0	0	971.6	NA	0.0000	UP	9000	720	0	0	0
2019/01/29 03:52:00	BASE	1.71	321	1.95	317	1.6	100	1.6	0	0	971.6	NA	0.2540	UP	9000	750	0	0	0
2019/01/29 03:53:00	BASE	1.74	321	1.95	321	1.6	100	1.6	0	0	971.6	NA	0.0000	UP	9000	820	0	0	0
2019/01/29 03:54:00	BASE	1.82	323	1.95	323	1.6	100	1.6	0	0	971.6	NA	0.0000	UP	9000	850	0	0	0
2019/01/29 03:55:00	BASE	1.89	321	2.01	316	1.6	100	1.6	0	0	971.6	NA	0.0000	UP	9000	890	0	0	0
2019/01/29 03:56:00	BASE	1.82	319	2.01	316	1.6	100	1.6	0	0	971.6	NA	0.0000	UP BR	9000	890	0	0	0
2019/01/29 03:57:00	BASE	1.72	321	2.01	323	1.6	100	1.6	0	0	971.6	NA	0.0000	UP BR	8000	820	0	0	0
2019/01/29 03:58:00	BASE	1.91	323	2.11	325	1.6	100	1.6	0	0	971.6	NA	0.0000	UP BR	8000	820	0	0	0
2019/01/29 03:59:00	BASE	2.11	324	2.21	323	1.6	100	1.6	0	0	971.6	NA	0.0000	UP BR	9000	950	0	0	0
2019/01/29 04:00:00	BASE	2.07	322	2.21	323	1.6	100	1.6	0	0	971.6	NA	0.0000	UP BR	9000	1050	0	0	0
2019/01/29 04:01:00	BASE	1.99	321	2.21	323	1.6	100	1.6	0	0	971.6	NA	0.0000	UP BR	9999	1150	0	0	0
2019/01/29 04:02:00	BASE	1.84	321	2.21	323	1.6	100	1.6	0	0	971.6	NA	0.2540	UP BR	9999	0	0	0	3220
2019/01/29 04:03:00	BASE	1.70	321	2.21	323	1.6	100	1.6	0	0	971.6	NA	0.0000	UP BR	9999	0	0	0	3120
2019/01/29 04:04:00	BASE	1.58	323	2.21	323	1.6	100	1.6	0	0	971.6	NA	0.0000	UP BR	9999	1120	0	0	0
2019/01/29 04:05:00	BASE	1.51	326	2.21	323	1.6	100	1.6	0	0	971.6	NA	0.0000	UP BR	9999	1050	0	0	0
2019/01/29 04:06:00	BASE	1.54	329	2.21	323	1.5	100	1.5	0	0	971.6	NA	0.0000	UP BR	9999	1050	0	0	0
2019/01/29 04:07:00	BASE	1.53	330	2.21	323	1.5	100	1.5	0	0	971.6	NA	0.0000	UP	9999	0	0	0	2990
2019/01/29 04:08:00	BASE	1.45	331	2.21	323	1.5	100	1.5	0	0	971.5	NA	0.0000	UP	9999	1080	0	0	0
2019/01/29 04:09:00	BASE	1.34	334	2.11	321	1.5	100	1.5	0	0	971.5	NA	0.0000	UP	9999	1020	0	0	0
2019/01/29 04:10:00	BASE	1.29	333	2.06	321	1.5	100	1.5	0	0	971.5	NA	0.0000		9999	1050	0	0	0
2019/01/29 04:11:00	BASE	0.83	331	1.80	320	1.5	100	1.5	0	0	971.5	NA	0.0000		9999	1080	0	0	0
2019/01/29 04:12:00	BASE	0.86	331	1.80	320	1.5	100	1.5	0	0	971.5	NA	0.0000		9999	390	0	0	0
2019/01/29 04:13:00	BASE	1.35	333	1.65	329	1.4	100	1.4	0	0	971.5	NA	0.0000		9999	1120	0	0	0
2019/01/29 04:14:00	BASE	1.27	340	1.65	329	1.4	100	1.4	0	0	971.6	NA	0.0000		9999	1120	0	0	0
2019/01/29 04:15:00	BASE	1.39	340	1.90	322	1.3	100	1.3	0	0	971.6	NA	0.0000		9999	1120	0	0	0
2019/01/29 04:16:00	BASE	1.62	335	1.90	322	1.3	100	1.3	0	0	971.6	NA	0.0000		9999	1080	0	0	0
2019/01/29 04:17:00	BASE	1.69	337	1.95	337	1.3	100	1.3	0	0	971.6	NA	0.0000		9999	1080	0	0	0
2019/01/29 04:18:00	BASE	1.80	342	2.11	337	1.2	100	1.2	0	0	971.6	NA	0.0000		9999	1050	2360	0	0
2019/01/29 04:19:00	BASE	1.85	346	2.11	337	1.2	100	1.2	0	0	971.6	NA	0.0000		9999	1280	2260	0	0
2019/01/29 04:20:00	BASE	1.76	344	2.11	337	1.2	100	1.2	0	0	971.6	NA	0.0000		9999	1380	2260	0	0
2019/01/29 04:21:00	BASE	1.64	343	2.11	337	1.2	100	1.2	0	0	971.6	NA	0.0000		9999	330	2300	0	0
2019/01/29 04:22:00	BASE	1.75	341	2.16	331	1.2	100	1.2	0	0	971.6	NA	0.0000		9999	330	1570	0	0
2019/01/29 04:23:00	BASE	1.93	334	2.21	322	1.2	100	1.2	0	0	971.6	NA	0.0000		9999	300	1150	0	0
2019/01/29 04:24:00	BASE	1.92	330	2.21	322	1.2	100	1.2	0	0	971.6	NA	0.0000		9999	2170	0	0	0
2019/01/29 04:25:00	BASE	1.92	327	2.21	322	1.2	100	1.2	0	0	971.6	NA	0.0000		9999	1800	0	0	0
2019/01/29 04:26:00	BASE	1.99	325	2.21	319	1.2	100	1.2	0	0	971.6	NA	0.0000		9999	1020	0	0	0
2019/01/29 04:27:00	BASE	2.18	324	2.52	324	1.2	100	1.2	0	0	971.6	NA	0.0000		9999	1120	0	0	0
2019/01/29 04:28:00	BASE	2.33	324	2.52	330	1.2	100	1.2	0	0	971.6	NA	0.0000		9999	1020	0	0	0
2019/01/29 04:29:00	BASE	2.36	325	2.52	323	1.2	100	1.2	0	0	971.6	NA	0.0000		9999	980	2200	0	0
2019/01/29 04:30:00	BASE	2.31	324	2.52	323	1.2	100	1.2	0	0	971.6	NA	0.0000		9999	980	1770	0	0
2019/01/29 04:31:00	BASE	2.25	325	2.52	323	1.2	100	1.2	0	0	971.6	NA	0.0000		9999	980	1970	0	0
2019/01/29 04:32:00	BASE	2.27	327	2.52	323	1.2	100	1.2	0	0	971.6	NA	0.2540		9999	950	1710	0	0
2019/01/29 04:33:00	BASE	2.22	327	2.52	323	1.2	100	1.2	0	0	971.6	NA	0.0000		9999	890	0	0	0
2019/01/29 04:34:00	BASE	2.11	325	2.52	323	1.3	100	1.3	0	0	971.6	NA	0.0000		9999	850	0	0	0
2019/01/29 04:35:00	BASE	2.00	323	2.52	323	1.3	100	1.3	0	0	971.6	NA	0.0000		9999	850	0	0	0
2019/01/29 04:36:00	BASE	1.84	322	2.52	323	1.3	100	1.3	0	0	971.6	NA	0.0000		9999	890	0	0	0
2019/01/29 04:37:00	BASE	1.76	320	2.52	323	1.3	100	1.3	0	0	971.6	NA	0.0000		9999	890	0	0	0
2019/01/29 04:38:00	BASE	1.80	319	2.52	323	1.4	100	1.4	0	0	971.6	NA	0.0000		9999	0	0	0	7780
2019/01/29 04:39:00	BASE	1.67	317	2.47	323	1.4	100	1.4	0	0	971.6	NA	0.0000		9999	0	0	0	4270
2019/01/29 04:40:00	BASE	1.38	314	2.37	325	1.4	100	1.4	0	0	971.6	NA	0.0000		9999	820	0	0	0
2019/01/29 04:41:00	BASE	1.32	310	2.37	325	1.4	100	1.4	0	0	971.6	NA	0.0000		9999	790	0	0	0
2019/01/29 04:42:00	BASE	1.31	303	2.26	328	1.4	100	1.4	0	0	971.6	NA	0.0000		9999	790	1840	0	0
2019/01/29 04:43:00	BASE	1.27	295	2.21	323	1.4	100	1.4	0	0	971.6	NA	0.0000		9999	790	1840	0	0
2019/01/29 04:44:00	BASE	0.78	290	2.06	323	1.4	100	1.4	0	0	971.6	NA	0.0000		9999	750	1740	0	0
2019/01/29 04:45:00	BASE	0.50	285	1.95	313	1.4	100	1.4	0	0	971.6	NA	0.0000		9999	750	1710	0	0
2019/01/29 04:46:00	BASE	0.50	281	1.95	313	1.3	100	1.3	0	0	971.6	NA	0.0000		9999	300	750	0	0
2019/01/29 04:47:00	BASE	0.27	279	1.95	313	1.3	100	1.3	0	0	971.6	NA	0.0000		9999	720	0	0	0
2019/01/29 04:48:00	BASE	0.45	279	1.65	313	1.3	100	1.3	0	0	971.6	NA	0.0000		9999	690	0	0	0
2019/01/29 04:49:00	BASE	0.48	279	1.59	305	1.4	100	1.4	0	0	971.6	NA	0.0000		9999	690	0	0	0
2019/01/29 04:50:00	BASE	0.17	276	1.59	305	1.4	100	1.4	0	0	971.6	NA	0.0000		9999	720	0	0	0
2019/01/29 04:51:00	BASE	0.00	271	1.54	301	1.4	100	1.4	0	0	971.5	NA	0.0000		9999	0	0	0	4200
2019/01/29 04:52:00	BASE	0.00	271	1.44	293	1.4	100	1.4	0	0	971.6	NA	0.0000		9999	0	0	0	4400
2019/01/29 04:53:00	BASE	0.00	269	1.18	274	1.4	100	1.4	0	0	971.5	NA	0.0000		9999	0	0	0	3810
2019/01/29 04:54:00	BASE	0.00	265	1.18	274	1.4	100	1.4	0	0	971.6	NA	0.0000		9999	750	0	0	0
2019/01/29 04:55:00	BASE	0.00	263	1.18	274	1.4	100	1.4	0	0	971.5	NA	0.0000		9999	750	0	0	0
2019/01/29 04:56:00	BASE	0.00	251	1.18	274	1.4	100	1.4	0	0	971.5	NA	0.0000		9999	1710	0	0	0
2019/01/29 04:57:00	BASE	0.00	239	1.08	279	1.4	100	1.4	0	0	971.5	NA	0.0000		9999	1310	0	0	0
2019/01/29 04:58:00	BASE	0.00	236	1.03	279	1.4	100	1.4	0	0	971.5	NA	0.0000	UP	9999	1210	0	0	0
2019/01/29 04:59:00	BASE	0.00	232	M	M	1.4	100	1.4	0	0	971.5	NA	0.0000	UP	9999	0	0	0	4100
2019/01/29 05:00:00	BASE	0.00	222	M	M	1.4	100	1.4	0	0	971.5	NA	0.0000	UP	9999	0	0	0	4040
2019/01/29 05:01:00	BASE	0.00	216	M	M	1.3	100	1.3	0	0	971.5	NA	0.0000	UP	9999	0	0	0	3770
2019/01/29 05:02:00	BASE	0.00	214	M	M	1.3	100	1.3	0	0	971.5	NA	0.0000	UP	9999	1310	0	0	0
2019/01/29 05:03:00	BASE	0.00	213	M	M	1.3	100	1.3	0	0	971.5	NA	0.0000	UP	9999	1280	0	0	0
2019/01/29 05:04:00	BASE	0.00	213	M	M	1.3	100	1.3	0	0	971.5	NA	0.0000	UP	9999	1250	0	0	0
2019/01/29 05:05:00	BASE	0.00	215	M	M	1.4	100	1.4	0	0	971.5	NA	0.0000	UP	9999	0	0	0	5180
2019/01/29 05:06:00	BASE	0.00	215	M	M	1.4	100	1.4	0	0	971.5	NA	0.0000	UP	9999	0	0	0	6000
2019/01/29 05:07:00	BASE	0.00	214	M	M	1.4	100	1.4	0	0	971.5	NA	0.0000	UP	9999	0	0	0	4490
2019/01/29 05:08:00	BASE	0.00	214	M	M	1.5	100	1.5	0	0	971.5	NA	0.0000	UP	9999	1180	0	0	0
2019/01/29 05:09:00	BASE	0.00	213	M	M	1.5	100	1.5	0	0	971.6	NA	0.0000	UP	9999	1120	0	0	0
2019/01/29 05:10:00	BASE	0.00	204	M	M	1.5	100	1.5	0	0	971.6	NA	0.0000	UP	9999	0	0	0	2760
2019/01/29 05:11:00	BASE	0.00	197	M	M	1.5	100	1.5	0	0	971.6	NA	0.0000	UP	9999	300	0	0	0
2019/01/29 05:12:00	BASE	0.00	206	M	M	1.4	100	1.4	0	0	971.6	NA	0.0000	UP	9999	300	1250	0	0
2019/01/29 05:13:00	BASE	0.00	216	M	M	1.4	100	1.4	0	0	971.6	NA	0.0000	UP	9999	0	0	0	2690
2019/01/29 05:14:00	BASE	0.00	237	M	M	1.5	100	1.5	0	0	971.6	NA	0.0000	UP	9999	300	0	0	0
2019/01/29 05:15:00	BASE	0.00	275	M	M	1.5	100	1.5	0	0	971.6	NA	0.0000	UP	9999	300	1310	0	0
2019/01/29 05:16:00	BASE	0.30	287	1.08	287	1.6	100	1.6	0	0	971.6	NA	0.0000	UP	9999	260	0	0	0
2019/01/29 05:17:00	BASE	0.48	283	1.08	287	1.6	100	1.6	0	0	971.6	NA	0.0000	UP	9999	260	0	0	0
2019/01/29 05:18:00	BASE	0.26	277	1.08	287	1.6	100	1.6	0	0	971.6	NA	0.0000		9999	330	1020	0	0
2019/01/29 05:19:00	BASE	0.63	274	1.13	275	1.6	100	1.6	0	0	971.6	NA	0.0000		9999	1150	0	0	0
2019/01/29 05:20:00	BASE	1.04	275	1.13	275	1.5	100	1.5	0	0	971.6	NA	0.0000		9999	0	0	0	3350
2019/01/29 05:21:00	BASE	0.90	276	1.13	275	1.5	100	1.5	0	0	971.6	NA	0.0000		9999	0	0	0	5050
2019/01/29 05:22:00	BASE	0.62	278	1.13	275	1.5	100	1.5	0	0	971.6	NA	0.0000	UP	9999	0	0	0	6040
2019/01/29 05:23:00	BASE	0.31	278	1.13	275	1.4	100	1.4	0	0	971.6	NA	0.0000	UP	9999	0	0	0	8560
2019/01/29 05:24:00	BASE	0.65	278	1.18	277	1.4	100	1.4	0	0	971.6	NA	0.0000	UP	9999	0	0	0	8730
2019/01/29 05:25:00	BASE	1.16	277	1.23	277	1.4	100	1.4	0	0	971.6	NA	0.0000	UP	9999	1180	0	0	0
2019/01/29 05:26:00	BASE	1.07	276	1.29	276	1.4	100	1.4	0	0	971.6	NA	0.0000	UP	9999	1150	0	0	0
2019/01/29 05:27:00	BASE	1.03	275	1.39	282	1.5	100	1.5	0	0	971.6	NA	0.0000	UP	9999	1080	0	0	0
2019/01/29 05:28:00	BASE	1.26	278	1.54	281	1.5	100	1.5	0	0	971.6	NA	0.0000	UP	9999	1080	0	0	0
2019/01/29 05:29:00	BASE	1.40	280	1.54	281	1.5	100	1.5	0	0	971.6	NA	0.0000	UP	9999	1050	2360	0	0
2019/01/29 05:30:00	BASE	1.27	280	1.54	281	1.5	100	1.5	0	0	971.6	NA	0.0000	UP	9999	950	0	0	0
2019/01/29 05:31:00	BASE	0.79	281	1.54	281	1.5	100	1.5	0	0	971.7	NA	0.0000	UP	9999	890	0	0	0
2019/01/29 05:32:00	BASE	0.49	281	1.54	281	1.4	100	1.4	0	0	971.7	NA	0.0000		9999	750	0	0	0
2019/01/29 05:33:00	BASE	0.85	281	1.54	281	1.5	100	1.5	0	0	971.7	NA	0.0000		9999	720	0	0	0
2019/01/29 05:34:00	BASE	0.97	288	1.54	281	1.5	100	1.5	0	0	971.7	NA	0.2540		9999	750	0	0	0
2019/01/29 05:35:00	BASE	0.43	304	1.54	281	1.5	100	1.5	0	0	971.7	NA	0.0000		9999	460	0	0	0
2019/01/29 05:36:00	BASE	0.67	320	1.54	281	1.4	100	1.4	0	0	971.7	NA	0.0000		9999	390	0	0	0
2019/01/29 05:37:00	BASE	1.04	326	1.54	281	1.4	100	1.4	0	0	971.7	NA	0.0000	UP	9999	230	0	0	0
2019/01/29 05:38:00	BASE	0.80	327	1.49	282	1.4	100	1.4	0	0	971.7	NA	0.0000	UP	9999	330	0	0	0
2019/01/29 05:39:00	BASE	0.51	325	1.44	278	1.4	100	1.4	0	0	971.6	NA	0.0000	UP	9999	230	0	0	0
2019/01/29 05:40:00	BASE	0.38	324	1.39	324	1.3	100	1.3	0	0	971.7	NA	0.0000	UP	9999	260	0	0	0
2019/01/29 05:41:00	BASE	0.50	328	1.39	324	1.3	100	1.3	0	0	971.7	NA	0.0000	UP	9999	260	0	0	0
2019/01/29 05:42:00	BASE	0.72	335	1.39	344	1.3	100	1.3	0	0	971.7	NA	0.0000	UP	9999	260	0	0	0
2019/01/29 05:43:00	BASE	1.04	338	1.39	344	1.3	100	1.3	0	0	971.7	NA	0.0000	UP	9999	300	0	0	0
2019/01/29 05:44:00	BASE	1.18	337	1.39	339	1.2	100	1.2	0	0	971.7	NA	0.0000	UP	9999	330	0	0	0
2019/01/29 05:45:00	BASE	1.11	340	1.44	336	1.2	100	1.2	0	0	971.7	NA	0.0000	UP	9999	330	4560	0	0
2019/01/29 05:46:00	BASE	1.17	346	1.44	346	1.2	100	1.2	0	0	971.7	NA	0.0000	UP	9999	300	4560	0	0
2019/01/29 05:47:00	BASE	1.19	348	1.44	346	1.2	100	1.2	0	0	971.6	NA	0.0000	UP	9999	260	4560	0	0
2019/01/29 05:48:00	BASE	0.88	348	1.44	346	1.2	100	1.2	0	0	971.6	NA	0.0000	UP	9999	300	4560	0	0
2019/01/29 05:49:00	BASE	0.47	354	1.44	346	1.2	100	1.2	0	0	971.7	NA	0.0000	UP	9999	300	4590	0	0
2019/01/29 05:50:00	BASE	0.14	0	1.44	346	1.3	100	1.3	0	0	971.7	NA	0.0000	UP	9999	300	4660	0	0
2019/01/29 05:51:00	BASE	0.00	358	1.44	346	1.3	100	1.3	0	0	971.7	NA	0.0000	UP	9999	300	0	0	0
2019/01/29 05:52:00	BASE	0.17	351	1.44	346	1.3	100	1.3	0	0	971.7	NA	0.0000	UP	9999	330	3900	0	0
2019/01/29 05:53:00	BASE	0.22	352	1.44	346	1.3	100	1.3	0	0	971.7	NA	0.0000	UP	9999	390	0	0	0
2019/01/29 05:54:00	BASE	0.46	354	1.44	346	1.4	100	1.4	0	0	971.7	NA	0.0000	UP	9999	360	0	0	0
2019/01/29 05:55:00	BASE	0.87	356	1.44	355	1.4	100	1.4	0	0	971.7	NA	0.0000		9999	300	2400	0	0
2019/01/29 05:56:00	BASE	1.12	357	1.44	355	1.4	100	1.3	0	0	971.7	NA	0.0000		9999	330	0	0	0
2019/01/29 05:57:00	BASE	1.20	1	1.44	355	1.3	100	1.3	0	0	971.7	NA	0.0000		9999	300	0	0	0
2019/01/29 05:58:00	BASE	1.15	4	1.44	355	1.3	100	1.3	0	0	971.7	NA	0.0000		9999	300	1120	0	0
2019/01/29 05:59:00	BASE	1.18	2	1.44	355	1.2	100	1.2	0	0	971.7	NA	0.0000		9999	360	1050	0	0
2019/01/29 06:00:00	BASE	1.08	6	1.44	355	1.2	100	1.2	0	0	971.7	NA	0.0000		9999	390	2300	0	0
2019/01/29 06:01:00	BASE	0.93	6	1.44	355	1.2	100	1.2	0	0	971.7	NA	0.0000	UP	9999	390	2850	0	0
2019/01/29 06:02:00	BASE	0.94	4	1.44	355	1.2	100	1.2	0	0	971.7	NA	0.0000	UP	9999	330	1080	0	0
2019/01/29 06:03:00	BASE	1.09	1	1.44	355	1.2	100	1.2	0	0	971.7	NA	0.0000	UP	9999	300	980	0	0
2019/01/29 06:04:00	BASE	0.89	356	1.44	355	1.2	100	1.2	0	0	971.7	NA	0.0000	UP	9999	390	980	0	0
2019/01/29 06:05:00	BASE	0.54	352	1.39	1	1.2	100	1.2	0	0	971.7	NA	0.0000	UP	9999	1020	0	0	0
2019/01/29 06:06:00	BASE	0.23	350	1.29	4	1.2	100	1.2	0	0	971.7	NA	0.0000	UP	9999	2300	0	0	0
2019/01/29 06:07:00	BASE	0.09	348	1.29	4	1.2	100	1.2	0	0	971.7	NA	0.0000	UP	9999	0	0	0	2920
2019/01/29 06:08:00	BASE	0.17	352	1.29	4	1.2	100	1.2	0	0	971.7	NA	0.0000	UP	9999	1150	0	0	0
2019/01/29 06:09:00	BASE	0.09	355	1.29	4	1.2	100	1.2	0	0	971.7	NA	0.0000	UP	9999	0	0	0	2850
2019/01/29 06:10:00	BASE	0.30	347	1.29	4	1.2	100	1.2	0	0	971.7	NA	0.0000	UP	9999	0	0	0	2820
2019/01/29 06:11:00	BASE	0.65	339	1.29	4	1.1	100	1.1	0	0	971.7	NA	0.0000	UP	9999	0	0	0	2950
2019/01/29 06:12:00	BASE	0.44	337	1.29	4	1.1	100	1.1	0	0	971.7	NA	0.0000	UP	9999	0	0	0	2890
2019/01/29 06:13:00	BASE	0.09	341	1.18	350	1.1	100	1.1	0	0	971.7	NA	0.0000	UP	9999	0	0	0	3350
2019/01/29 06:14:00	BASE	0.00	347	1.08	330	1.1	100	1.1	0	0	971.7	NA	0.0000	UP	9999	950	0	0	0
2019/01/29 06:15:00	BASE	0.00	346	1.08	330	1.1	100	1.1	0	0	971.7	NA	0.0000	UP	9999	0	0	0	3410
2019/01/29 06:16:00	BASE	0.05	344	1.08	339	1.1	100	1.1	0	0	971.7	NA	0.0000	UP	9999	0	0	0	3480
2019/01/29 06:17:00	BASE	0.05	344	1.08	339	1.1	100	1.1	0	0	971.7	NA	0.0000	UP	9999	0	0	0	3610
2019/01/29 06:18:00	BASE	0.50	345	1.13	349	1.2	100	1.2	0	0	971.7	NA	0.0000	UP	9999	0	0	0	3610
2019/01/29 06:19:00	BASE	0.50	346	1.13	349	1.2	100	1.2	0	0	971.7	NA	0.0000	UP	9999	0	0	0	300
2019/01/29 06:20:00	BASE	0.00	345	1.13	349	1.2	100	1.2	0	0	971.7	NA	0.0000	UP	9999	0	0	0	3810
2019/01/29 06:21:00	BASE	0.00	343	1.13	349	1.2	100	1.2	0	0	971.7	NA	0.2540	UP	9999	0	0	0	3770
2019/01/29 06:22:00	BASE	0.00	341	1.13	349	1.2	100	1.2	0	0	971.7	NA	0.0000	UP	9999	0	0	0	3870
2019/01/29 06:23:00	BASE	0.00	334	1.13	349	1.2	100	1.2	0	0	971.8	NA	0.0000	UP	9999	0	0	0	3840
2019/01/29 06:24:00	BASE	0.00	330	1.13	349	1.2	100	1.2	0	0	971.7	NA	0.0000	UP	9999	0	0	0	3810
2019/01/29 06:25:00	BASE	0.00	333	1.13	349	1.2	100	1.2	0	0	971.8	NA	0.0000	UP	9999	0	0	0	3810
2019/01/29 06:26:00	BASE	0.00	337	1.13	349	1.2	100	1.2	0	0	971.8	NA	0.0000	UP	9999	0	0	0	3740
2019/01/29 06:27:00	BASE	0.00	338	1.13	349	1.1	100	1.1	0	0	971.8	NA	0.0000	UP	9999	0	0	0	3250
2019/01/29 06:28:00	BASE	0.00	339	M	M	1.1	100	1.1	0	0	971.8	NA	0.0000	UP	9999	950	0	0	0
2019/01/29 06:29:00	BASE	0.00	340	M	M	1.1	100	1.1	0	0	971.8	NA	0.0000	UP	9999	890	0	0	0
2019/01/29 06:30:00	BASE	0.00	343	M	M	1.1	100	1.1	0	0	971.8	NA	0.0000	UP	9999	850	0	0	0
2019/01/29 06:31:00	BASE	0.00	340	M	M	1.1	100	1.1	0	0	971.8	NA	0.0000	UP	9999	820	0	0	0
2019/01/29 06:32:00	BASE	0.00	339	M	M	1.1	100	1.1	0	0	971.8	NA	0.0000	UP	9999	0	0	0	2920
2019/01/29 06:33:00	BASE	0.00	354	M	M	1.1	100	1.1	0	0	971.8	NA	0.0000	UP	9999	0	0	0	2990
2019/01/29 06:34:00	BASE	0.00	358	M	M	1.1	100	1.1	0	0	971.8	NA	0.0000	UP	9999	0	0	0	2790
2019/01/29 06:35:00	BASE	0.00	352	M	M	1.1	100	1.1	0	0	971.8	NA	0.0000	UP	9999	0	0	0	2850
2019/01/29 06:36:00	BASE	0.00	338	M	M	1.1	100	1.1	0	0	971.8	NA	0.0000	UP	9999	0	0	0	2790
2019/01/29 06:37:00	BASE	0.00	339	M	M	1.1	100	1.1	0	0	971.8	NA	0.0000	UP	9999	0	0	0	2720
2019/01/29 06:38:00	BASE	0.00	359	M	M	1.1	100	1.1	0	0	971.8	NA	0.0000	UP	9999	0	0	0	2690
2019/01/29 06:39:00	BASE	0.00	356	M	M	1.1	100	1.1	0	0	971.8	NA	0.0000	UP	9999	0	0	0	2690
2019/01/29 06:40:00	BASE	0.00	339	M	M	1.1	100	1.1	0	0	971.8	NA	0.0000	UP	9999	0	0	0	2530
2019/01/29 06:41:00	BASE	0.00	349	M	M	1.1	100	1.1	0	0	971.8	NA	0.0000	UP	9999	720	0	0	0
2019/01/29 06:42:00	BASE	0.00	2	M	M	1.1	100	1.1	0	0	971.8	NA	0.0000	UP	9999	720	0	0	0
2019/01/29 06:43:00	BASE	0.00	0	M	M	1.1	100	1.1	0	0	971.8	NA	0.0000	UP	9999	1380	0	0	0
2019/01/29 06:44:00	BASE	0.00	357	M	M	1.1	100	1.1	0	0	971.8	NA	0.0000	UP	9999	0	0	0	2820
2019/01/29 06:45:00	BASE	0.00	350	M	M	1.1	100	1.1	0	0	971.8	NA	0.0000	UP	9999	0	0	0	2990
2019/01/29 06:46:00	BASE	0.00	356	M	M	1.1	100	1.1	0	0	971.8	NA	0.2540	UP	9999	1080	0	0	0
2019/01/29 06:47:00	BASE	0.00	3	M	M	1.1	100	1.1	0	0	971.8	NA	0.0000	UP	9999	950	0	0	0
2019/01/29 06:48:00	BASE	0.00	357	M	M	1.1	100	1.1	0	0	971.8	NA	0.0000	UP	9999	1210	0	0	0
2019/01/29 06:49:00	BASE	0.00	354	M	M	1.1	100	1.1	0	0	971.8	NA	0.0000	UP	9999	1210	0	0	0
2019/01/29 06:50:00	BASE	0.00	357	M	M	1.1	100	1.1	0	0	971.8	NA	0.0000	UP	9999	920	0	0	0
2019/01/29 06:51:00	BASE	0.00	2	M	M	1.1	100	1.1	0	0	971.8	NA	0.0000	UP	9999	720	0	0	0
2019/01/29 06:52:00	BASE	0.00	3	M	M	1.1	100	1.1	0	0	971.9	NA	0.0000	UP	9999	690	0	0	0
2019/01/29 06:53:00	BASE	0.00	359	M	M	1.2	100	1.2	0	0	971.9	NA	0.0000	UP	9999	720	0	0	0
2019/01/29 06:54:00	BASE	0.00	351	M	M	1.2	100	1.2	0	0	971.9	NA	0.0000	UP	9999	0	0	0	2660
2019/01/29 06:55:00	BASE	0.00	356	M	M	1.2	100	1.2	0	0	972.0	NA	0.0000	UP	9999	0	0	0	2620
2019/01/29 06:56:00	BASE	0.00	350	M	M	1.2	100	1.2	0	0	971.9	NA	0.0000	UP	9999	1710	0	0	0
2019/01/29 06:57:00	BASE	0.00	350	M	M	1.2	100	1.2	0	0	971.9	NA	0.0000	UP	9999	0	0	0	2950
2019/01/29 06:58:00	BASE	0.00	7	M	M	1.2	100	1.2	0	0	972.0	NA	0.0000	UP	9999	1710	0	0	0
2019/01/29 06:59:00	BASE	0.00	10	M	M	1.2	100	1.2	0	0	972.0	NA	0.0000	UP	9999	1250	0	0	0
2019/01/29 07:00:00	BASE	0.00	6	M	M	1.1	100	1.1	0	0	972.0	NA	0.0000		9999	1210	0	0	0
2019/01/29 07:01:00	BASE	0.00	358	M	M	1.1	100	1.1	0	0	972.0	NA	0.0000		9999	0	0	0	2560
2019/01/29 07:02:00	BASE	0.00	359	M	M	1.1	100	1.1	0	0	972.0	NA	0.0000		9999	1800	0	0	0
2019/01/29 07:03:00	BASE	0.00	4	M	M	1.1	100	1.1	1	0	972.0	NA	0.0000		9999	2000	0	0	0
2019/01/29 07:04:00	BASE	0.00	2	M	M	1.1	100	1.1	1	0	972.0	NA	0.0000		9999	0	0	0	2950
2019/01/29 07:05:00	BASE	0.00	3	M	M	1.1	100	1.1	1	0	972.0	NA	0.0000		9999	1970	0	0	0
2019/01/29 07:06:00	BASE	0.00	4	M	M	1.1	100	1.1	1	0	972.0	NA	0.0000		9999	1250	0	0	0
2019/01/29 07:07:00	BASE	0.00	3	M	M	1.1	100	1.1	1	0	972.0	NA	0.0000		9999	1210	0	0	0
2019/01/29 07:08:00	BASE	0.00	2	M	M	1.1	100	1.1	1	0	972.1	NA	0.0000		9999	1350	2200	0	0
2019/01/29 07:09:00	BASE	0.00	1	M	M	1.1	100	1.1	1	0	972.1	NA	0.0000		9999	790	0	0	0
2019/01/29 07:10:00	BASE	0.00	1	M	M	1.0	100	1.0	1	0	972.1	NA	0.0000		9999	690	0	0	0
2019/01/29 07:11:00	BASE	0.00	1	M	M	1.0	100	1.0	1	0	972.1	NA	0.0000		9999	660	0	0	0
2019/01/29 07:12:00	BASE	0.00	7	M	M	1.0	100	1.0	1	0	972.1	NA	0.0000		9999	660	0	0	0
2019/01/29 07:13:00	BASE	0.00	14	M	M	1.0	100	1.0	1	0	972.1	NA	0.0000		9999	950	1800	0	0
2019/01/29 07:14:00	BASE	0.00	16	M	M	1.0	100	1.0	1	0	972.1	NA	0.0000		9999	820	0	0	0
2019/01/29 07:15:00	BASE	0.00	20	M	M	1.1	100	1.1	1	0	972.1	NA	0.0000		9999	720	0	0	0
2019/01/29 07:16:00	BASE	0.00	25	M	M	1.1	100	1.1	1	0	972.1	NA	0.0000		9999	690	0	0	0
2019/01/29 07:17:00	BASE	0.00	38	M	M	1.1	100	1.1	1	0	972.1	NA	0.2540		9999	660	0	0	0
2019/01/29 07:18:00	BASE	0.00	52	M	M	1.1	100	1.1	1	0	972.1	NA	0.0000		9999	620	0	0	0
2019/01/29 07:19:00	BASE	0.00	53	M	M	1.1	100	1.1	1	0	972.1	NA	0.0000	-RA	9999	560	0	0	0
2019/01/29 07:20:00	BASE	0.00	53	M	M	1.2	100	1.2	1	0	972.1	NA	0.0000	-RA	8000	460	0	0	0
2019/01/29 07:21:00	BASE	0.00	45	M	M	1.2	100	1.2	1	1	972.1	NA	0.0000	-RA BR	5000	430	0	0	0
2019/01/29 07:22:00	BASE	0.00	35	M	M	1.2	100	1.2	1	1	972.1	NA	0.0000	-SN BR	5000	430	0	0	0
2019/01/29 07:23:00	BASE	0.00	34	M	M	1.2	100	1.2	1	1	972.1	NA	0.0000	-SN BR	4100	390	0	0	0
2019/01/29 07:24:00	BASE	0.00	33	M	M	1.2	100	1.2	1	1	972.1	NA	0.0000	-SN BR	5000	430	0	0	0
2019/01/29 07:25:00	BASE	0.00	31	M	M	1.2	100	1.2	1	1	972.1	NA	0.0000	-SN BR	9000	520	0	0	0
2019/01/29 07:26:00	BASE	0.00	31	M	M	1.1	100	1.1	1	2	972.1	NA	0.0000	-SN BR	9999	0	0	0	2530
2019/01/29 07:27:00	BASE	0.00	31	M	M	1.2	100	1.2	1	2	972.1	NA	0.0000	-SN BR	9999	460	0	0	0
2019/01/29 07:28:00	BASE	0.00	31	M	M	1.2	100	1.2	1	2	972.1	NA	0.2540	-SN BR	9999	0	0	0	2330
2019/01/29 07:29:00	BASE	0.00	31	M	M	1.2	100	1.2	1	2	972.1	NA	0.0000	-SN BR	9999	0	0	0	2400
2019/01/29 07:30:00	BASE	0.00	31	M	M	1.2	100	1.2	1	3	972.1	NA	0.0000	-SN BR	9999	0	0	0	2200
2019/01/29 07:31:00	BASE	0.00	34	M	M	1.3	100	1.3	1	3	972.1	NA	0.0000	-SN BR	9999	0	0	0	2560
2019/01/29 07:32:00	BASE	0.00	38	M	M	1.2	100	1.2	1	3	972.1	NA	0.0000	-SN BR	9999	0	0	0	2400
2019/01/29 07:33:00	BASE	0.00	39	M	M	1.2	100	1.2	2	3	972.1	NA	0.0000	-SN BR	9999	0	0	0	2660
2019/01/29 07:34:00	BASE	0.00	41	M	M	1.2	100	1.2	2	3	972.1	NA	0.0000	-RA	9999	0	0	0	2660
2019/01/29 07:35:00	BASE	0.00	43	M	M	1.2	100	1.2	2	3	972.2	NA	0.0000	-RA	9999	0	0	0	2590
2019/01/29 07:36:00	BASE	0.00	43	M	M	1.2	100	1.2	2	3	972.2	NA	0.0000	-RA	9999	0	0	0	2530
2019/01/29 07:37:00	BASE	0.00	43	M	M	1.2	100	1.2	2	3	972.2	NA	0.0000	-RA	9999	1050	0	0	0
2019/01/29 07:38:00	BASE	0.00	43	M	M	1.2	100	1.2	2	4	972.2	NA	0.0000	-RA	9999	1080	0	0	0
2019/01/29 07:39:00	BASE	0.00	43	M	M	1.2	100	1.2	2	4	972.2	NA	0.0000	-RA	9999	1050	0	0	0
2019/01/29 07:40:00	BASE	0.00	43	M	M	1.2	100	1.2	2	4	972.1	NA	0.0000	-RA	9999	890	0	0	0
2019/01/29 07:41:00	BASE	0.00	43	M	M	1.2	100	1.2	2	4	972.1	NA	0.0000	-RA	9999	820	0	0	0
2019/01/29 07:42:00	BASE	0.00	47	M	M	1.2	100	1.2	2	4	972.1	NA	0.0000	-RA	9999	0	0	0	2760
2019/01/29 07:43:00	BASE	0.00	103	M	M	1.2	100	1.2	2	4	972.1	NA	0.0000	-RA	9999	0	0	0	2620
2019/01/29 07:44:00	BASE	0.00	149	M	M	1.2	100	1.2	2	5	972.1	NA	0.0000	-RA	9999	0	0	0	2760
2019/01/29 07:45:00	BASE	0.00	150	M	M	1.2	100	1.2	2	5	972.1	NA	0.0000	-RA	9999	0	0	0	2950
2019/01/29 07:46:00	BASE	0.00	150	M	M	1.3	100	1.3	2	5	972.1	NA	0.0000	-RA	9999	0	0	0	3050
2019/01/29 07:47:00	BASE	0.00	150	M	M	1.3	100	1.3	2	5	972.1	NA	0.2540	-RA	9999	0	0	0	3080
2019/01/29 07:48:00	BASE	0.00	150	M	M	1.3	100	1.3	2	6	972.1	NA	0.0000	-RA	9999	0	0	0	3080
2019/01/29 07:49:00	BASE	0.00	150	M	M	1.3	100	1.3	2	6	972.1	NA	0.0000	-RA	9999	0	0	0	2950
2019/01/29 07:50:00	BASE	0.00	150	M	M	1.3	100	1.3	2	6	972.1	NA	0.0000	-RA	9999	950	0	0	0
2019/01/29 07:51:00	BASE	0.00	150	M	M	1.3	100	1.3	2	6	972.1	NA	0.0000	-RA	9999	950	0	0	0
2019/01/29 07:52:00	BASE	0.00	150	M	M	1.3	100	1.3	3	6	972.1	NA	0.0000	-RA	9999	0	0	0	3180
2019/01/29 07:53:00	BASE	0.00	150	M	M	1.3	100	1.3	3	7	972.1	NA	0.0000	-RA	9999	0	0	0	3250
2019/01/29 07:54:00	BASE	0.00	150	M	M	1.3	100	1.3	3	7	972.1	NA	0.0000	-RA	9999	0	0	0	3220
2019/01/29 07:55:00	BASE	0.00	147	M	M	1.3	100	1.3	3	7	972.1	NA	0.0000	-RA	9999	0	0	0	3250
2019/01/29 07:56:00	BASE	0.00	140	M	M	1.3	100	1.3	3	7	972.1	NA	0.0000	-RA	9999	0	0	0	3050
2019/01/29 07:57:00	BASE	0.00	132	M	M	1.4	100	1.4	3	8	972.1	NA	0.0000	-RA	9999	0	0	0	2920
2019/01/29 07:58:00	BASE	0.00	127	M	M	1.3	100	1.3	4	8	972.1	NA	0.0000	-RA	9999	0	0	0	2950
2019/01/29 07:59:00	BASE	0.00	129	M	M	1.3	100	1.3	4	8	972.1	NA	0.0000	-RA	9999	0	0	0	2950
2019/01/29 08:00:00	BASE	0.00	130	M	M	1.3	100	1.3	4	9	972.2	NA	0.0000		9999	0	0	0	2890
2019/01/29 08:01:00	BASE	0.00	132	M	M	1.2	100	1.2	4	9	972.2	NA	0.0000		9999	0	0	0	2950
2019/01/29 08:02:00	BASE	0.00	133	M	M	1.2	100	1.2	4	10	972.2	NA	0.0000		9999	0	0	0	2950
2019/01/29 08:03:00	BASE	0.34	134	1.08	135	1.2	100	1.2	5	10	972.2	NA	0.0000		9999	0	0	0	2990
2019/01/29 08:04:00	BASE	0.48	135	1.08	135	1.2	100	1.2	5	11	972.2	NA	0.0000		9999	0	0	0	2950
2019/01/29 08:05:00	BASE	0.13	133	1.08	135	1.2	100	1.2	5	11	972.2	NA	0.0000		9999	0	0	0	2890
2019/01/29 08:06:00	BASE	0.00	132	1.08	135	1.3	100	1.3	5	12	972.2	NA	0.0000		9000	0	0	0	2820
2019/01/29 08:07:00	BASE	0.32	133	1.13	136	1.3	100	1.3	6	12	972.2	NA	0.0000		9999	0	0	0	2820
2019/01/29 08:08:00	BASE	0.82	135	1.18	136	1.3	100	1.3	6	13	972.2	NA	0.0000	-RA	9000	1050	0	0	0
2019/01/29 08:09:00	BASE	1.03	136	1.18	136	1.3	100	1.3	6	13	972.2	NA	0.0000	-RA BR	8000	1050	0	0	0
2019/01/29 08:10:00	BASE	1.04	136	1.18	136	1.3	100	1.3	6	14	972.2	NA	0.0000	-RA BR	7000	0	0	0	2660
2019/01/29 08:11:00	BASE	1.03	136	1.29	135	1.2	100	1.2	7	15	972.2	NA	0.0000	-RA BR	8000	950	0	0	0
2019/01/29 08:12:00	BASE	1.06	136	1.29	135	1.2	100	1.2	7	15	972.2	NA	0.0000	-RA BR	7000	920	0	0	0
2019/01/29 08:13:00	BASE	0.98	135	1.29	136	1.2	100	1.2	8	16	972.2	NA	0.2540	-RA BR	7000	750	0	0	0
2019/01/29 08:14:00	BASE	0.44	133	1.29	136	1.2	100	1.2	8	17	972.2	NA	0.0000	-RA BR	8000	620	0	0	0
2019/01/29 08:15:00	BASE	0.09	126	1.29	136	1.2	100	1.2	9	19	972.2	NA	0.0000	-RA BR	7000	620	0	0	0
2019/01/29 08:16:00	BASE	0.09	120	1.29	136	1.3	100	1.3	9	19	972.2	NA	0.0000	-RA BR	8000	590	0	0	0
2019/01/29 08:17:00	BASE	0.00	118	1.29	136	1.3	100	1.3	10	21	972.2	NA	0.0000	-RA BR	9000	660	0	0	0
2019/01/29 08:18:00	BASE	0.00	112	1.29	136	1.3	100	1.3	10	22	972.2	NA	0.0000	-RA BR	9999	0	0	0	2720
2019/01/29 08:19:00	BASE	0.00	116	1.29	136	1.3	100	1.3	11	23	972.2	NA	0.0000	-RA BR	9999	590	0	0	0
2019/01/29 08:20:00	BASE	0.00	123	1.29	136	1.3	100	1.3	11	24	972.2	NA	0.0000	-RA BR	8000	790	0	0	0
2019/01/29 08:21:00	BASE	0.00	117	1.29	136	1.3	100	1.3	12	25	972.3	NA	0.0000	-RA BR	7000	720	0	0	0
2019/01/29 08:22:00	BASE	0.00	102	1.29	136	1.3	100	1.3	13	26	972.3	NA	0.0000	-RA BR	9000	0	0	0	2950
2019/01/29 08:23:00	BASE	0.00	108	1.03	126	1.3	100	1.3	13	27	972.3	NA	0.0000	-RA BR	8000	0	0	0	2920
2019/01/29 08:24:00	BASE	0.00	116	1.03	126	1.4	100	1.4	13	28	972.3	NA	0.0000	-RA BR	9000	0	0	0	2950
2019/01/29 08:25:00	BASE	0.00	104	M	M	1.4	100	1.4	13	28	972.3	NA	0.0000	-RA BR	9999	0	0	0	3120
2019/01/29 08:26:00	BASE	0.00	104	M	M	1.4	100	1.4	13	28	972.2	NA	0.0000	-RA BR	9999	0	0	0	3020
2019/01/29 08:27:00	BASE	0.00	108	M	M	1.4	100	1.4	13	29	972.2	NA	0.2540	-RA BR	9000	0	0	0	3050
2019/01/29 08:28:00	BASE	0.62	112	1.39	110	1.4	100	1.4	13	29	972.2	NA	0.0000	-RA BR	9000	0	0	0	3020
2019/01/29 08:29:00	BASE	0.92	113	1.39	101	1.3	100	1.3	13	29	972.2	NA	0.0000	-RA BR	9000	660	0	0	0
2019/01/29 08:30:00	BASE	0.86	111	1.54	113	1.3	100	1.3	14	30	972.2	NA	0.0000	-RA BR	9000	660	0	0	0
2019/01/29 08:31:00	BASE	1.24	111	1.54	113	1.3	100	1.3	14	31	972.2	NA	0.0000	-RA BR	9999	620	0	0	0
2019/01/29 08:32:00	BASE	1.39	111	1.65	115	1.3	100	1.3	14	31	972.2	NA	0.0000	-RA BR	9999	560	0	0	0
2019/01/29 08:33:00	BASE	1.47	111	1.65	118	1.3	100	1.3	14	32	972.2	NA	0.0000	-RA BR	9999	0	0	0	2790
2019/01/29 08:34:00	BASE	1.54	111	1.75	101	1.3	100	1.3	15	33	972.2	NA	0.0000	-RA BR	9999	0	0	0	2620
2019/01/29 08:35:00	BASE	1.55	111	1.75	101	1.3	100	1.3	15	34	972.2	NA	0.0000	-RA BR	9000	620	0	0	0
2019/01/29 08:36:00	BASE	1.58	111	1.75	109	1.3	100	1.3	16	35	972.2	NA	0.0000	-RA BR	9000	660	0	0	0
2019/01/29 08:37:00	BASE	1.57	107	1.75	109	1.3	100	1.3	16	36	972.2	NA	0.0000	-RA BR	9000	660	0	0	0
2019/01/29 08:38:00	BASE	1.61	106	2.06	108	1.3	100	1.3	16	37	972.2	NA	0.0000	-RA BR	9999	620	0	0	0
2019/01/29 08:39:00	BASE	1.82	107	2.06	109	1.2	100	1.2	17	38	972.2	NA	0.0000	-RA BR	9000	590	0	0	0
2019/01/29 08:40:00	BASE	1.84	107	2.06	109	1.2	100	1.2	17	38	972.3	NA	0.0000	-RA BR	9999	560	2260	0	0
2019/01/29 08:41:00	BASE	1.68	107	2.06	109	1.2	100	1.2	17	39	972.2	NA	0.0000	-RA BR	9000	520	0	0	0
2019/01/29 08:42:00	BASE	1.59	106	2.06	109	1.2	100	1.2	18	40	972.2	NA	0.0000	-RA BR	9999	590	0	0	0
2019/01/29 08:43:00	BASE	1.42	104	2.06	109	1.2	100	1.2	18	41	972.3	NA	0.0000	-RA BR	9999	620	0	0	0
2019/01/29 08:44:00	BASE	1.13	101	2.06	109	1.2	100	1.2	19	42	972.3	NA	0.0000	-RA BR	9999	0	0	0	3120
2019/01/29 08:45:00	BASE	0.96	99	2.06	109	1.3	100	1.3	19	43	972.3	NA	0.0000	-RA BR	9999	0	0	0	3510
2019/01/29 08:46:00	BASE	1.08	102	2.06	109	1.3	100	1.3	19	44	972.3	NA	0.0000	-RA BR	9999	0	0	0	3150
2019/01/29 08:47:00	BASE	1.31	104	2.06	109	1.3	100	1.3	20	45	972.3	NA	0.0000	-RA BR	9000	690	0	0	0
2019/01/29 08:48:00	BASE	1.44	104	2.06	109	1.3	100	1.3	20	46	972.3	NA	0.0000	-RA BR	9000	0	0	0	3120
2019/01/29 08:49:00	BASE	1.57	105	1.85	107	1.4	100	1.4	21	47	972.3	NA	0.0000	-RA BR	9000	0	0	0	3380
2019/01/29 08:50:00	BASE	1.54	108	1.85	107	1.3	100	1.3	21	48	972.3	NA	0.0000	-RA BR	9000	0	0	0	3450
2019/01/29 08:51:00	BASE	1.29	107	1.85	107	1.3	100	1.3	21	49	972.3	NA	0.0000	-RA BR	9000	0	0	0	3610
2019/01/29 08:52:00	BASE	1.06	103	1.85	107	1.3	100	1.3	22	50	972.3	NA	0.0000	-RA BR	9999	0	0	0	3410
2019/01/29 08:53:00	BASE	0.58	99	1.85	107	1.3	100	1.3	22	51	972.3	NA	0.0000	-RA BR	9999	0	0	0	3480
2019/01/29 08:54:00	BASE	0.09	97	1.85	107	1.3	100	1.3	22	52	972.3	NA	0.0000	-RA BR	9999	0	0	0	3350
2019/01/29 08:55:00	BASE	0.00	91	1.85	107	1.3	100	1.3	23	52	972.3	NA	0.2540	-RA BR	9999	720	0	0	0
2019/01/29 08:56:00	BASE	0.00	92	1.85	107	1.3	100	1.3	23	53	972.3	NA	0.0000	-RA BR	9999	660	0	0	0
2019/01/29 08:57:00	BASE	0.00	104	1.85	107	1.3	100	1.3	23	53	972.3	NA	0.0000	-RA BR	9999	590	0	0	0
2019/01/29 08:58:00	BASE	0.00	109	1.85	107	1.3	100	1.3	24	55	972.3	NA	0.0000	-RA BR	9999	490	0	0	0
2019/01/29 08:59:00	BASE	0.00	111	1.54	109	1.3	100	1.3	24	56	972.3	NA	0.0000	-RA BR	9999	460	0	0	0
2019/01/29 09:00:00	BASE	0.00	112	1.39	101	1.3	100	1.3	25	58	972.3	NA	0.0000	-RA	9999	430	0	0	0
2019/01/29 09:01:00	BASE	0.00	110	1.29	101	1.3	100	1.3	26	61	972.3	NA	0.0000	-RA	9999	430	0	0	0
2019/01/29 09:02:00	BASE	0.00	98	1.08	98	1.3	100	1.3	28	64	972.3	NA	0.0000	-RA	9000	430	0	0	0
2019/01/29 09:03:00	BASE	0.00	5	M	M	1.3	100	1.3	29	67	972.3	NA	0.0000	-RA BR	9000	390	0	0	0
2019/01/29 09:04:00	BASE	0.00	309	M	M	1.4	100	1.4	31	70	972.3	NA	0.0000	-RA BR	9000	390	0	0	0
2019/01/29 09:05:00	BASE	0.00	307	M	M	1.3	100	1.3	32	72	972.3	NA	0.0000	-RA BR	9000	360	0	0	0
2019/01/29 09:06:00	BASE	0.00	344	M	M	1.3	100	1.3	33	74	972.4	NA	0.0000	-RA BR	9000	390	0	0	0
2019/01/29 09:07:00	BASE	0.00	8	M	M	1.3	100	1.3	34	77	972.4	NA	0.0000	-RA BR	9000	390	1080	0	0
2019/01/29 09:08:00	BASE	0.00	15	M	M	1.2	100	1.2	36	79	972.4	NA	0.0000	-RA BR	9999	390	0	0	0
2019/01/29 09:09:00	BASE	0.00	13	M	M	1.2	100	1.2	37	82	972.4	NA	0.0000	-RA BR	9000	430	0	0	0
2019/01/29 09:10:00	BASE	0.00	10	M	M	1.2	100	1.2	38	84	972.4	NA	0.0000	-RA BR	9000	430	0	0	0
2019/01/29 09:11:00	BASE	0.00	359	M	M	1.2	100	1.2	39	86	972.4	NA	0.0000	-RA BR	9999	390	0	0	0
2019/01/29 09:12:00	BASE	0.00	345	M	M	1.2	100	1.2	39	88	972.4	NA	0.0000	-RA BR	9999	390	0	0	0
2019/01/29 09:13:00	BASE	0.00	329	M	M	1.2	100	1.2	40	90	972.4	NA	0.0000	-RA BR	9000	430	0	0	0
2019/01/29 09:14:00	BASE	0.00	316	M	M	1.2	100	1.2	41	92	972.4	NA	0.0000	-RA BR	9000	430	0	0	0
2019/01/29 09:15:00	BASE	0.30	317	1.29	313	1.2	100	1.2	41	93	972.5	NA	0.0000	-RA BR	9000	430	0	0	0
2019/01/29 09:16:00	BASE	0.92	318	1.39	315	1.1	100	1.1	41	94	972.4	NA	0.0000	-RA BR	9000	390	0	0	0
2019/01/29 09:17:00	BASE	1.26	313	1.39	306	1.1	100	1.1	42	95	972.5	NA	0.0000	-RA BR	8000	390	0	0	0
2019/01/29 09:18:00	BASE	1.33	299	1.70	288	1.0	100	1.0	42	96	972.5	NA	0.0000	-RA BR	9000	390	0	0	0
2019/01/29 09:19:00	BASE	1.54	293	1.95	299	0.9	100	0.9	43	98	972.5	NA	0.0000	-RA BR	9000	360	0	0	0
2019/01/29 09:20:00	BASE	1.68	299	1.95	299	0.8	100	0.8	44	100	972.5	NA	0.0000	-RA BR	9000	360	0	0	0
2019/01/29 09:21:00	BASE	1.65	299	1.95	299	0.7	100	0.7	44	102	972.5	NA	0.0000	-RA BR	9000	360	0	0	0
2019/01/29 09:22:00	BASE	1.71	299	1.95	299	0.6	100	0.6	44	102	972.6	NA	0.0000	-RA BR	9000	360	0	0	0
2019/01/29 09:23:00	BASE	1.80	300	1.95	303	0.6	100	0.6	44	101	972.6	NA	0.0000	-RA BR	9000	360	0	0	0
2019/01/29 09:24:00	BASE	1.91	302	2.06	306	0.6	100	0.6	44	100	972.6	NA	0.0000	-RA BR	9000	0	0	0	1080
2019/01/29 09:25:00	BASE	2.04	306	2.21	311	0.6	100	0.6	44	101	972.6	NA	0.0000	-RA BR	9000	0	0	0	950
2019/01/29 09:26:00	BASE	2.09	308	2.21	312	0.6	100	0.6	46	104	972.6	NA	0.0000	-RA BR	9000	0	0	0	920
2019/01/29 09:27:00	BASE	2.14	309	2.37	312	0.6	100	0.6	47	106	972.6	NA	0.0000	-RA BR	6000	0	0	0	1080
2019/01/29 09:28:00	BASE	2.21	311	2.37	310	0.6	100	0.6	48	108	972.6	NA	0.0000	-SN BR	5000	0	0	0	1310
2019/01/29 09:29:00	BASE	2.26	311	2.42	313	0.6	100	0.6	48	109	972.6	NA	0.0000	-SN BR	3800	230	0	0	0
2019/01/29 09:30:00	BASE	2.31	312	2.52	316	0.6	100	0.6	48	108	972.6	NA	0.2540	-SN BR	4500	160	0	0	0
2019/01/29 09:31:00	BASE	2.41	313	2.62	314	0.6	100	0.6	48	109	972.6	NA	0.0000	-SN BR	2800	0	0	0	1250
2019/01/29 09:32:00	BASE	2.37	315	2.62	314	0.7	100	0.7	48	109	972.6	NA	0.0000	-SN BR	3600	200	620	0	0
2019/01/29 09:33:00	BASE	2.24	315	2.62	314	0.7	100	0.7	47	108	972.6	NA	0.0000	-SN BR	6000	200	690	0	0
2019/01/29 09:34:00	BASE	2.28	312	2.62	314	0.6	100	0.6	47	108	972.6	NA	0.0000	-SN BR	5000	200	750	0	0
2019/01/29 09:35:00	BASE	2.28	311	2.62	314	0.7	100	0.7	48	109	972.6	NA	0.0000	-SN BR	7000	0	0	0	2070
2019/01/29 09:36:00	BASE	2.19	314	2.62	314	0.6	100	0.6	48	109	972.6	NA	0.0000	-SN BR	6000	200	790	0	0
2019/01/29 09:37:00	BASE	2.21	315	2.62	314	0.6	100	0.6	48	110	972.6	NA	0.0000	-SN BR	5000	230	0	0	0
2019/01/29 09:38:00	BASE	2.25	315	2.62	314	0.6	100	0.6	48	111	972.7	NA	0.0000	-SN BR	5000	230	0	0	0
2019/01/29 09:39:00	BASE	2.22	316	2.62	314	0.7	100	0.7	49	113	972.7	NA	0.0000	-SN BR	6000	230	0	0	0
2019/01/29 09:40:00	BASE	2.26	318	2.62	314	0.7	100	0.7	51	116	972.7	NA	0.0000	-SN BR	4900	260	0	0	0
2019/01/29 09:41:00	BASE	2.31	317	2.57	316	0.7	100	0.7	52	119	972.7	NA	0.0000	-SN BR	5000	300	1280	0	0
2019/01/29 09:42:00	BASE	2.27	314	2.57	316	0.7	100	0.7	52	120	972.7	NA	0.0000	-SN BR	6000	300	1250	0	0
2019/01/29 09:43:00	BASE	2.21	316	2.57	316	0.7	100	0.7	53	122	972.7	NA	0.0000	-SN BR	8000	260	0	0	0
2019/01/29 09:44:00	BASE	2.16	317	2.57	316	0.7	100	0.7	54	124	972.7	NA	0.0000	-SN BR	7000	300	0	0	0
2019/01/29 09:45:00	BASE	2.12	314	2.57	316	0.7	100	0.7	54	126	972.7	NA	0.0000	-SN BR	5000	330	0	0	0
2019/01/29 09:46:00	BASE	2.09	315	2.57	316	0.7	100	0.7	55	127	972.7	NA	0.0000	-SN BR	5000	330	0	0	0
2019/01/29 09:47:00	BASE	2.08	315	2.52	311	0.7	100	0.7	56	129	972.7	NA	0.0000	-SN BR	5000	330	0	0	0
2019/01/29 09:48:00	BASE	2.06	312	2.52	311	0.7	100	0.7	57	131	972.7	NA	0.0000	-SN BR	5000	360	0	0	0
2019/01/29 09:49:00	BASE	2.09	312	2.52	311	0.7	100	0.7	58	134	972.7	NA	0.0000	-SN BR	7000	330	0	0	0
2019/01/29 09:50:00	BASE	2.08	312	2.52	311	0.7	100	0.7	58	136	972.7	NA	0.0000	-SN BR	8000	360	0	0	0
2019/01/29 09:51:00	BASE	2.05	311	2.42	317	0.6	100	0.6	59	137	972.7	NA	0.0000	-SN BR	9000	390	0	0	0
2019/01/29 09:52:00	BASE	2.13	311	2.37	324	0.6	100	0.6	60	139	972.7	NA	0.0000	-SN BR	9999	980	0	0	0
2019/01/29 09:53:00	BASE	2.23	311	2.42	311	0.6	100	0.6	60	140	972.7	NA	0.0000	-SN BR	9999	0	0	0	2490
2019/01/29 09:54:00	BASE	2.21	309	2.42	311	0.6	100	0.6	61	141	972.7	NA	0.0000	-SN BR	9999	0	0	0	2460
2019/01/29 09:55:00	BASE	2.15	308	2.42	311	0.6	100	0.6	62	144	972.7	NA	0.2540	-SN BR	9000	0	0	0	2690
2019/01/29 09:56:00	BASE	2.07	309	2.42	311	0.6	100	0.6	62	145	972.7	NA	0.0000	-SN BR	9000	23260	0	0	0
2019/01/29 09:57:00	BASE	1.94	309	2.42	311	0.6	100	0.6	63	147	972.7	NA	0.0000	-SN BR	9999	0	0	0	2760
2019/01/29 09:58:00	BASE	1.90	310	2.42	311	0.6	100	0.6	64	148	972.7	NA	0.0000	-SN BR	9000	980	0	0	0
2019/01/29 09:59:00	BASE	1.80	311	2.42	311	0.6	100	0.6	64	150	972.7	NA	0.0000	-SN BR	9000	920	0	0	0
2019/01/29 10:00:00	BASE	1.74	311	2.42	311	0.6	100	0.6	65	151	972.7	NA	0.0000	-SN BR	9000	920	0	0	0
2019/01/29 10:01:00	BASE	1.74	310	2.42	311	0.7	100	0.7	65	153	972.8	NA	0.0000	-SN BR	9000	920	0	0	0
2019/01/29 10:02:00	BASE	1.63	310	2.42	311	0.7	100	0.7	66	155	972.8	NA	0.0000	-SN BR	9000	790	0	0	0
2019/01/29 10:03:00	BASE	1.63	310	2.31	307	0.8	100	0.8	66	156	972.8	NA	0.0000	-SN BR	9000	720	0	0	0
2019/01/29 10:04:00	BASE	1.69	309	2.21	311	0.8	100	0.8	66	157	972.8	NA	0.0000	-SN BR	9000	690	0	0	0
2019/01/29 10:05:00	BASE	1.72	308	2.06	312	0.8	100	0.8	67	157	972.8	NA	0.0000	BR	9000	720	0	0	0
2019/01/29 10:06:00	BASE	1.80	311	1.95	311	0.8	100	0.8	67	158	972.8	NA	0.0000	BR	9000	720	0	0	0
2019/01/29 10:07:00	BASE	1.76	310	1.95	311	0.7	100	0.7	67	159	972.8	NA	0.0000	BR	8000	690	0	0	0
2019/01/29 10:08:00	BASE	1.70	307	1.95	311	0.7	100	0.7	67	160	972.8	NA	0.0000	BR	8000	720	0	0	0
2019/01/29 10:09:00	BASE	1.66	303	1.95	311	0.6	100	0.6	67	161	972.8	NA	0.0000	BR	8000	1120	0	0	0
2019/01/29 10:10:00	BASE	1.64	301	1.95	311	0.6	100	0.6	68	162	972.8	NA	0.0000	BR	8000	1120	0	0	0
2019/01/29 10:11:00	BASE	1.68	300	1.95	311	0.6	100	0.6	68	163	972.8	NA	0.0000	BR	8000	1120	0	0	0
2019/01/29 10:12:00	BASE	1.73	301	1.95	311	0.6	100	0.6	69	165	972.8	NA	0.0000	BR	8000	200	1120	0	0
2019/01/29 10:13:00	BASE	1.75	303	1.95	311	0.6	100	0.6	70	167	972.8	NA	0.0000	BR	8000	1080	0	0	0
2019/01/29 10:14:00	BASE	1.82	306	2.01	310	0.6	100	0.6	71	169	972.8	NA	0.0000	BR	7000	1050	0	0	0
2019/01/29 10:15:00	BASE	1.87	308	2.01	310	0.6	100	0.6	71	171	972.8	NA	0.0000	BR	7000	1080	0	0	0
2019/01/29 10:16:00	BASE	1.87	308	2.01	310	0.6	100	0.6	73	174	972.8	NA	0.0000	BR	7000	1080	0	0	0
2019/01/29 10:17:00	BASE	1.87	310	2.01	310	0.6	100	0.6	74	177	972.8	NA	0.0000	BR	7000	1050	0	0	0
2019/01/29 10:18:00	BASE	1.86	311	2.01	310	0.7	100	0.7	76	181	972.9	NA	0.0000	BR	7000	1020	0	0	0
2019/01/29 10:19:00	BASE	1.86	310	2.01	310	0.7	100	0.7	78	185	972.9	NA	0.0000	BR	7000	980	0	0	0
2019/01/29 10:20:00	BASE	1.88	306	2.01	310	0.7	100	0.7	79	189	972.9	NA	0.0000	BR	7000	890	0	0	0
2019/01/29 10:21:00	BASE	1.95	303	2.16	305	0.7	100	0.7	81	193	972.9	NA	0.0000	BR	7000	1050	0	0	0
2019/01/29 10:22:00	BASE	2.03	304	2.16	307	0.7	100	0.6	83	198	972.9	NA	0.0000	BR	7000	230	0	0	0
2019/01/29 10:23:00	BASE	2.03	306	2.21	308	0.6	100	0.6	84	201	972.9	NA	0.0000	BR	7000	260	0	0	0
2019/01/29 10:24:00	BASE	1.97	307	2.21	308	0.6	100	0.6	86	204	972.9	NA	0.0000	BR	7000	1020	0	0	0
2019/01/29 10:25:00	BASE	1.90	307	2.21	308	0.7	100	0.6	86	206	972.9	NA	0.0000	BR	6000	890	0	0	0
2019/01/29 10:26:00	BASE	1.85	305	2.21	308	0.7	100	0.7	87	208	972.9	NA	0.0000	BR	6000	920	0	0	0
2019/01/29 10:27:00	BASE	1.90	301	2.21	308	0.7	100	0.7	88	210	972.9	NA	0.2540	BR	6000	920	0	0	0
2019/01/29 10:28:00	BASE	1.98	300	2.21	308	0.7	100	0.7	88	212	972.9	NA	0.0000	BR	6000	920	0	0	0
2019/01/29 10:29:00	BASE	2.02	301	2.21	308	0.7	100	0.7	89	214	972.9	NA	0.0000	BR	6000	850	0	0	0
2019/01/29 10:30:00	BASE	2.04	301	2.21	308	0.7	100	0.7	90	216	972.9	NA	0.0000	BR	6000	850	0	0	0
2019/01/29 10:31:00	BASE	2.04	298	2.21	308	0.7	100	0.7	90	217	972.9	NA	0.0000	BR	6000	820	0	0	0
2019/01/29 10:32:00	BASE	2.05	296	2.21	308	0.7	100	0.7	91	219	972.9	NA	0.0000	BR	6000	820	0	0	0
2019/01/29 10:33:00	BASE	2.05	294	2.11	293	0.7	100	0.7	91	220	972.9	NA	0.0000	BR	6000	820	0	0	0
2019/01/29 10:34:00	BASE	2.10	295	2.16	299	0.7	100	0.7	92	222	972.9	NA	0.0000	BR	6000	790	0	0	0
2019/01/29 10:35:00	BASE	2.08	298	2.21	297	0.7	100	0.7	93	225	972.9	NA	0.0000	BR	6000	790	0	0	0
2019/01/29 10:36:00	BASE	2.04	299	2.21	297	0.7	100	0.7	94	227	972.9	NA	0.0000	BR	6000	750	23030	0	0
2019/01/29 10:37:00	BASE	2.08	296	2.21	297	0.7	100	0.7	96	230	972.9	NA	0.0000	UP BR	6000	720	0	0	0
2019/01/29 10:38:00	BASE	2.13	296	2.21	298	0.7	100	0.7	97	233	972.9	NA	0.0000	UP BR	6000	750	0	0	0
2019/01/29 10:39:00	BASE	2.16	297	2.21	297	0.7	100	0.7	98	235	972.9	NA	0.0000	UP BR	5000	750	0	0	0
2019/01/29 10:40:00	BASE	2.14	298	2.21	299	0.7	100	0.7	98	237	972.9	NA	0.0000	UP BR	6000	720	0	0	0
2019/01/29 10:41:00	BASE	2.08	299	2.21	299	0.7	100	0.7	99	239	972.9	NA	0.0000	UP BR	7000	720	0	0	0
2019/01/29 10:42:00	BASE	2.01	299	2.21	299	0.6	100	0.6	100	242	972.9	NA	0.0000	UP BR	8000	720	0	0	0
2019/01/29 10:43:00	BASE	1.93	299	2.21	299	0.6	100	0.6	101	244	972.9	NA	0.0000	UP BR	8000	690	0	0	0
2019/01/29 10:44:00	BASE	1.90	301	2.21	299	0.6	100	0.6	102	246	972.9	NA	0.0000	UP BR	8000	690	0	0	0
2019/01/29 10:45:00	BASE	1.89	303	2.21	299	0.6	100	0.6	103	248	972.9	NA	0.0000	UP BR	8000	660	0	0	0
2019/01/29 10:46:00	BASE	1.91	303	2.21	299	0.6	100	0.6	104	250	972.9	NA	0.0000	UP BR	8000	660	0	0	0
2019/01/29 10:47:00	BASE	1.96	302	2.21	299	0.6	100	0.6	105	251	972.9	NA	0.0000	UP BR	8000	620	1570	0	0
2019/01/29 10:48:00	BASE	1.97	300	2.21	299	0.6	100	0.5	105	252	972.9	NA	0.0000	UP BR	8000	620	0	0	0
2019/01/29 10:49:00	BASE	1.97	297	2.21	299	0.6	100	0.6	105	252	972.9	NA	0.0000	UP BR	8000	0	0	0	3380
2019/01/29 10:50:00	BASE	1.97	295	2.11	301	0.6	100	0.6	104	250	972.9	NA	0.0000	BR	8000	660	0	0	0
2019/01/29 10:51:00	BASE	1.95	296	2.06	296	0.6	100	0.6	103	247	972.9	NA	0.0000	BR	8000	660	0	0	0
2019/01/29 10:52:00	BASE	1.93	297	2.06	296	0.7	100	0.7	101	244	972.9	NA	0.0000	BR	8000	690	0	0	0
2019/01/29 10:53:00	BASE	1.94	296	2.06	295	0.7	100	0.7	99	239	972.9	NA	0.0000	BR	8000	660	0	0	0
2019/01/29 10:54:00	BASE	1.95	295	2.06	295	0.7	100	0.7	97	235	972.9	NA	0.0000	BR	8000	260	1250	0	0
2019/01/29 10:55:00	BASE	1.82	296	2.06	295	0.8	100	0.8	95	232	973.0	NA	0.0000	BR	8000	300	0	0	0
2019/01/29 10:56:00	BASE	1.71	296	2.06	295	0.8	100	0.8	94	230	972.9	NA	0.0000	BR	8000	560	0	0	0
2019/01/29 10:57:00	BASE	1.66	296	2.06	295	0.7	100	0.7	93	229	973.0	NA	0.0000	BR	8000	0	0	0	3120
2019/01/29 10:58:00	BASE	1.63	297	2.06	295	0.7	100	0.7	93	228	973.0	NA	0.0000	BR	8000	0	0	0	3220
2019/01/29 10:59:00	BASE	1.68	298	2.06	295	0.7	100	0.7	92	227	973.0	NA	0.0000	BR	8000	0	0	0	3310
2019/01/29 11:00:00	BASE	1.70	300	2.06	295	0.7	100	0.7	91	225	973.0	NA	0.0000	UP BR	8000	0	0	0	260
2019/01/29 11:01:00	BASE	1.71	300	2.06	295	0.8	100	0.8	90	223	973.0	NA	0.0000	UP BR	6000	590	0	0	0
2019/01/29 11:02:00	BASE	1.72	300	2.06	295	0.8	100	0.8	89	221	973.0	NA	0.0000	UP BR	7000	560	0	0	0
2019/01/29 11:03:00	BASE	1.74	300	2.06	295	0.8	100	0.8	87	218	973.0	NA	0.0000	UP BR	9000	1610	0	0	0
2019/01/29 11:04:00	BASE	1.76	300	1.85	300	0.8	100	0.8	86	214	973.0	NA	0.0000	UP BR	9000	0	0	0	3350
2019/01/29 11:05:00	BASE	1.75	302	1.85	299	0.7	100	0.7	84	210	973.0	NA	0.0000	UP BR	9000	620	2260	0	0
2019/01/29 11:06:00	BASE	1.71	305	1.85	299	0.7	100	0.7	83	208	973.0	NA	0.0000	UP BR	9000	460	2330	0	0
2019/01/29 11:07:00	BASE	1.69	304	1.85	301	0.7	100	0.7	83	210	973.0	NA	0.0000	UP BR	9000	460	0	0	0
2019/01/29 11:08:00	BASE	1.58	306	1.85	304	0.6	100	0.6	85	214	973.0	NA	0.2540	UP BR	9000	490	0	0	0
2019/01/29 11:09:00	BASE	1.43	314	1.85	304	0.6	100	0.6	87	219	973.0	NA	0.0000	UP BR	9000	520	2300	0	0
2019/01/29 11:10:00	BASE	1.37	315	1.85	304	0.7	100	0.7	88	221	973.0	NA	0.0000	UP BR	9000	560	2300	0	0
2019/01/29 11:11:00	BASE	1.38	317	1.85	304	0.7	100	0.7	89	223	973.0	NA	0.0000	UP BR	9999	520	2330	0	0
2019/01/29 11:12:00	BASE	1.45	326	1.85	304	0.7	100	0.7	90	226	973.0	NA	0.0000	UP BR	9000	490	0	0	0
2019/01/29 11:13:00	BASE	1.31	329	1.85	304	0.7	100	0.7	92	232	973.0	NA	0.0000	UP BR	9000	460	0	0	0
2019/01/29 11:14:00	BASE	1.30	329	1.85	304	0.7	100	0.7	97	243	973.0	NA	0.0000	UP BR	9000	490	0	0	0
2019/01/29 11:15:00	BASE	1.42	329	1.85	304	0.7	100	0.7	103	256	973.0	NA	0.0000	UP BR	9000	520	0	0	0
2019/01/29 11:16:00	BASE	1.37	323	1.85	304	0.7	100	0.7	108	268	973.0	NA	0.0000	UP BR	9000	560	0	0	0
2019/01/29 11:17:00	BASE	1.39	320	1.85	304	0.8	100	0.8	112	276	973.0	NA	0.0000	UP BR	9000	590	1250	0	0
2019/01/29 11:18:00	BASE	1.41	326	1.65	337	0.8	100	0.8	113	279	973.0	NA	0.0000	UP BR	9000	2130	0	0	0
2019/01/29 11:19:00	BASE	1.61	329	1.95	323	0.7	100	0.7	114	281	973.0	NA	0.0000	UP BR	9000	2230	0	0	0
2019/01/29 11:20:00	BASE	1.73	326	1.95	323	0.7	100	0.7	114	282	973.1	NA	0.0000	UP BR	9000	660	2260	0	0
2019/01/29 11:21:00	BASE	1.59	326	1.95	323	0.7	100	0.7	115	284	973.2	NA	0.0000	UP BR	9000	590	2260	0	0
2019/01/29 11:22:00	BASE	1.44	322	1.95	323	0.7	100	0.7	117	289	973.2	NA	0.0000	UP BR	9000	590	0	0	0
2019/01/29 11:23:00	BASE	1.28	319	1.95	323	0.7	100	0.7	119	294	973.2	NA	0.0000	BR	9000	590	0	0	0
2019/01/29 11:24:00	BASE	1.18	323	1.95	323	0.7	100	0.7	120	297	973.2	NA	0.0000	BR	9000	660	0	0	0
2019/01/29 11:25:00	BASE	1.07	328	1.95	323	0.7	100	0.7	121	298	973.2	NA	0.0000	BR	9000	1570	2130	0	0
2019/01/29 11:26:00	BASE	0.74	332	1.95	323	0.7	100	0.7	122	301	973.2	NA	0.0000	BR	9000	2300	0	0	0
2019/01/29 11:27:00	BASE	0.25	334	1.95	323	0.7	100	0.7	124	305	973.2	NA	0.0000	BR	9999	2170	0	0	0
2019/01/29 11:28:00	BASE	0.09	337	1.95	323	0.7	100	0.7	127	311	973.2	NA	0.0000	BR	9999	2170	3050	0	0
2019/01/29 11:29:00	BASE	0.17	337	1.95	323	0.7	100	0.7	131	320	973.2	NA	0.0000	BR	9999	1280	2130	0	0
2019/01/29 11:30:00	BASE	0.36	334	1.75	320	0.7	100	0.7	136	330	973.2	NA	0.0000		9999	21460	22110	0	0
2019/01/29 11:31:00	BASE	0.65	335	1.65	322	0.8	100	0.8	142	341	973.2	NA	0.0000		9999	2130	0	0	0
2019/01/29 11:32:00	BASE	0.80	339	1.44	326	0.8	100	0.8	147	352	973.2	NA	0.0000		9999	0	0	0	3610
2019/01/29 11:33:00	BASE	0.82	339	1.44	326	0.8	100	0.8	151	362	973.2	NA	0.0000		9999	1970	0	0	0
2019/01/29 11:34:00	BASE	0.40	341	1.29	329	0.8	100	0.8	156	373	973.2	NA	0.0000		9999	1940	0	0	0
2019/01/29 11:35:00	BASE	0.00	343	1.29	329	0.8	100	0.8	161	382	973.2	NA	0.0000		9999	750	0	0	0
2019/01/29 11:36:00	BASE	0.00	340	1.23	333	0.8	100	0.8	166	391	973.2	NA	0.0000		9999	2070	0	0	0
2019/01/29 11:37:00	BASE	0.00	332	1.23	333	0.9	100	0.9	170	400	973.2	NA	0.0000		9999	690	0	0	0
2019/01/29 11:38:00	BASE	0.00	326	1.23	333	0.9	100	0.9	175	411	973.2	NA	0.0000		9999	660	0	0	0
2019/01/29 11:39:00	BASE	0.00	328	1.23	333	1.0	100	1.0	181	423	973.2	NA	0.0000		9999	660	0	0	0
2019/01/29 11:40:00	BASE	0.00	333	1.23	333	1.0	100	1.0	188	437	973.3	NA	0.0000		9999	950	23100	0	0
2019/01/29 11:41:00	BASE	0.00	332	1.18	351	1.1	100	1.1	194	450	973.3	NA	0.0000		9999	690	0	0	0
2019/01/29 11:42:00	BASE	0.00	330	1.13	341	1.1	100	1.1	199	459	973.2	NA	0.0000		9999	690	0	0	0
2019/01/29 11:43:00	BASE	0.00	320	M	M	1.1	100	1.1	203	468	973.3	NA	0.0000		9999	620	0	0	0
2019/01/29 11:44:00	BASE	0.00	308	M	M	1.2	100	1.2	209	482	973.3	NA	0.0000		9999	590	0	0	0
2019/01/29 11:45:00	BASE	0.00	295	M	M	1.2	100	1.2	215	494	973.3	NA	0.0000		9999	560	0	0	0
2019/01/29 11:46:00	BASE	0.00	285	M	M	1.2	100	1.2	223	511	973.3	NA	0.0000		9999	560	0	0	0
2019/01/29 11:47:00	BASE	0.00	287	M	M	1.2	100	1.2	232	529	973.3	NA	0.0000		9999	560	0	0	0
2019/01/29 11:48:00	BASE	0.00	287	M	M	1.3	100	1.3	240	546	973.3	NA	0.0000		9999	560	23130	0	0
2019/01/29 11:49:00	BASE	0.00	287	M	M	1.4	100	1.4	248	563	973.3	NA	0.0000		9999	560	0	0	0
2019/01/29 11:50:00	BASE	0.00	282	M	M	1.4	100	1.4	253	572	973.3	NA	0.0000		9999	560	0	0	0
2019/01/29 11:51:00	BASE	0.00	281	M	M	1.5	100	1.5	257	578	973.4	NA	0.0000		9999	560	0	0	0
2019/01/29 11:52:00	BASE	0.00	320	M	M	1.5	100	1.5	256	577	973.4	NA	0.0000		9999	520	0	0	0
2019/01/29 11:53:00	BASE	0.00	65	M	M	1.5	100	1.5	250	566	973.4	NA	0.0000		9999	520	0	0	0
2019/01/29 11:54:00	BASE	0.00	77	M	M	1.5	100	1.5	243	553	973.4	NA	0.0000		9999	520	0	0	0
2019/01/29 11:55:00	BASE	0.00	43	M	M	1.5	100	1.5	237	541	973.4	NA	0.0000		9999	260	0	0	0
2019/01/29 11:56:00	BASE	0.00	7	M	M	1.5	100	1.5	233	532	973.4	NA	0.0000		9999	260	0	0	0
2019/01/29 11:57:00	BASE	0.00	317	M	M	1.4	100	1.4	231	529	973.4	NA	0.0000		9999	330	0	0	0
2019/01/29 11:58:00	BASE	0.00	287	M	M	1.4	100	1.4	232	530	973.4	NA	0.0000		9999	430	0	0	0
2019/01/29 11:59:00	BASE	0.00	292	M	M	1.5	100	1.5	232	532	973.5	NA	0.0000		9999	260	0	0	0
2019/01/29 12:00:00	BASE	0.00	286	M	M	1.5	100	1.5	232	530	973.5	NA	0.0000		9999	490	0	0	0
2019/01/29 12:01:00	BASE	0.00	271	M	M	1.5	100	1.5	230	527	973.5	NA	0.0000		9999	520	0	0	0
2019/01/29 12:02:00	BASE	0.00	267	M	M	1.6	100	1.6	229	526	973.5	NA	0.0000		9999	520	0	0	0
2019/01/29 12:03:00	BASE	0.00	269	M	M	1.5	100	1.5	229	526	973.5	NA	0.0000		9999	520	0	0	0
2019/01/29 12:04:00	BASE	0.00	273	M	M	1.5	100	1.5	230	529	973.5	NA	0.0000		9999	560	0	0	0
2019/01/29 12:05:00	BASE	0.00	275	M	M	1.5	100	1.5	234	536	973.5	NA	0.0000		9999	520	0	0	0
2019/01/29 12:06:00	BASE	0.00	277	M	M	1.4	100	1.4	238	546	973.5	NA	0.0000		9999	520	0	0	0
2019/01/29 12:07:00	BASE	0.00	281	M	M	1.4	100	1.4	241	552	973.5	NA	0.0000		9999	520	0	0	0
2019/01/29 12:08:00	BASE	0.00	285	M	M	1.3	100	1.3	240	551	973.5	NA	0.0000		9999	560	0	0	0
2019/01/29 12:09:00	BASE	0.00	288	M	M	1.3	100	1.3	237	544	973.5	NA	0.0000		7000	590	0	0	0
2019/01/29 12:10:00	BASE	0.40	293	1.23	295	1.3	100	1.3	230	532	973.5	NA	0.0000		8000	620	0	0	0
2019/01/29 12:11:00	BASE	0.97	299	1.23	295	1.2	100	1.2	222	516	973.5	NA	0.0000		9999	620	0	0	0
2019/01/29 12:12:00	BASE	0.75	302	1.23	295	1.2	100	1.2	214	500	973.6	NA	0.0000		9999	620	0	0	0
2019/01/29 12:13:00	BASE	0.45	304	1.23	295	1.2	100	1.2	207	487	973.6	NA	0.0000	BR	6000	620	23030	0	0
2019/01/29 12:14:00	BASE	0.35	304	1.23	295	1.1	100	1.1	200	473	973.6	NA	0.0000	BR	4400	660	0	0	0
2019/01/29 12:15:00	BASE	0.22	306	1.23	295	1.0	100	1.0	194	460	973.6	NA	0.0000	BR	6000	660	20050	0	0
2019/01/29 12:16:00	BASE	0.17	308	1.23	295	1.0	100	1.0	188	447	973.6	NA	0.0000	BR	6000	660	0	0	0
2019/01/29 12:17:00	BASE	0.09	310	1.23	295	1.1	100	1.1	182	437	973.6	NA	0.0000	BR	7000	660	0	0	0
2019/01/29 12:18:00	BASE	0.23	316	1.23	321	1.1	100	1.1	178	428	973.6	NA	0.0000	BR	8000	660	0	0	0
2019/01/29 12:19:00	BASE	0.23	319	1.23	321	1.1	100	1.1	174	420	973.6	NA	0.0000	BR	9000	660	0	0	0
2019/01/29 12:20:00	BASE	0.17	317	1.23	321	1.1	100	1.1	173	416	973.6	NA	0.0000	BR	8000	620	0	0	0
2019/01/29 12:21:00	BASE	0.26	316	1.23	321	1.1	100	1.1	172	414	973.6	NA	0.0000	BR	8000	620	0	0	0
2019/01/29 12:22:00	BASE	0.27	316	1.23	321	1.1	100	1.1	170	410	973.6	NA	0.0000	BR	9999	620	0	0	0
2019/01/29 12:23:00	BASE	0.14	318	1.23	321	1.1	100	1.1	169	407	973.6	NA	0.0000	BR	9999	620	0	0	0
2019/01/29 12:24:00	BASE	0.05	323	1.23	321	1.1	100	1.1	168	405	973.7	NA	0.0000	BR	9999	660	0	0	0
2019/01/29 12:25:00	BASE	0.22	326	1.23	321	1.1	100	1.1	167	402	973.7	NA	0.0000	BR	6000	620	0	0	0
2019/01/29 12:26:00	BASE	0.62	330	1.23	321	1.1	100	1.1	167	403	973.7	NA	0.0000	BR	8000	590	0	0	0
2019/01/29 12:27:00	BASE	0.78	335	1.23	321	1.0	100	1.0	168	406	973.7	NA	0.0000	BR	9999	620	0	0	0
2019/01/29 12:28:00	BASE	0.47	337	1.18	336	1.1	100	1.1	169	407	973.7	NA	0.0000	BR	7000	620	0	0	0
2019/01/29 12:29:00	BASE	0.59	335	1.18	330	1.1	100	1.1	167	405	973.7	NA	0.0000	BR	8000	620	0	0	0
2019/01/29 12:30:00	BASE	1.02	334	1.39	333	1.1	100	1.1	163	397	973.7	NA	0.0000	BR	9999	620	0	0	0
2019/01/29 12:31:00	BASE	0.79	342	1.39	333	1.1	100	1.1	158	387	973.7	NA	0.0000	BR	9999	590	0	0	0
2019/01/29 12:32:00	BASE	0.40	350	1.39	333	1.1	100	1.1	154	380	973.7	NA	0.0000	BR	9999	590	0	0	0
2019/01/29 12:33:00	BASE	0.17	346	1.39	333	1.1	100	1.1	151	374	973.7	NA	0.0000	BR	9999	590	0	0	0
2019/01/29 12:34:00	BASE	0.00	342	1.39	333	1.1	100	1.1	149	370	973.7	NA	0.0000	BR	9999	590	0	0	0
2019/01/29 12:35:00	BASE	0.00	343	1.39	333	1.1	100	1.1	148	369	973.7	NA	0.0000	BR	9999	620	0	0	0
2019/01/29 12:36:00	BASE	0.00	344	1.39	333	1.2	100	1.2	148	370	973.7	NA	0.0000	BR	9000	590	0	0	0
2019/01/29 12:37:00	BASE	0.00	340	1.39	333	1.2	100	1.2	150	374	973.7	NA	0.0000	BR	9000	590	0	0	0
2019/01/29 12:38:00	BASE	0.00	339	1.39	333	1.2	100	1.2	153	380	973.7	NA	0.0000	BR	9999	620	0	0	0
2019/01/29 12:39:00	BASE	0.00	350	1.39	333	1.2	100	1.2	156	387	973.7	NA	0.0000		9999	590	0	0	0
2019/01/29 12:40:00	BASE	0.00	1	1.13	346	1.3	100	1.3	159	394	973.7	NA	0.0000		9999	590	0	0	0
2019/01/29 12:41:00	BASE	0.00	355	1.03	338	1.2	100	1.2	163	402	973.7	NA	0.0000	BR	9999	590	0	0	0
2019/01/29 12:42:00	BASE	0.00	343	M	M	1.2	100	1.2	167	412	973.7	NA	0.0000		9999	620	0	0	0
2019/01/29 12:43:00	BASE	0.00	346	M	M	1.2	100	1.2	172	422	973.7	NA	0.0000		9999	620	0	0	0
2019/01/29 12:44:00	BASE	0.00	345	M	M	1.2	100	1.2	176	430	973.7	NA	0.0000		9999	660	0	0	0
2019/01/29 12:45:00	BASE	0.00	342	M	M	1.2	100	1.2	179	437	973.7	NA	0.0000		9999	660	0	0	0
2019/01/29 12:46:00	BASE	0.00	354	M	M	1.3	100	1.3	182	444	973.7	NA	0.0000		9999	590	0	0	0
2019/01/29 12:47:00	BASE	0.00	4	M	M	1.3	100	1.3	184	448	973.7	NA	0.0000		9999	590	0	0	0
2019/01/29 12:48:00	BASE	0.00	2	M	M	1.3	100	1.3	185	450	973.7	NA	0.0000		9999	560	0	0	0
2019/01/29 12:49:00	BASE	0.00	7	M	M	1.3	100	1.3	186	452	973.8	NA	0.0000		9999	560	0	0	0
2019/01/29 12:50:00	BASE	0.00	16	M	M	1.3	100	1.3	186	453	973.9	NA	0.0000		9999	360	0	0	0
2019/01/29 12:51:00	BASE	0.00	27	M	M	1.3	100	1.3	186	452	973.9	NA	0.0000		9999	260	0	0	0
2019/01/29 12:52:00	BASE	0.09	84	1.03	142	1.4	100	1.4	184	448	973.9	NA	0.0000		9999	230	0	0	0
2019/01/29 12:53:00	BASE	0.64	135	1.29	146	1.5	100	1.5	181	441	973.9	NA	0.0000		9000	230	0	0	0
2019/01/29 12:54:00	BASE	1.22	137	1.54	124	1.6	100	1.6	174	426	973.9	NA	0.0000	UP	9000	200	0	0	0
2019/01/29 12:55:00	BASE	1.41	132	1.70	139	1.7	100	1.7	167	410	973.9	NA	0.0000	UP BR	4200	200	0	0	0
2019/01/29 12:56:00	BASE	1.58	132	1.95	132	1.8	100	1.8	166	408	973.9	NA	0.0000	UP BR	2700	160	0	0	0
2019/01/29 12:57:00	BASE	1.77	129	2.01	121	1.8	100	1.8	168	413	973.9	NA	0.0000	UP BR	2800	200	0	0	0
2019/01/29 12:58:00	BASE	1.85	126	2.06	130	1.7	100	1.7	171	420	973.9	NA	0.0000	UP BR	3400	200	0	0	0
2019/01/29 12:59:00	BASE	1.73	127	2.06	130	1.6	100	1.6	175	429	973.9	NA	0.0000	UP BR	3700	230	0	0	0
2019/01/29 13:00:00	BASE	1.52	124	2.06	130	1.5	100	1.5	177	433	973.9	NA	0.0000	UP BR	3900	300	0	0	0
2019/01/29 13:01:00	BASE	1.45	123	2.06	130	1.4	100	1.4	176	431	973.9	NA	0.0000	UP BR	4200	330	0	0	0
2019/01/29 13:02:00	BASE	1.42	125	2.06	130	1.3	100	1.3	174	428	974.0	NA	0.0000	UP BR	4500	300	0	0	0
2019/01/29 13:03:00	BASE	1.11	121	2.06	130	1.3	100	1.3	171	422	974.0	NA	0.0000	UP BR	4600	200	560	0	0
2019/01/29 13:04:00	BASE	1.13	114	2.06	130	1.3	100	1.3	166	412	974.0	NA	0.0000	UP BR	4600	200	0	0	0
2019/01/29 13:05:00	BASE	1.37	115	2.06	130	1.4	100	1.4	164	406	974.0	NA	0.0000	UP BR	4600	160	0	0	0
2019/01/29 13:06:00	BASE	1.31	118	2.06	130	1.4	100	1.4	163	404	974.0	NA	0.0000	UP BR	5000	160	0	0	0
2019/01/29 13:07:00	BASE	1.29	116	2.06	130	1.4	100	1.4	163	404	974.0	NA	0.0000	UP BR	5000	200	0	0	0
2019/01/29 13:08:00	BASE	1.30	114	1.85	127	1.4	100	1.4	164	407	974.0	NA	0.0000	UP BR	6000	230	23100	0	0
2019/01/29 13:09:00	BASE	0.84	112	1.59	117	1.4	100	1.4	166	410	974.0	NA	0.0000	UP BR	6000	230	0	0	0
2019/01/29 13:10:00	BASE	0.35	109	1.59	117	1.4	100	1.4	166	411	973.9	NA	0.0000	UP BR	5000	360	0	0	0
2019/01/29 13:11:00	BASE	0.23	109	1.54	130	1.4	100	1.4	166	411	974.0	NA	0.0000	UP BR	6000	430	0	0	0
2019/01/29 13:12:00	BASE	0.24	109	1.49	120	1.4	100	1.4	166	410	974.0	NA	0.0000	UP BR	7000	430	0	0	0
2019/01/29 13:13:00	BASE	0.15	108	1.49	120	1.5	100	1.5	165	409	974.0	NA	0.0000	UP BR	6000	430	0	0	0
2019/01/29 13:14:00	BASE	0.00	111	1.49	120	1.4	100	1.4	164	405	974.0	NA	0.0000	UP BR	7000	430	0	0	0
2019/01/29 13:15:00	BASE	0.00	98	1.44	118	1.4	100	1.4	161	398	974.0	NA	0.0000	UP BR	8000	430	0	0	0
2019/01/29 13:16:00	BASE	0.00	79	1.44	118	1.3	100	1.3	157	391	974.0	NA	0.0000	UP BR	8000	490	0	0	0
2019/01/29 13:17:00	BASE	0.00	60	1.44	118	1.3	100	1.3	154	384	974.0	NA	0.0000	UP BR	8000	520	0	0	0
2019/01/29 13:18:00	BASE	0.00	40	1.34	114	1.3	100	1.3	151	378	974.0	NA	0.0000	UP BR	8000	520	0	0	0
2019/01/29 13:19:00	BASE	0.00	30	1.18	115	1.4	100	1.4	149	374	974.0	NA	0.0000	UP BR	8000	520	0	0	0
2019/01/29 13:20:00	BASE	0.00	20	1.18	115	1.4	100	1.4	147	371	974.0	NA	0.0000	UP BR	8000	520	0	0	0
2019/01/29 13:21:00	BASE	0.38	18	1.18	360	1.5	100	1.5	146	369	974.0	NA	0.0000	UP BR	8000	460	0	0	0
2019/01/29 13:22:00	BASE	0.77	14	1.29	6	1.6	100	1.6	145	368	974.0	NA	0.0000	UP BR	8000	430	0	0	0
2019/01/29 13:23:00	BASE	0.52	10	1.29	6	1.7	100	1.7	144	367	974.0	NA	0.0000	UP BR	8000	430	0	0	0
2019/01/29 13:24:00	BASE	0.37	16	1.29	6	1.8	100	1.8	144	367	974.0	NA	0.0000	UP BR	8000	390	0	0	0
2019/01/29 13:25:00	BASE	0.77	21	1.29	18	1.8	100	1.8	144	367	974.0	NA	0.0000	BR	8000	430	0	0	0
2019/01/29 13:26:00	BASE	1.05	23	1.29	18	1.8	100	1.8	144	367	974.0	NA	0.0000	BR	8000	590	0	0	0
2019/01/29 13:27:00	BASE	1.02	28	1.29	28	1.7	100	1.7	144	366	974.1	NA	0.0000	BR	8000	460	0	0	0
2019/01/29 13:28:00	BASE	0.93	26	1.29	28	1.7	100	1.7	144	366	974.1	NA	0.0000	BR	8000	660	0	0	0
2019/01/29 13:29:00	BASE	0.71	23	1.29	29	1.6	100	1.6	144	367	974.1	NA	0.0000	BR	9999	660	23660	0	0
2019/01/29 13:30:01	BASE	0.57	28	1.29	29	1.6	100	1.6	144	366	974.1	NA	0.0000	BR	9999	660	1280	0	0
2019/01/29 13:31:01	BASE	0.27	23	1.29	29	1.6	100	1.6	142	364	974.1	NA	0.0000	BR	9999	660	0	0	0
2019/01/29 13:32:01	BASE	0.22	16	1.29	29	1.5	100	1.5	140	359	974.1	NA	0.0000	BR	9999	690	0	0	0
2019/01/29 13:33:01	BASE	0.22	22	1.29	29	1.6	100	1.6	137	353	974.1	NA	0.0000	BR	9999	690	0	0	0
2019/01/29 13:34:01	BASE	0.00	26	1.29	29	1.7	100	1.7	134	348	974.1	NA	0.0000	BR	9999	620	2890	0	0
2019/01/29 13:35:01	BASE	0.00	15	1.29	29	1.6	100	1.6	132	342	974.1	NA	0.0000		9999	660	0	0	0
2019/01/29 13:36:01	BASE	0.00	5	1.29	29	1.7	100	1.7	128	335	974.2	NA	0.0000		9999	490	1210	0	0
2019/01/29 13:37:01	BASE	0.17	2	1.29	29	1.7	100	1.7	125	328	974.2	NA	0.0000		9999	430	1280	0	0
2019/01/29 13:38:01	BASE	0.26	357	1.29	29	1.6	100	1.6	122	323	974.2	NA	0.0000		9999	430	0	0	0
2019/01/29 13:39:01	BASE	0.09	347	1.13	360	1.6	100	1.6	121	321	974.1	NA	0.0000		9999	430	0	0	0
2019/01/29 13:40:01	BASE	0.04	340	1.13	360	1.6	100	1.6	121	320	974.1	NA	0.0000		9999	390	0	0	0
2019/01/29 13:41:01	BASE	0.09	342	1.13	360	1.6	100	1.6	122	321	974.2	NA	0.0000		9999	430	0	0	0
2019/01/29 13:42:01	BASE	0.05	343	1.13	360	1.6	100	1.6	123	323	974.2	NA	0.0000		9999	460	0	0	0
2019/01/29 13:43:01	BASE	0.00	340	1.13	360	1.6	100	1.6	124	324	974.2	NA	0.0000		9999	430	1310	0	0
2019/01/29 13:44:01	BASE	0.00	347	1.13	360	1.5	100	1.5	124	325	974.2	NA	0.0000		9999	590	1310	0	0
2019/01/29 13:45:01	BASE	0.00	354	1.13	360	1.5	100	1.5	124	325	974.2	NA	0.0000		9999	490	1310	0	0
2019/01/29 13:46:01	BASE	0.09	6	1.13	360	1.6	100	1.6	124	323	974.2	NA	0.0000		9999	590	0	0	0
2019/01/29 13:47:01	BASE	0.18	20	1.08	16	1.6	100	1.6	122	320	974.2	NA	0.0000		9999	560	0	0	0
2019/01/29 13:48:01	BASE	0.09	22	1.08	16	1.6	100	1.6	121	317	974.2	NA	0.0000		9999	520	1350	0	0
2019/01/29 13:49:01	BASE	0.13	27	1.08	16	1.7	100	1.7	120	315	974.2	NA	0.0000		9999	490	1310	0	0
2019/01/29 13:50:01	BASE	0.26	31	1.13	22	1.8	100	1.8	119	312	974.2	NA	0.0000		9999	460	0	0	0
2019/01/29 13:51:01	BASE	0.17	27	1.13	22	1.7	100	1.7	117	308	974.2	NA	0.0000		9999	460	1250	0	0
2019/01/29 13:52:01	BASE	0.09	23	1.13	22	1.7	100	1.7	114	302	974.2	NA	0.0000		9999	490	1280	0	0
2019/01/29 13:53:01	BASE	0.59	25	1.44	25	1.8	100	1.8	110	294	974.2	NA	0.0000		9999	520	1350	0	0
2019/01/29 13:54:01	BASE	0.73	21	1.44	25	1.8	100	1.8	106	286	974.2	NA	0.0000		9999	490	1380	0	0
2019/01/29 13:55:01	BASE	0.52	17	1.44	25	1.7	100	1.7	103	278	974.2	NA	0.0000		9999	560	0	0	0
2019/01/29 13:56:01	BASE	0.84	19	1.44	25	1.7	100	1.7	100	273	974.2	NA	0.0000		9999	520	0	0	0
2019/01/29 13:57:01	BASE	0.86	21	1.44	25	1.7	100	1.7	99	271	974.2	NA	0.0000		9999	620	0	0	0
2019/01/29 13:58:01	BASE	0.92	18	1.44	25	1.7	100	1.7	98	270	974.2	NA	0.0000		9999	590	0	0	0
2019/01/29 13:59:01	BASE	0.91	12	1.44	25	1.6	100	1.6	99	271	974.2	NA	0.0000		9999	460	0	0	0
2019/01/29 14:00:01	BASE	0.35	9	1.44	25	1.6	100	1.6	100	273	974.2	NA	0.0000		9999	460	0	0	0
2019/01/29 14:01:01	BASE	0.00	5	1.44	25	1.6	100	1.6	101	275	974.2	NA	0.0000		9999	460	0	0	0
2019/01/29 14:02:01	BASE	0.00	2	1.44	25	1.6	100	1.6	101	276	974.2	NA	0.0000		9999	460	0	0	0
2019/01/29 14:03:01	BASE	0.00	359	1.39	37	1.6	100	1.6	102	276	974.2	NA	0.0000		9999	460	0	0	0
2019/01/29 14:04:01	BASE	0.00	350	1.39	37	1.6	100	1.6	102	274	974.2	NA	0.0000		9999	660	0	0	0
2019/01/29 14:05:01	BASE	0.00	343	1.39	37	1.6	100	1.6	101	273	974.2	NA	0.0000		9999	660	0	0	0
2019/01/29 14:06:01	BASE	0.00	345	1.29	19	1.6	100	1.6	101	271	974.2	NA	0.0000		9999	520	0	0	0
2019/01/29 14:07:01	BASE	0.00	348	1.29	19	1.6	100	1.6	101	270	974.2	NA	0.0000		9999	620	0	0	0
2019/01/29 14:08:01	BASE	0.00	359	1.08	1	1.6	100	1.6	101	269	974.2	NA	0.0000		9999	520	0	0	0
2019/01/29 14:09:01	BASE	0.00	5	M	M	1.6	100	1.6	101	269	974.2	NA	0.0000		9999	620	0	0	0
2019/01/29 14:10:01	BASE	0.00	358	M	M	1.6	100	1.6	101	269	974.2	NA	0.0000		9999	520	0	0	0
2019/01/29 14:11:01	BASE	0.17	358	1.08	2	1.6	100	1.6	101	270	974.2	NA	0.0000		9999	490	0	0	0
2019/01/29 14:12:01	BASE	0.40	3	1.08	3	1.7	100	1.7	102	272	974.2	NA	0.0000		9999	460	22740	0	0
2019/01/29 14:13:01	BASE	0.22	4	1.08	3	1.6	100	1.6	103	274	974.2	NA	0.0000		9999	520	0	0	0
2019/01/29 14:14:01	BASE	0.00	6	1.08	3	1.7	100	1.7	105	279	974.2	NA	0.0000		9999	560	0	0	0
2019/01/29 14:15:01	BASE	0.00	9	1.08	3	1.6	100	1.6	107	284	974.3	NA	0.0000		9999	620	0	0	0
2019/01/29 14:16:01	BASE	0.00	12	1.08	3	1.6	100	1.6	109	289	974.3	NA	0.0000		9999	620	0	0	0
2019/01/29 14:17:01	BASE	0.00	12	1.08	3	1.6	100	1.6	110	292	974.3	NA	0.0000		9999	660	22280	0	0
2019/01/29 14:18:01	BASE	0.00	13	1.08	3	1.6	100	1.6	111	293	974.3	NA	0.0000		9999	720	0	0	0
2019/01/29 14:19:01	BASE	0.00	21	1.08	3	1.7	100	1.7	111	293	974.3	NA	0.0000		9999	620	0	0	0
2019/01/29 14:20:01	BASE	0.00	21	1.08	3	1.8	100	1.8	109	290	974.3	NA	0.0000		9999	560	0	0	0
2019/01/29 14:21:01	BASE	0.00	16	1.08	3	1.9	100	1.9	107	284	974.3	NA	0.0000		9999	520	0	0	0
2019/01/29 14:22:01	BASE	0.05	8	1.08	5	1.9	100	1.9	105	278	974.3	NA	0.0000		9999	520	0	0	0
2019/01/29 14:23:01	BASE	0.05	4	1.08	5	1.9	100	1.8	103	274	974.3	NA	0.0000		9999	560	0	0	0
2019/01/29 14:24:01	BASE	0.00	10	1.08	5	1.8	100	1.8	102	271	974.3	NA	0.0000		9999	520	0	0	0
2019/01/29 14:25:01	BASE	0.00	22	1.08	5	1.8	100	1.8	101	270	974.3	NA	0.0000		9999	520	0	0	0
2019/01/29 14:26:01	BASE	0.00	30	1.08	5	1.8	100	1.8	102	272	974.3	NA	0.0000		9999	620	0	0	0
2019/01/29 14:27:01	BASE	0.00	35	1.08	5	1.8	100	1.8	103	276	974.3	NA	0.0000		9999	660	0	0	0
2019/01/29 14:28:01	BASE	0.00	41	1.08	5	1.8	100	1.8	105	280	974.3	NA	0.0000		9999	590	0	0	0
2019/01/29 14:29:01	BASE	0.00	43	1.08	5	1.8	100	1.8	107	285	974.3	NA	0.0000		9999	620	21060	0	0
2019/01/29 14:30:01	BASE	0.00	45	1.08	5	1.8	100	1.8	108	289	974.3	NA	0.0000		9999	560	0	0	0
2019/01/29 14:31:01	BASE	0.00	31	1.08	5	1.8	100	1.8	109	292	974.3	NA	0.0000		9999	560	0	0	0
2019/01/29 14:32:01	BASE	0.18	21	1.18	23	1.8	100	1.8	110	295	974.3	NA	0.0000		9000	460	0	0	0
2019/01/29 14:33:01	BASE	0.18	35	1.18	23	1.9	100	1.9	111	298	974.3	NA	0.0000		8000	430	0	0	0
2019/01/29 14:34:01	BASE	0.05	65	1.18	23	1.9	100	1.9	111	297	974.3	NA	0.0000	UP	8000	430	0	0	0
2019/01/29 14:35:01	BASE	0.60	97	1.65	102	1.9	100	1.9	110	295	974.3	NA	0.0000	UP	7000	430	0	0	0
2019/01/29 14:36:01	BASE	0.69	116	1.65	102	2.0	100	2.0	108	290	974.3	NA	0.0000	UP BR	5000	430	0	0	0
2019/01/29 14:37:01	BASE	0.19	125	1.65	102	2.0	100	2.0	106	286	974.4	NA	0.0000	UP BR	5000	430	0	0	0
2019/01/29 14:38:01	BASE	0.58	133	1.65	102	2.1	100	2.1	105	280	974.4	NA	0.0000	UP BR	6000	430	0	0	0
2019/01/29 14:39:01	BASE	1.06	149	1.65	102	2.1	100	2.1	102	273	974.3	NA	0.0000	UP BR	4600	430	0	0	0
2019/01/29 14:40:01	BASE	0.66	165	1.65	102	2.0	100	2.0	99	263	974.3	NA	0.0000	UP BR	3900	390	0	0	0
2019/01/29 14:41:01	BASE	0.13	156	1.65	102	2.0	100	2.0	95	252	974.4	NA	0.0000	UP BR	4300	390	0	0	0
2019/01/29 14:42:01	BASE	0.05	147	1.65	102	2.0	100	2.0	91	242	974.5	NA	0.0000	UP BR	5000	390	0	0	0
2019/01/29 14:43:01	BASE	0.69	156	1.65	102	2.0	100	2.0	89	238	974.5	NA	0.0000	UP BR	5000	360	0	0	0
2019/01/29 14:44:01	BASE	1.19	168	1.65	102	2.0	100	2.0	91	241	974.5	NA	0.0000	UP BR	4400	360	0	0	0
2019/01/29 14:45:01	BASE	0.56	156	1.54	154	1.9	100	1.9	94	250	974.5	NA	0.0000	UP BR	4200	330	0	0	0
2019/01/29 14:46:01	BASE	0.00	136	1.54	154	1.9	100	1.9	99	261	974.5	NA	0.0000	UP BR	4600	360	0	0	0
2019/01/29 14:47:01	BASE	0.00	134	1.54	154	1.9	100	1.9	104	272	974.5	NA	0.0000	UP BR	4800	360	21130	0	0
2019/01/29 14:48:01	BASE	0.00	137	1.54	154	1.9	100	1.9	109	287	974.5	NA	0.0000	UP BR	5000	330	0	0	0
2019/01/29 14:49:01	BASE	0.00	140	1.54	154	1.9	100	1.9	116	302	974.5	NA	0.0000	UP BR	6000	360	0	0	0
2019/01/29 14:50:01	BASE	0.00	140	1.54	154	1.8	100	1.8	124	321	974.5	NA	0.0000	UP BR	6000	360	0	0	0
2019/01/29 14:51:01	BASE	0.00	150	1.54	154	1.8	100	1.8	130	334	974.5	NA	0.0000	UP BR	7000	360	0	0	0
2019/01/29 14:52:01	BASE	0.00	162	1.54	154	1.8	100	1.8	133	339	974.5	NA	0.0000	UP BR	8000	390	0	0	0
2019/01/29 14:53:01	BASE	0.00	146	1.39	171	1.8	100	1.8	134	342	974.5	NA	0.0000	UP BR	8000	390	0	0	0
2019/01/29 14:54:01	BASE	0.00	121	M	M	1.8	100	1.8	136	347	974.5	NA	0.0000	UP BR	8000	360	0	0	0
2019/01/29 14:55:01	BASE	0.00	109	M	M	1.9	100	1.9	140	356	974.5	NA	0.0000	UP BR	8000	360	0	0	0
2019/01/29 14:56:01	BASE	0.34	111	1.39	125	1.9	100	1.9	146	368	974.5	NA	0.0000	UP BR	8000	360	0	0	0
2019/01/29 14:57:01	BASE	0.39	119	1.39	125	2.0	100	2.0	152	384	974.5	NA	0.0000	UP BR	8000	330	0	0	0
2019/01/29 14:58:01	BASE	0.04	117	1.39	125	2.0	100	2.0	157	395	974.5	NA	0.0000	UP BR	8000	300	0	0	0
2019/01/29 14:59:01	BASE	0.00	105	1.39	125	1.9	100	1.9	161	407	974.5	NA	0.0000	UP BR	7000	300	0	0	0
2019/01/29 15:00:01	BASE	0.00	97	1.39	125	1.9	100	1.9	169	426	974.5	NA	0.0000	UP BR	7000	300	0	0	0
2019/01/29 15:01:01	BASE	0.00	106	1.39	125	1.9	100	1.9	179	451	974.6	NA	0.0000	UP BR	8000	330	0	0	0
2019/01/29 15:02:01	BASE	0.00	113	1.39	125	1.8	100	1.8	192	479	974.6	NA	0.0000	UP BR	8000	330	0	0	0
2019/01/29 15:03:01	BASE	0.00	112	1.39	125	1.9	100	1.9	202	504	974.6	NA	0.0000	UP BR	6000	330	0	0	0
2019/01/29 15:04:01	BASE	0.00	125	1.39	125	1.9	100	1.9	212	527	974.6	NA	0.0000	UP BR	6000	360	0	0	0
2019/01/29 15:05:01	BASE	0.00	136	1.39	125	1.8	100	1.8	224	553	974.6	NA	0.0000	UP BR	6000	360	0	0	0
2019/01/29 15:06:01	BASE	0.00	121	1.03	117	1.9	100	1.9	235	574	974.6	NA	0.0000	UP BR	7000	430	0	0	0
2019/01/29 15:07:01	BASE	0.00	116	M	M	1.8	100	1.8	241	588	974.6	NA	0.0000	UP BR	7000	430	2170	0	0
2019/01/29 15:08:01	BASE	0.00	126	M	M	1.8	100	1.8	244	597	974.5	NA	0.0000	UP BR	7000	430	2030	0	0
2019/01/29 15:09:01	BASE	0.00	125	M	M	1.8	100	1.8	244	597	974.6	NA	0.0000	UP BR	7000	390	2100	0	0
2019/01/29 15:10:01	BASE	0.00	106	M	M	1.8	100	1.8	241	593	974.6	NA	0.0000	UP BR	7000	360	2070	0	0
2019/01/29 15:11:01	BASE	0.00	9	M	M	1.8	100	1.8	234	579	974.6	NA	0.0000	UP BR	7000	330	0	0	0
2019/01/29 15:12:01	BASE	0.00	353	M	M	1.8	100	1.8	222	555	974.6	NA	0.0000	UP BR	7000	330	0	0	0
2019/01/29 15:13:01	BASE	0.00	13	M	M	1.8	100	1.8	215	538	974.6	NA	0.0000	UP BR	7000	300	0	0	0
2019/01/29 15:14:01	BASE	0.00	63	M	M	1.9	100	1.9	213	535	974.6	NA	0.0000	UP BR	7000	260	0	0	0
2019/01/29 15:15:01	BASE	0.00	104	M	M	2.0	100	2.0	215	541	974.6	NA	0.0000	UP BR	7000	330	0	0	0
2019/01/29 15:16:01	BASE	0.00	106	M	M	2.0	100	2.0	220	553	974.6	NA	0.0000	UP BR	7000	330	0	0	0
2019/01/29 15:17:01	BASE	0.00	96	M	M	2.1	100	2.1	224	565	974.6	NA	0.2540	UP BR	8000	330	0	0	0
2019/01/29 15:18:01	BASE	0.00	89	M	M	2.1	100	2.1	229	576	974.6	NA	0.0000	UP BR	9000	330	0	0	0
2019/01/29 15:19:00	BASE	0.00	92	M	M	2.1	100	2.1	234	588	974.6	NA	0.0000	UP BR	9000	360	0	0	0
2019/01/29 15:20:01	BASE	0.00	88	M	M	2.0	100	2.0	240	603	974.6	NA	0.0000	UP BR	9000	360	0	0	0
2019/01/29 15:21:01	BASE	0.00	90	M	M	2.0	100	2.0	246	618	974.6	NA	0.0000	UP BR	9000	390	0	0	0
2019/01/29 15:22:00	BASE	0.00	112	M	M	2.0	100	2.0	250	626	974.6	NA	0.0000	UP BR	9000	430	0	0	0
2019/01/29 15:23:00	BASE	0.00	134	M	M	1.9	100	1.9	252	633	974.6	NA	0.0000	UP BR	9000	430	0	0	0
2019/01/29 15:24:00	BASE	0.00	135	M	M	2.0	100	2.0	256	641	974.6	NA	0.0000	UP BR	9000	390	0	0	0
2019/01/29 15:25:00	BASE	0.00	137	M	M	2.0	100	2.0	259	649	974.6	NA	0.0000	UP BR	9000	430	2590	0	0
2019/01/29 15:26:00	BASE	0.00	139	M	M	2.0	100	2.0	261	655	974.6	NA	0.0000	UP BR	9000	2660	0	0	0
2019/01/29 15:27:00	BASE	0.00	128	M	M	2.0	100	2.0	263	659	974.6	NA	0.0000	BR	9000	460	2590	0	0
2019/01/29 15:28:00	BASE	0.00	126	M	M	2.0	100	2.0	263	660	974.6	NA	0.0000	BR	9000	460	0	0	0
2019/01/29 15:29:00	BASE	0.00	120	M	M	1.9	100	1.9	262	656	974.7	NA	0.0000	BR	9000	430	2130	0	0
2019/01/29 15:30:01	BASE	0.00	122	M	M	1.9	100	1.9	258	650	974.7	NA	0.0000	BR	9000	2100	21880	0	0
2019/01/29 15:31:00	BASE	0.00	128	M	M	1.9	100	1.9	257	646	974.7	NA	0.0000	BR	9000	390	0	0	0
2019/01/29 15:32:01	BASE	0.00	121	M	M	1.9	100	1.9	253	639	974.7	NA	0.0000	BR	9000	390	2590	0	0
2019/01/29 15:33:00	BASE	0.19	118	1.18	120	1.9	100	1.9	251	634	974.7	NA	0.0000	BR	9000	390	0	0	0
2019/01/29 15:34:00	BASE	0.19	121	1.18	120	2.0	100	2.0	245	622	974.7	NA	0.0000	BR	9000	390	0	0	0
2019/01/29 15:35:00	BASE	0.00	116	1.18	120	2.0	100	2.0	237	604	974.8	NA	0.0000	BR	9000	390	0	0	0
2019/01/29 15:36:00	BASE	0.19	108	1.18	109	2.0	100	2.0	231	592	974.8	NA	0.0000	BR	9000	390	0	0	0
2019/01/29 15:37:00	BASE	0.62	107	1.18	108	2.0	100	2.0	230	591	974.7	NA	0.0000	BR	9000	390	20970	0	0
2019/01/29 15:38:00	BASE	0.66	110	1.18	104	2.0	100	2.0	232	596	974.7	NA	0.0000	BR	9000	390	2100	0	0
2019/01/29 15:39:00	BASE	0.45	109	1.18	100	1.9	100	1.9	234	598	974.8	NA	0.0000	BR	9000	460	2560	0	0
2019/01/29 15:40:00	BASE	0.37	102	1.18	104	1.9	100	1.9	233	595	974.8	NA	0.0000	BR	9000	490	2360	0	0
2019/01/29 15:41:00	BASE	0.14	99	1.18	104	1.9	100	1.9	229	587	974.8	NA	0.0000	BR	9000	490	2130	0	0
2019/01/29 15:42:00	BASE	0.00	99	1.18	104	1.9	100	1.9	227	582	974.7	NA	0.0000	BR	9000	560	0	0	0
2019/01/29 15:43:00	BASE	0.00	101	1.18	104	1.9	100	1.9	227	581	974.8	NA	0.0000	BR	9000	460	0	0	0
2019/01/29 15:44:00	BASE	0.18	99	1.18	104	1.9	100	1.9	225	577	974.8	NA	0.0000	BR	9000	430	0	0	0
2019/01/29 15:45:00	BASE	0.50	94	1.18	96	1.9	100	1.9	220	566	974.8	NA	0.0000	BR	9000	460	2460	0	0
2019/01/29 15:46:00	BASE	0.56	95	1.39	102	1.9	100	1.9	215	555	974.8	NA	0.0000	BR	9000	460	2330	0	0
2019/01/29 15:47:00	BASE	0.24	95	1.39	102	1.9	100	1.9	212	551	974.8	NA	0.0000	BR	9000	460	2100	0	0
2019/01/29 15:48:00	BASE	0.23	94	1.39	102	1.9	100	1.9	213	555	974.8	NA	0.0000	BR	9000	490	2000	0	0
2019/01/29 15:49:00	BASE	0.76	100	1.39	102	1.8	100	1.8	219	569	974.8	NA	0.0000	BR	9000	490	2400	0	0
2019/01/29 15:50:01	BASE	0.53	108	1.39	102	1.8	100	1.8	227	588	974.8	NA	0.0000	BR	9000	590	2170	0	0
2019/01/29 15:51:00	BASE	0.09	111	1.39	102	1.9	100	1.9	232	599	974.8	NA	0.0000	BR	9000	620	2030	0	0
2019/01/29 15:52:00	BASE	0.09	109	1.39	102	1.9	100	1.9	235	603	974.8	NA	0.0000	BR	9000	460	2400	0	0
2019/01/29 15:53:00	BASE	0.00	107	1.39	102	1.9	100	1.9	233	600	974.8	NA	0.0000	BR	9000	2030	0	0	0
2019/01/29 15:54:00	BASE	0.05	103	1.39	102	1.9	100	1.9	232	597	974.8	NA	0.0000	BR	9000	520	2330	0	0
2019/01/29 15:55:00	BASE	0.14	103	1.39	102	2.0	100	2.0	233	600	974.8	NA	0.0000	BR	9000	460	0	0	0
2019/01/29 15:56:00	BASE	0.09	119	1.34	105	2.0	100	2.0	233	600	974.8	NA	0.0000	BR	9000	490	2460	0	0
2019/01/29 15:57:00	BASE	0.25	128	1.44	129	2.0	100	2.0	229	591	974.8	NA	0.0000	BR	9000	720	0	0	0
2019/01/29 15:58:00	BASE	0.29	109	1.44	129	2.0	100	2.0	221	576	974.8	NA	0.0000	BR	9000	750	2030	0	0
2019/01/29 15:59:00	BASE	0.09	87	1.44	129	2.0	100	2.0	213	559	974.9	NA	0.0000	BR	9000	720	2330	0	0
2019/01/29 16:00:01	BASE	0.04	80	1.44	129	2.0	100	2.0	209	553	974.9	NA	0.0000	BR	9000	520	2170	0	0
2019/01/29 16:01:00	BASE	0.05	81	1.44	129	2.0	100	2.0	212	559	974.9	NA	0.0000	BR	9000	460	2070	0	0
2019/01/29 16:02:00	BASE	0.59	99	1.44	129	2.0	100	2.0	215	568	974.9	NA	0.0000	BR	9999	490	2260	0	0
2019/01/29 16:03:00	BASE	1.24	117	1.59	119	1.9	100	1.9	218	575	974.9	NA	0.0000	BR	9999	690	2200	0	0
2019/01/29 16:04:00	BASE	1.45	125	1.65	131	1.9	100	1.9	220	580	974.9	NA	0.0000	BR	9999	750	1970	0	0
2019/01/29 16:05:00	BASE	1.28	124	1.65	131	1.9	100	1.9	220	580	974.9	NA	0.0000	BR	9999	2590	0	0	0
2019/01/29 16:06:00	BASE	1.10	114	1.65	131	1.9	100	1.9	221	583	974.9	NA	0.0000	BR	9999	1900	3410	0	0
2019/01/29 16:07:00	BASE	1.13	114	1.65	131	1.9	100	1.9	223	586	974.9	NA	0.0000		9999	2070	0	0	0
2019/01/29 16:08:00	BASE	0.97	123	1.65	131	1.9	100	1.9	225	593	974.9	NA	0.0000		9999	2100	2890	0	0
2019/01/29 16:09:00	BASE	1.10	130	1.65	131	1.9	100	1.9	228	599	974.9	NA	0.0000		9999	1900	0	0	0
2019/01/29 16:10:00	BASE	1.36	139	1.65	131	2.0	100	2.0	228	599	974.9	NA	0.0000		9999	2030	0	0	0
2019/01/29 16:11:00	BASE	1.26	146	1.65	131	2.0	100	2.0	226	596	975.0	NA	0.0000		9999	2070	3640	0	0
2019/01/29 16:12:00	BASE	1.03	151	1.65	131	2.0	100	2.0	225	595	975.0	NA	0.0000		9999	2130	3610	0	0
2019/01/29 16:13:00	BASE	0.94	154	1.65	131	2.0	100	2.0	225	594	975.1	NA	0.0000		9999	1970	0	0	0
2019/01/29 16:14:00	BASE	1.09	150	1.59	126	2.0	100	2.0	226	597	975.1	NA	0.0000		9999	2070	0	0	0
2019/01/29 16:15:00	BASE	1.38	142	1.75	145	2.0	100	2.0	229	602	975.1	NA	0.0000		9999	790	2070	0	0
2019/01/29 16:16:00	BASE	1.49	144	1.75	145	2.0	100	2.0	232	607	975.1	NA	0.0000		9999	1970	3870	0	0
2019/01/29 16:17:00	BASE	1.47	149	1.85	149	2.1	100	2.1	232	609	975.1	NA	0.0000		9999	2170	3840	0	0
2019/01/29 16:18:00	BASE	1.56	145	1.85	149	2.2	100	2.2	233	609	975.1	NA	0.0000		9999	2070	3940	0	0
2019/01/29 16:19:00	BASE	1.68	143	1.90	138	2.2	100	2.2	234	612	975.1	NA	0.0000		9999	1940	3970	0	0
2019/01/29 16:20:01	BASE	1.76	144	1.95	138	2.2	100	2.2	235	615	975.1	NA	0.0000		9999	2130	0	0	0
2019/01/29 16:21:00	BASE	1.81	155	2.11	172	2.2	100	2.2	235	615	975.1	NA	0.0000		9999	2100	0	0	0
2019/01/29 16:22:00	BASE	1.75	164	2.11	172	2.2	100	2.2	234	615	975.1	NA	0.0000		9999	2130	0	0	0
2019/01/29 16:23:00	BASE	1.61	160	2.11	172	2.1	100	2.1	233	613	975.1	NA	0.0000		9999	2100	0	0	0
2019/01/29 16:24:00	BASE	1.52	151	2.11	172	2.1	100	2.1	230	606	975.1	NA	0.0000		9999	2130	4040	20210	0
2019/01/29 16:25:00	BASE	1.59	146	2.11	172	2.0	100	2.0	226	598	975.2	NA	0.0000		9999	4070	0	0	0
2019/01/29 16:26:00	BASE	1.76	155	2.11	172	2.0	100	2.0	225	597	975.2	NA	0.0000		9999	2070	4130	0	0
2019/01/29 16:27:00	BASE	1.80	161	2.11	172	2.0	100	2.0	225	595	975.1	NA	0.0000		9999	2100	4170	0	0
2019/01/29 16:28:00	BASE	1.71	158	2.11	172	2.0	100	2.0	225	594	975.2	NA	0.0000		9999	2070	4200	0	0
2019/01/29 16:29:00	BASE	1.57	151	2.11	172	2.0	100	2.0	225	593	975.2	NA	0.0000		9999	4130	0	0	0
2019/01/29 16:30:00	BASE	1.37	139	2.11	172	2.0	100	2.0	224	591	975.2	NA	0.0000		9999	560	4430	0	0
2019/01/29 16:31:00	BASE	1.17	131	2.06	158	2.1	100	2.1	225	592	975.2	NA	0.0000		9999	4360	0	0	0
2019/01/29 16:32:00	BASE	1.26	132	2.06	158	2.2	100	2.2	226	594	975.2	NA	0.0000		9999	4200	4590	0	0
2019/01/29 16:33:00	BASE	1.35	131	2.06	158	2.2	100	2.2	227	596	975.2	NA	0.0000		9999	4200	22540	0	0
2019/01/29 16:34:00	BASE	1.28	131	2.06	158	2.2	100	2.2	228	599	975.2	NA	0.0000		9999	4100	4530	0	0
2019/01/29 16:35:00	BASE	1.08	131	2.06	158	2.2	100	2.2	230	602	975.2	NA	0.0000		9999	4040	4460	23590	0
2019/01/29 16:36:00	BASE	0.97	135	2.06	158	2.2	100	2.2	231	604	975.2	NA	0.0000		9999	4100	4630	0	0
2019/01/29 16:37:00	BASE	0.52	133	1.80	135	2.2	100	2.2	233	608	975.2	NA	0.0000		9999	490	4100	0	0
2019/01/29 16:38:00	BASE	0.17	126	1.80	135	2.2	100	2.2	234	610	975.2	NA	0.0000		9999	4100	4590	0	0
2019/01/29 16:39:00	BASE	0.31	130	1.54	136	2.3	100	2.3	235	612	975.2	NA	0.0000		9999	490	2990	0	0
2019/01/29 16:40:00	BASE	0.14	121	1.54	136	2.2	100	2.2	236	613	975.3	NA	0.0000		9999	2850	4100	0	0
2019/01/29 16:41:00	BASE	0.00	114	1.54	136	2.2	100	2.2	238	618	975.3	NA	0.0000		9999	490	2760	0	0
2019/01/29 16:42:00	BASE	0.00	124	1.54	136	2.3	100	2.3	240	624	975.3	NA	0.0000		9999	490	2950	0	0
2019/01/29 16:43:00	BASE	0.00	123	1.44	136	2.4	100	2.4	243	628	975.3	NA	0.0000		9999	490	3050	0	0
2019/01/29 16:44:00	BASE	0.00	119	1.44	136	2.5	100	2.5	243	629	975.3	NA	0.0000		9999	4070	0	0	0
2019/01/29 16:45:00	BASE	0.09	123	1.44	136	2.5	100	2.5	243	628	975.3	NA	0.0000		9999	3840	0	0	0
2019/01/29 16:46:00	BASE	0.17	134	1.18	129	2.5	100	2.5	243	629	975.3	NA	0.0000		9999	2260	3970	0	0
2019/01/29 16:47:00	BASE	0.09	143	1.18	129	2.5	100	2.5	243	629	975.3	NA	0.0000		9999	460	2260	0	0
2019/01/29 16:48:00	BASE	0.31	125	1.54	102	2.4	100	2.4	241	625	975.3	NA	0.0000		9999	2200	0	0	0
2019/01/29 16:49:00	BASE	0.91	109	1.54	109	2.3	100	2.3	239	618	975.3	NA	0.0000		9999	2200	0	0	0
2019/01/29 16:50:00	BASE	1.13	113	1.54	120	2.3	100	2.3	234	607	975.3	NA	0.0000		9999	2530	0	0	0
2019/01/29 16:51:00	BASE	1.19	119	1.54	120	2.3	100	2.3	228	593	975.3	NA	0.0000	UP	9999	2300	0	0	0
2019/01/29 16:52:00	BASE	0.89	120	1.54	120	2.3	100	2.3	223	582	975.3	NA	0.0000	UP	9999	950	0	0	0
2019/01/29 16:53:00	BASE	0.38	113	1.54	120	2.3	100	2.3	220	575	975.3	NA	0.0000	UP	9999	890	0	0	0
2019/01/29 16:54:00	BASE	0.18	117	1.54	120	2.2	100	2.2	215	566	975.3	NA	0.0000	UP	9999	2170	0	0	0
2019/01/29 16:55:00	BASE	0.04	126	1.54	120	2.2	100	2.2	212	559	975.3	NA	0.0000	UP	9999	850	0	0	0
2019/01/29 16:56:00	BASE	0.00	124	1.54	120	2.3	100	2.3	209	554	975.4	NA	0.0000	UP	9999	750	0	0	0
2019/01/29 16:57:00	BASE	0.00	129	1.54	120	2.2	100	2.2	208	551	975.4	NA	0.0000	UP	9999	660	0	0	0
2019/01/29 16:58:00	BASE	0.00	143	1.54	120	2.2	100	2.2	207	550	975.4	NA	0.0000	UP	9999	2130	0	0	0
2019/01/29 16:59:00	BASE	0.00	166	1.54	120	2.2	100	2.2	205	547	975.4	NA	0.0000	UP	9999	660	0	0	0
2019/01/29 17:00:00	BASE	0.00	181	1.44	122	2.2	100	2.2	201	538	975.3	NA	0.0000	UP	9999	2560	0	0	0
2019/01/29 17:01:00	BASE	0.00	184	1.39	109	2.1	100	2.1	197	531	975.4	NA	0.0000	UP	9999	690	2000	0	0
2019/01/29 17:02:00	BASE	0.00	187	1.18	99	2.2	100	2.2	194	526	975.4	NA	0.0000	UP	9999	620	0	0	0
2019/01/29 17:03:00	BASE	0.00	227	1.03	135	2.2	100	2.2	193	523	975.4	NA	0.0000	UP	9999	750	0	0	0
2019/01/29 17:04:00	BASE	0.14	288	1.18	305	2.2	100	2.2	191	520	975.4	NA	0.0000	UP	9999	750	0	0	0
2019/01/29 17:05:00	BASE	0.47	328	1.54	330	2.3	100	2.3	189	516	975.4	NA	0.0000	UP	9999	590	0	0	0
2019/01/29 17:06:00	BASE	0.65	348	1.54	330	2.2	100	2.2	195	511	975.4	NA	0.0000	-RA	9999	520	0	0	0
2019/01/29 17:07:00	BASE	0.32	350	1.54	330	2.1	100	2.1	195	509	975.4	NA	0.0000	-RA	9999	430	2100	0	0
2019/01/29 17:08:00	BASE	0.00	355	1.54	330	2.0	100	2.0	196	512	975.4	NA	0.0000	-RA	9000	490	2000	0	0
2019/01/29 17:09:00	BASE	0.00	5	1.54	330	1.8	100	1.8	197	514	975.4	NA	0.0000	-RA	9000	520	0	0	0
2019/01/29 17:10:00	BASE	0.00	6	1.54	330	1.7	100	1.7	195	510	975.4	NA	0.0000	-RA BR	9000	1970	0	0	0
2019/01/29 17:11:00	BASE	0.19	356	1.54	330	1.7	100	1.7	191	501	975.4	NA	0.0000	-RA BR	9000	1900	0	0	0
2019/01/29 17:12:00	BASE	0.27	350	1.54	330	1.7	100	1.7	186	488	975.4	NA	0.0000	-RA BR	9000	1970	0	0	0
2019/01/29 17:13:00	BASE	0.57	349	1.54	330	1.7	100	1.7	180	476	975.4	NA	0.0000	-RA BR	9999	1870	0	0	0
2019/01/29 17:14:00	BASE	0.82	350	1.54	330	1.8	100	1.8	178	472	975.4	NA	0.0000	-RA	9999	1870	0	0	0
2019/01/29 17:15:00	BASE	0.86	350	1.44	332	1.9	100	1.9	179	475	975.4	NA	0.0000	-RA	9999	1840	0	0	0
2019/01/29 17:16:00	BASE	0.91	346	1.44	332	2.0	100	2.0	183	483	975.4	NA	0.0000	-RA	9999	1940	0	0	0
2019/01/29 17:17:00	BASE	0.74	344	1.44	332	2.0	100	2.0	186	489	975.4	NA	0.0000		9999	1840	0	0	0
2019/01/29 17:18:00	BASE	0.87	343	1.44	347	2.0	100	2.0	187	493	975.4	NA	0.0000		9999	1840	0	0	0
2019/01/29 17:19:00	BASE	1.19	340	1.44	338	1.9	100	1.9	189	497	975.4	NA	0.0000		9999	1800	0	0	0
2019/01/29 17:20:00	BASE	1.19	339	1.44	338	1.9	100	1.9	191	502	975.4	NA	0.0000		9999	590	1740	0	0
2019/01/29 17:21:00	BASE	0.81	340	1.44	338	1.8	100	1.8	192	504	975.4	NA	0.0000	-RA	9999	560	1770	0	0
2019/01/29 17:22:00	BASE	0.37	344	1.44	338	1.7	100	1.7	191	502	975.4	NA	0.0000	-RA	9999	1710	2590	0	0
2019/01/29 17:23:00	BASE	0.22	341	1.44	338	1.7	100	1.7	188	494	975.4	NA	0.0000	-RA	9999	1570	0	0	0
2019/01/29 17:24:00	BASE	0.69	335	1.44	339	1.7	100	1.7	184	485	975.4	NA	0.0000	-RA	9999	1570	2530	0	0
2019/01/29 17:25:00	BASE	1.31	336	1.65	330	1.8	100	1.8	182	481	975.4	NA	0.0000	-RA	9999	1540	0	0	0
2019/01/29 17:26:00	BASE	1.45	336	1.65	330	1.8	100	1.8	182	481	975.4	NA	0.0000	-RA	9999	1540	22470	0	0
2019/01/29 17:27:00	BASE	1.14	337	1.65	330	1.8	100	1.8	184	486	975.4	NA	0.0000	-RA	9999	1570	0	0	0
2019/01/29 17:28:00	BASE	0.79	336	1.65	330	1.9	100	1.9	188	496	975.4	NA	0.0000	-RA	9999	1610	0	0	0
2019/01/29 17:29:00	BASE	0.96	332	1.65	330	1.8	100	1.8	195	509	975.4	NA	0.0000	-RA	9999	1610	0	0	0
2019/01/29 17:30:00	BASE	1.23	335	1.65	330	1.8	100	1.8	200	521	975.4	NA	0.0000		9999	1540	0	0	0
2019/01/29 17:31:00	BASE	1.09	338	1.65	330	1.8	100	1.8	204	529	975.4	NA	0.0000		9999	560	1900	0	0
2019/01/29 17:32:00	BASE	0.56	337	1.65	330	1.8	100	1.8	207	535	975.4	NA	0.0000		9999	560	1940	0	0
2019/01/29 17:33:00	BASE	0.13	338	1.65	330	1.8	100	1.8	209	538	975.5	NA	0.0000		9999	1540	2400	0	0
2019/01/29 17:34:00	BASE	0.33	336	1.65	330	1.9	100	1.9	209	540	975.5	NA	0.0000		9999	1510	0	0	0
2019/01/29 17:35:00	BASE	0.38	332	1.59	340	1.9	100	1.9	212	546	975.4	NA	0.0000		9999	1900	21290	0	0
2019/01/29 17:36:00	BASE	0.09	343	1.44	337	1.9	100	1.9	215	553	975.5	NA	0.0000		9999	1870	0	0	0
2019/01/29 17:37:00	BASE	0.00	354	1.44	337	1.9	100	1.9	217	557	975.6	NA	0.0000		9999	1800	2530	0	0
2019/01/29 17:38:00	BASE	0.00	356	1.44	337	1.9	100	1.9	219	562	975.6	NA	0.0000		9999	1870	2490	0	0
2019/01/29 17:39:00	BASE	0.00	357	1.39	342	2.0	100	2.0	220	563	975.6	NA	0.0000		9999	1800	2890	23300	0
2019/01/29 17:40:00	BASE	0.00	1	1.29	329	2.0	100	2.0	219	560	975.6	NA	0.0000		9999	1870	2360	2990	0
2019/01/29 17:41:00	BASE	0.00	13	1.29	329	2.0	100	2.0	217	555	975.6	NA	0.0000		9999	1900	4460	0	0
2019/01/29 17:42:00	BASE	0.00	19	1.29	329	2.1	100	2.1	214	548	975.6	NA	0.0000		9999	1770	2820	4430	0
2019/01/29 17:43:00	BASE	0.00	23	1.29	329	2.1	100	2.1	212	542	975.6	NA	0.0000		9999	2660	4530	0	0
2019/01/29 17:44:00	BASE	0.00	29	1.08	328	2.1	100	2.1	210	536	975.6	NA	0.0000		9999	1480	2690	4460	0
2019/01/29 17:45:00	BASE	0.00	68	M	M	2.1	100	2.1	208	531	975.6	NA	0.0000		9999	520	2560	0	0
2019/01/29 17:46:00	BASE	0.04	117	1.03	125	2.2	100	2.2	207	529	975.6	NA	0.0000		9999	490	1670	0	0
2019/01/29 17:47:00	BASE	0.31	124	1.08	134	2.2	100	2.2	205	524	975.6	NA	0.0000		9999	490	1540	0	0
2019/01/29 17:48:00	BASE	0.27	128	1.08	134	2.2	100	2.2	201	514	975.6	NA	0.0000		9999	1570	2760	0	0
2019/01/29 17:49:00	BASE	0.00	125	1.08	134	2.3	100	2.3	197	505	975.6	NA	0.0000		9999	1610	2660	0	0
2019/01/29 17:50:00	BASE	0.00	117	1.08	134	2.4	100	2.4	194	498	975.6	NA	0.0000		9999	1640	0	0	0
2019/01/29 17:51:00	BASE	0.00	109	1.08	134	2.4	100	2.4	190	490	975.6	NA	0.0000		9999	1540	0	0	0
2019/01/29 17:52:00	BASE	0.00	101	1.08	134	2.4	100	2.4	187	485	975.6	NA	0.0000		9999	1710	0	0	0
2019/01/29 17:53:00	BASE	0.00	98	1.08	134	2.3	100	2.3	187	487	975.6	NA	0.0000		9999	1670	0	0	0
2019/01/29 17:54:00	BASE	0.00	100	1.08	134	2.4	100	2.4	188	490	975.6	NA	0.0000		9999	1640	0	0	0
2019/01/29 17:55:00	BASE	0.00	109	1.08	134	2.4	100	2.4	186	485	975.6	NA	0.0000		9999	1670	0	0	0
2019/01/29 17:56:00	BASE	0.00	124	1.08	134	2.3	100	2.3	185	483	975.6	NA	0.0000		9999	560	1670	0	0
2019/01/29 17:57:00	BASE	0.00	130	M	M	2.3	100	2.3	183	480	975.6	NA	0.0000		9999	460	1710	0	0
2019/01/29 17:58:00	BASE	0.00	120	M	M	2.3	100	2.3	179	470	975.6	NA	0.0000		9999	490	1770	0	0
2019/01/29 17:59:00	BASE	0.00	104	M	M	2.3	100	2.3	173	456	975.6	NA	0.0000		9999	520	1710	0	0
2019/01/29 18:00:00	BASE	0.00	95	M	M	2.3	100	2.3	166	437	975.6	NA	0.0000		9999	490	1710	0	0
2019/01/29 18:01:00	BASE	0.00	85	M	M	2.3	100	2.3	157	416	975.6	NA	0.0000		9999	1640	0	0	0
2019/01/29 18:02:00	BASE	0.04	51	1.03	15	2.3	100	2.3	148	396	975.6	NA	0.0000		9999	1670	0	0	0
2019/01/29 18:03:00	BASE	0.04	24	1.03	15	2.4	100	2.4	142	382	975.6	NA	0.0000		9999	1640	0	0	0
2019/01/29 18:04:00	BASE	0.00	20	1.03	15	2.5	100	2.5	140	377	975.7	NA	0.0000		9999	520	1610	0	0
2019/01/29 18:05:00	BASE	0.00	15	1.03	15	2.5	100	2.5	141	379	975.7	NA	0.0000		9999	520	1640	0	0
2019/01/29 18:06:00	BASE	0.00	17	1.03	15	2.6	100	2.6	143	385	975.8	NA	0.0000		9999	490	1640	0	0
2019/01/29 18:07:00	BASE	0.00	15	1.03	15	2.7	100	2.7	147	393	975.8	NA	0.0000		9999	490	1570	0	0
2019/01/29 18:08:00	BASE	0.00	2	1.03	15	2.7	100	2.7	149	399	975.8	NA	0.0000		9999	1610	0	0	0
2019/01/29 18:09:00	BASE	0.00	354	1.03	15	2.5	100	2.5	153	408	975.8	NA	0.0000		9999	1570	0	0	0
2019/01/29 18:10:00	BASE	0.00	347	1.03	15	2.4	100	2.4	158	420	975.8	NA	0.0000		9999	1640	0	0	0
2019/01/29 18:11:00	BASE	0.00	343	1.03	15	2.3	100	2.3	162	429	975.8	NA	0.0000		9999	1640	0	0	0
2019/01/29 18:12:00	BASE	0.00	348	M	M	2.3	100	2.3	166	438	975.8	NA	0.0000		9999	1640	0	0	0
2019/01/29 18:13:00	BASE	0.00	352	M	M	2.2	100	2.2	171	447	975.8	NA	0.0000		9999	1540	0	0	0
2019/01/29 18:14:00	BASE	0.00	353	M	M	2.3	100	2.3	174	454	975.8	NA	0.0000		9999	1640	0	0	0
2019/01/29 18:15:00	BASE	0.00	357	M	M	2.4	100	2.4	175	457	975.8	NA	0.0000		9999	1610	0	0	0
2019/01/29 18:16:00	BASE	0.00	3	M	M	2.4	100	2.4	175	458	975.8	NA	0.0000		9999	560	1670	0	0
2019/01/29 18:17:00	BASE	0.00	6	M	M	2.3	100	2.3	175	458	975.8	NA	0.0000		9999	1570	0	0	0
2019/01/29 18:18:00	BASE	0.00	4	M	M	2.3	100	2.3	175	457	975.8	NA	0.0000		9999	560	1640	0	0
2019/01/29 18:19:00	BASE	0.00	360	M	M	2.3	100	2.3	173	451	975.8	NA	0.0000		9999	520	1570	0	0
2019/01/29 18:20:00	BASE	0.00	0	M	M	2.3	100	2.3	169	441	975.9	NA	0.0000		9999	520	1640	0	0
2019/01/29 18:21:00	BASE	0.00	360	M	M	2.3	100	2.3	163	429	975.8	NA	0.0000		9999	1540	0	0	0
2019/01/29 18:22:00	BASE	0.00	346	M	M	2.3	100	2.3	159	419	975.8	NA	0.0000		9999	1540	0	0	0
2019/01/29 18:23:00	BASE	0.00	325	M	M	2.4	100	2.4	157	414	975.8	NA	0.0000		9999	560	1510	0	0
2019/01/29 18:24:00	BASE	0.00	317	M	M	2.4	100	2.4	157	417	975.8	NA	0.0000		9999	1380	0	0	0
2019/01/29 18:25:00	BASE	0.00	311	M	M	2.4	100	2.4	159	422	975.9	NA	0.0000		9999	520	1410	0	0
2019/01/29 18:26:00	BASE	0.19	304	1.18	302	2.4	100	2.4	160	423	975.9	NA	0.0000		9999	520	1380	0	0
2019/01/29 18:27:00	BASE	0.43	300	1.23	299	2.4	100	2.4	156	415	975.9	NA	0.0000		9999	490	1640	0	0
2019/01/29 18:28:00	BASE	0.89	301	1.39	304	2.3	100	2.3	149	399	975.9	NA	0.0000		9999	490	0	0	0
2019/01/29 18:29:00	BASE	1.35	304	1.44	304	2.2	100	2.2	144	384	976.0	NA	0.0000		9999	520	0	0	0
2019/01/29 18:30:00	BASE	1.36	302	1.44	304	2.1	100	2.1	139	374	976.0	NA	0.0000		9999	490	0	0	0
2019/01/29 18:31:00	BASE	1.33	303	1.44	308	2.1	100	2.1	136	366	976.0	NA	0.0000		9999	490	0	0	0
2019/01/29 18:32:00	BASE	1.51	301	1.95	295	2.0	100	2.0	135	361	976.0	NA	0.0000		9999	490	0	0	0
2019/01/29 18:33:00	BASE	1.58	297	1.95	295	1.9	100	1.9	135	361	976.0	NA	0.0000		9999	490	0	0	0
2019/01/29 18:34:00	BASE	1.76	296	2.26	297	1.9	100	1.9	134	357	975.9	NA	0.0000		9999	520	0	0	0
2019/01/29 18:35:00	BASE	2.13	296	2.42	296	1.8	100	1.8	128	342	976.0	NA	0.0000		9999	390	0	0	0
2019/01/29 18:36:00	BASE	2.29	298	2.42	299	1.8	100	1.8	125	334	976.0	NA	0.0000		9999	360	0	0	0
2019/01/29 18:37:00	BASE	2.30	300	2.42	302	1.8	100	1.8	127	339	976.0	NA	0.0000		9999	390	0	0	0
2019/01/29 18:38:00	BASE	2.13	299	2.42	302	1.8	100	1.8	130	346	975.9	NA	0.0000		9999	430	0	0	0
2019/01/29 18:39:00	BASE	1.97	299	2.42	302	1.8	100	1.8	128	341	976.0	NA	0.0000		9999	520	0	0	0
2019/01/29 18:40:00	BASE	1.91	300	2.42	302	1.8	100	1.8	122	329	976.0	NA	0.0000		9999	460	1120	0	0
2019/01/29 18:41:00	BASE	1.81	299	2.42	302	1.8	100	1.8	121	324	976.0	NA	0.0000		9999	430	0	0	0
2019/01/29 18:42:00	BASE	1.75	300	2.42	302	1.9	100	1.9	120	323	976.0	NA	0.0000		9999	430	0	0	0
2019/01/29 18:43:00	BASE	1.90	298	2.42	302	1.9	100	1.9	120	322	976.0	NA	0.0000		9999	460	0	0	0
2019/01/29 18:44:00	BASE	2.05	295	2.42	302	1.8	100	1.8	120	322	976.0	NA	0.0000		9999	430	0	0	0
2019/01/29 18:45:00	BASE	2.13	294	2.42	302	1.8	100	1.8	120	321	976.0	NA	0.0000		9999	460	0	0	0
2019/01/29 18:46:00	BASE	2.09	293	2.42	302	1.8	100	1.8	119	317	976.0	NA	0.0000		9999	460	0	0	0
2019/01/29 18:47:00	BASE	2.00	293	2.26	295	1.8	100	1.8	116	309	976.0	NA	0.0000		9999	460	0	0	0
2019/01/29 18:48:00	BASE	2.04	294	2.42	289	1.8	100	1.8	112	299	976.0	NA	0.0000		9999	460	0	0	0
2019/01/29 18:49:00	BASE	2.11	292	2.42	293	1.7	100	1.7	109	291	976.0	NA	0.0000		9999	430	0	0	0
2019/01/29 18:50:00	BASE	2.08	290	2.42	293	1.8	100	1.8	106	283	976.1	NA	0.0000		9999	430	0	0	0
2019/01/29 18:51:00	BASE	1.94	292	2.42	293	1.8	100	1.8	104	280	976.1	NA	0.0000		9999	430	0	0	0
2019/01/29 18:52:00	BASE	1.75	295	2.42	293	1.8	100	1.8	105	280	976.1	NA	0.0000		9999	430	0	0	0
2019/01/29 18:53:00	BASE	1.58	293	2.42	293	1.8	100	1.8	104	278	976.2	NA	0.0000		9999	430	23160	0	0
2019/01/29 18:54:00	BASE	1.44	289	2.42	293	1.9	100	1.9	102	272	976.2	NA	0.0000		9999	430	0	0	0
2019/01/29 18:55:00	BASE	1.28	287	2.42	293	1.9	100	1.9	98	262	976.2	NA	0.0000		9999	430	0	0	0
2019/01/29 18:56:00	BASE	0.91	286	2.42	293	1.9	100	1.9	94	253	976.2	NA	0.0000		9999	430	0	0	0
2019/01/29 18:57:00	BASE	0.51	285	2.42	293	1.9	100	1.9	91	246	976.2	NA	0.0000		9999	460	0	0	0
2019/01/29 18:58:00	BASE	0.47	283	2.42	293	1.9	100	1.9	88	239	976.2	NA	0.0000		9999	460	0	0	0
2019/01/29 18:59:00	BASE	0.64	286	2.26	290	1.9	100	1.9	86	233	976.2	NA	0.0000		9999	490	0	0	0
2019/01/29 19:00:00	BASE	0.68	294	1.90	293	1.9	100	1.9	84	229	976.2	NA	0.0000		9999	460	0	0	0
2019/01/29 19:01:00	BASE	0.56	311	1.75	297	1.8	100	1.8	84	227	976.2	NA	0.0000		9999	460	0	0	0
2019/01/29 19:02:00	BASE	0.58	319	1.65	293	1.8	100	1.8	85	230	976.2	NA	0.0000		9999	430	0	0	0
2019/01/29 19:03:00	BASE	0.46	319	1.54	280	1.8	100	1.8	88	238	976.2	NA	0.0000		9999	430	0	0	0
2019/01/29 19:04:00	BASE	0.13	318	1.44	279	1.8	100	1.8	92	248	976.2	NA	0.0000		9999	430	0	0	0
2019/01/29 19:05:00	BASE	0.00	317	1.34	314	1.8	100	1.8	97	258	976.2	NA	0.0000		9999	430	0	0	0
2019/01/29 19:06:00	BASE	0.00	322	1.34	314	1.8	100	1.8	100	267	976.2	NA	0.0000		9999	390	0	0	0
2019/01/29 19:07:00	BASE	0.00	327	1.34	314	1.8	100	1.8	104	275	976.2	NA	0.0000		9999	430	0	0	0
2019/01/29 19:08:00	BASE	0.00	336	1.34	314	1.8	100	1.8	107	282	976.2	NA	0.0000		9999	390	0	0	0
2019/01/29 19:09:00	BASE	0.00	341	1.34	314	1.8	100	1.8	109	287	976.2	NA	0.0000		9999	390	0	0	0
2019/01/29 19:10:00	BASE	0.00	335	1.34	314	1.8	100	1.8	109	287	976.2	NA	0.0000		9999	360	0	0	0
2019/01/29 19:11:00	BASE	0.00	338	1.23	311	1.8	100	1.8	107	282	976.2	NA	0.0000		9999	360	0	0	0
2019/01/29 19:12:00	BASE	0.00	336	1.08	319	1.8	100	1.8	104	274	976.2	NA	0.0000		9999	390	0	0	0
2019/01/29 19:13:00	BASE	0.00	314	M	M	1.8	100	1.8	101	266	976.2	NA	0.0000		9999	390	0	0	0
2019/01/29 19:14:00	BASE	0.00	301	M	M	1.8	100	1.8	97	257	976.2	NA	0.0000		9999	460	0	0	0
2019/01/29 19:15:00	BASE	0.00	318	M	M	1.8	100	1.8	94	248	976.2	NA	0.0000		9999	430	0	0	0
2019/01/29 19:16:00	BASE	0.00	342	M	M	1.9	100	1.9	90	239	976.2	NA	0.0000		9999	360	0	0	0
2019/01/29 19:17:00	BASE	0.09	353	1.08	19	2.0	100	2.0	88	232	976.3	NA	0.0000		9999	390	0	0	0
2019/01/29 19:18:00	BASE	0.28	358	1.18	343	2.0	100	2.0	85	226	976.3	NA	0.0000		9999	390	0	0	0
2019/01/29 19:19:00	BASE	0.23	355	1.18	343	2.0	100	2.0	83	221	976.4	NA	0.0000		9999	390	0	0	0
2019/01/29 19:20:00	BASE	0.05	9	1.18	343	2.0	100	2.0	81	215	976.3	NA	0.0000		9999	430	0	0	0
2019/01/29 19:21:00	BASE	0.34	32	1.34	45	2.0	100	2.0	79	212	976.3	NA	0.0000		9999	430	0	0	0
2019/01/29 19:22:00	BASE	0.48	49	1.34	45	2.0	100	2.0	79	210	976.4	NA	0.0000		9999	430	0	0	0
2019/01/29 19:23:00	BASE	0.19	63	1.34	45	2.0	100	2.0	79	211	976.4	NA	0.0000		9999	390	0	0	0
2019/01/29 19:24:00	BASE	0.05	65	1.34	45	2.1	100	2.1	79	212	976.4	NA	0.0000		9999	430	0	0	0
2019/01/29 19:25:00	BASE	0.00	24	1.34	45	2.2	100	2.2	80	213	976.4	NA	0.0000		9999	430	0	0	0
2019/01/29 19:26:00	BASE	0.00	254	1.34	45	2.2	100	2.2	80	214	976.4	NA	0.0000		9999	390	0	0	0
2019/01/29 19:27:00	BASE	0.00	205	1.34	45	2.1	100	2.1	81	217	976.4	NA	0.0000		9999	390	0	0	0
2019/01/29 19:28:00	BASE	0.00	188	1.34	45	2.1	100	2.1	83	221	976.4	NA	0.0000		9999	390	0	0	0
2019/01/29 19:29:00	BASE	0.00	189	1.34	45	2.1	100	2.1	85	226	976.5	NA	0.0000		9999	360	0	0	0
2019/01/29 19:30:00	BASE	0.00	196	1.34	45	2.0	100	2.0	87	230	976.4	NA	0.0000		9999	360	0	0	0
2019/01/29 19:31:00	BASE	0.00	205	1.13	51	2.0	100	2.0	89	236	976.4	NA	0.0000		9999	360	0	0	0
2019/01/29 19:32:00	BASE	0.00	197	1.13	51	2.0	100	2.0	91	242	976.4	NA	0.0000		9999	360	0	0	0
2019/01/29 19:33:00	BASE	0.00	193	M	M	2.0	100	2.0	95	250	976.4	NA	0.0000		9999	330	0	0	0
2019/01/29 19:34:00	BASE	0.00	198	M	M	2.0	100	2.0	100	264	976.5	NA	0.0000		9999	360	0	0	0
2019/01/29 19:35:00	BASE	0.00	193	M	M	2.0	100	2.0	109	285	976.5	NA	0.0000		9999	330	0	0	0
2019/01/29 19:36:00	BASE	0.00	199	M	M	2.0	100	2.0	121	313	976.4	NA	0.0000		9999	330	0	0	0
2019/01/29 19:37:00	BASE	0.00	196	M	M	2.0	100	2.0	135	348	976.4	NA	0.0000		9999	360	0	0	0
2019/01/29 19:38:00	BASE	0.00	182	M	M	2.0	100	2.0	151	383	976.5	NA	0.0000		9000	360	0	0	0
2019/01/29 19:39:00	BASE	0.00	176	M	M	2.0	100	2.0	162	408	976.5	NA	0.0000		8000	360	0	0	0
2019/01/29 19:40:00	BASE	0.00	161	M	M	2.0	100	2.0	164	412	976.5	NA	0.0000		9000	360	0	0	0
2019/01/29 19:41:00	BASE	0.00	163	M	M	2.0	100	2.0	157	398	976.6	NA	0.0000		9999	360	0	0	0
2019/01/29 19:42:00	BASE	0.00	176	M	M	2.0	100	2.0	146	373	976.5	NA	0.0000		9999	330	0	0	0
2019/01/29 19:43:00	BASE	0.00	176	M	M	2.1	100	2.1	134	345	976.6	NA	0.0000		9999	300	0	0	0
2019/01/29 19:44:00	BASE	0.00	188	M	M	2.2	100	2.2	125	323	976.6	NA	0.0000		9999	300	0	0	0
2019/01/29 19:45:00	BASE	0.00	203	M	M	2.2	100	2.2	117	305	976.6	NA	0.0000		9999	260	0	0	0
2019/01/29 19:46:00	BASE	0.00	216	M	M	2.2	100	2.2	112	291	976.6	NA	0.0000		9999	260	0	0	0
2019/01/29 19:47:00	BASE	0.00	236	M	M	2.2	100	2.2	107	280	976.6	NA	0.0000		9999	230	0	0	0
2019/01/29 19:48:00	BASE	0.00	250	M	M	2.1	100	2.1	104	272	976.6	NA	0.0000		9999	200	0	0	0
2019/01/29 19:49:00	BASE	0.00	263	M	M	2.1	100	2.1	102	268	976.6	NA	0.0000		9999	230	0	0	0
2019/01/29 19:50:00	BASE	0.00	275	M	M	2.0	100	2.0	101	266	976.7	NA	0.0000		9999	230	0	0	0
2019/01/29 19:51:00	BASE	0.00	281	M	M	2.0	100	2.0	102	266	976.6	NA	0.0000		9999	230	0	0	0
2019/01/29 19:52:00	BASE	0.00	308	M	M	2.0	100	2.0	103	268	976.6	NA	0.0000		9999	230	0	0	0
2019/01/29 19:53:00	BASE	0.00	282	M	M	1.9	100	1.9	104	270	976.6	NA	0.0000		9999	230	0	0	0
2019/01/29 19:54:00	BASE	0.00	239	M	M	1.9	100	1.9	106	274	976.7	NA	0.0000		9999	200	0	0	0
2019/01/29 19:55:00	BASE	0.00	236	M	M	1.9	100	1.9	108	278	976.7	NA	0.0000		9999	200	0	0	0
2019/01/29 19:56:00	BASE	0.00	202	M	M	2.0	100	2.0	110	282	976.6	NA	0.0000		9999	200	0	0	0
2019/01/29 19:57:00	BASE	0.00	184	M	M	2.1	100	2.1	113	288	976.6	NA	0.0000		9000	200	0	0	0
2019/01/29 19:58:00	BASE	0.00	198	M	M	2.1	100	2.1	116	297	976.6	NA	0.0000		9999	200	0	0	0
2019/01/29 19:59:00	BASE	0.00	207	M	M	2.1	100	2.1	120	304	976.7	NA	0.0000		9999	260	0	0	0
2019/01/29 20:00:00	BASE	0.00	211	M	M	2.1	100	2.1	123	311	976.7	NA	0.0000		9999	300	0	0	0
2019/01/29 20:01:00	BASE	0.00	214	M	M	2.1	100	2.1	126	318	976.7	NA	0.0000		9999	300	0	0	0
2019/01/29 20:02:00	BASE	0.00	219	M	M	2.1	100	2.1	129	323	976.7	NA	0.0000		9999	300	0	0	0
2019/01/29 20:03:00	BASE	0.00	222	M	M	2.1	100	2.1	130	327	976.7	NA	0.0000		9999	300	0	0	0
2019/01/29 20:04:00	BASE	0.00	238	M	M	2.1	100	2.1	131	328	976.7	NA	0.0000		9999	300	0	0	0
2019/01/29 20:05:00	BASE	0.00	333	M	M	2.1	100	2.1	130	326	976.7	NA	0.0000		9999	300	0	0	0
2019/01/29 20:06:00	BASE	0.00	359	M	M	2.1	100	2.1	129	324	976.7	NA	0.0000		9999	300	0	0	0
2019/01/29 20:07:00	BASE	0.37	356	1.18	354	2.1	100	2.1	128	321	976.7	NA	0.0000		9999	330	0	0	0
2019/01/29 20:08:00	BASE	0.45	354	1.18	354	2.1	100	2.1	126	317	976.7	NA	0.0000		9999	330	0	0	0
2019/01/29 20:09:00	BASE	0.18	354	1.18	354	2.1	100	2.1	124	311	976.7	NA	0.0000		9999	330	0	0	0
2019/01/29 20:10:00	BASE	0.18	355	1.18	354	2.1	100	2.1	122	306	976.8	NA	0.0000		9999	330	0	0	0
2019/01/29 20:11:00	BASE	0.09	356	1.18	354	2.1	100	2.1	121	305	976.8	NA	0.0000		9999	330	0	0	0
2019/01/29 20:12:00	BASE	0.00	346	1.18	354	2.1	100	2.1	121	304	976.8	NA	0.0000		9999	330	0	0	0
2019/01/29 20:13:00	BASE	0.04	334	1.18	354	2.1	100	2.1	121	303	976.8	NA	0.0000		9999	330	0	0	0
2019/01/29 20:14:00	BASE	0.04	329	1.18	354	2.0	100	2.0	122	305	976.8	NA	0.0000		9999	260	0	0	0
2019/01/29 20:15:00	BASE	0.00	327	1.18	354	1.9	100	1.9	124	310	976.8	NA	0.0000		9999	300	0	0	0
2019/01/29 20:16:00	BASE	0.00	333	1.18	354	1.9	100	1.9	126	315	976.8	NA	0.0000		9999	300	0	0	0
2019/01/29 20:17:00	BASE	0.00	351	1.13	349	1.8	100	1.8	127	317	976.8	NA	0.0000		9999	300	0	0	0
2019/01/29 20:18:00	BASE	0.00	359	1.13	349	1.8	100	1.8	127	317	976.8	NA	0.0000		9999	300	0	0	0
2019/01/29 20:19:00	BASE	0.00	357	1.08	355	1.9	100	1.9	126	315	976.8	NA	0.0000		9999	300	0	0	0
2019/01/29 20:20:00	BASE	0.00	1	1.03	329	1.9	100	1.9	124	311	976.8	NA	0.0000		9999	300	0	0	0
2019/01/29 20:21:00	BASE	0.00	359	1.03	329	2.0	100	2.0	121	304	976.8	NA	0.0000		9999	260	0	0	0
2019/01/29 20:22:00	BASE	0.00	2	1.03	329	2.0	100	2.0	116	292	976.8	NA	0.0000		9999	260	0	0	0
2019/01/29 20:23:00	BASE	0.00	14	M	M	2.0	100	2.0	108	276	976.8	NA	0.0000		9999	300	0	0	0
2019/01/29 20:24:00	BASE	0.00	15	M	M	2.0	100	2.0	102	260	976.9	NA	0.0000		9999	300	0	0	0
2019/01/29 20:25:00	BASE	0.00	16	M	M	2.0	100	2.0	96	246	977.0	NA	0.0000		9999	330	0	0	0
2019/01/29 20:26:00	BASE	0.00	17	M	M	2.1	100	2.1	91	235	977.0	NA	0.0000		9999	300	0	0	0
2019/01/29 20:27:00	BASE	0.00	335	M	M	2.1	100	2.1	87	224	977.0	NA	0.0000		9999	300	22970	0	0
2019/01/29 20:28:00	BASE	0.00	245	M	M	2.2	100	2.2	84	217	977.0	NA	0.0000		9999	330	0	0	0
2019/01/29 20:29:00	BASE	0.00	237	M	M	2.2	100	2.2	83	215	977.0	NA	0.0000		9999	300	0	0	0
2019/01/29 20:30:00	BASE	0.04	315	1.03	330	2.2	100	2.2	84	218	977.0	NA	0.0000		9999	300	0	0	0
2019/01/29 20:31:00	BASE	0.04	298	1.03	330	2.2	100	2.2	86	222	977.0	NA	0.0000		9999	300	0	0	0
2019/01/29 20:32:00	BASE	0.00	284	1.03	330	2.2	100	2.2	87	225	977.0	NA	0.0000		9999	330	0	0	0
2019/01/29 20:33:00	BASE	0.00	280	1.03	330	2.1	100	2.1	87	226	977.0	NA	0.0000		9999	360	0	0	0
2019/01/29 20:34:00	BASE	0.50	266	1.49	252	2.1	100	2.1	89	230	977.0	NA	0.0000		9999	300	0	0	0
2019/01/29 20:35:00	BASE	0.71	252	1.49	252	2.0	100	2.0	92	237	977.1	NA	0.0000		9999	330	0	0	0
2019/01/29 20:36:00	BASE	0.21	252	1.49	252	2.0	100	2.0	98	251	977.1	NA	0.0000		9999	360	0	0	0
2019/01/29 20:37:00	BASE	0.00	258	1.49	252	2.0	100	2.0	105	268	977.1	NA	0.0000		9999	330	0	0	0
2019/01/29 20:38:00	BASE	0.46	257	1.49	252	1.9	100	1.9	111	280	977.1	NA	0.0000		9999	430	0	0	0
2019/01/29 20:39:00	BASE	0.74	258	1.49	252	1.9	100	1.9	111	280	977.1	NA	0.0000		9999	490	0	0	0
2019/01/29 20:40:00	BASE	0.52	258	1.49	252	2.0	100	2.0	108	274	977.1	NA	0.0000		9999	460	0	0	0
2019/01/29 20:41:01	BASE	0.39	266	1.49	252	2.0	100	2.0	107	270	977.1	NA	0.0000		9999	360	0	0	0
2019/01/29 20:42:00	BASE	0.28	280	1.49	252	2.1	100	2.1	106	268	977.1	NA	0.0000		9999	330	0	0	0
2019/01/29 20:43:00	BASE	0.46	293	1.49	252	2.1	100	2.1	104	265	977.1	NA	0.0000		9999	390	0	0	0
2019/01/29 20:44:00	BASE	0.38	305	1.39	263	2.1	100	2.1	104	265	977.2	NA	0.0000		9999	330	0	0	0
2019/01/29 20:45:00	BASE	0.09	301	1.39	263	2.1	100	2.1	105	266	977.2	NA	0.0000		9999	360	950	0	0
2019/01/29 20:46:00	BASE	0.22	304	1.39	263	2.1	100	2.1	105	267	977.2	NA	0.0000		9999	360	0	0	0
2019/01/29 20:47:00	BASE	0.17	317	1.39	263	2.0	100	2.0	105	266	977.2	NA	0.0000		9999	360	0	0	0
2019/01/29 20:48:00	BASE	0.04	320	1.39	263	1.9	100	1.9	103	262	977.2	NA	0.0000		9999	660	0	0	0
2019/01/29 20:49:00	BASE	0.67	309	1.85	308	1.9	100	1.9	101	257	977.2	NA	0.0000		9999	590	0	0	0
2019/01/29 20:50:00	BASE	0.63	307	1.85	308	1.9	100	1.9	99	252	977.2	NA	0.0000		9999	560	0	0	0
2019/01/29 20:51:00	BASE	0.00	318	1.85	308	2.0	100	2.0	97	249	977.2	NA	0.0000		9999	460	0	0	0
2019/01/29 20:52:00	BASE	0.00	325	1.85	308	1.9	100	1.9	97	247	977.2	NA	0.0000		9999	360	0	0	0
2019/01/29 20:53:00	BASE	0.04	332	1.85	308	1.9	100	1.9	98	253	977.2	NA	0.0000		9999	360	0	0	0
2019/01/29 20:54:00	BASE	0.04	331	1.85	308	1.9	100	1.9	102	261	977.2	NA	0.0000		9000	330	0	0	0
2019/01/29 20:55:00	BASE	0.09	322	1.85	308	1.9	100	1.9	105	269	977.2	NA	0.0000		9999	330	750	0	0
2019/01/29 20:56:00	BASE	0.09	311	1.85	308	1.8	100	1.8	107	273	977.1	NA	0.0000		9999	360	0	0	0
2019/01/29 20:57:00	BASE	0.00	303	1.85	308	1.8	100	1.8	108	275	977.2	NA	0.0000		9999	300	820	0	0
2019/01/29 20:58:00	BASE	0.00	302	1.85	308	1.8	100	1.8	110	279	977.2	NA	0.0000		9999	330	0	0	0
2019/01/29 20:59:00	BASE	0.00	304	1.03	323	1.8	100	1.8	111	282	977.2	NA	0.0000		9000	430	0	0	0
2019/01/29 21:00:00	BASE	0.00	304	1.03	323	1.9	100	1.9	113	286	977.2	NA	0.0000		9999	390	0	0	0
2019/01/29 21:01:00	BASE	0.00	295	1.03	323	1.9	100	1.9	115	290	977.2	NA	0.0000		9999	560	0	0	0
2019/01/29 21:02:00	BASE	0.00	282	1.03	323	1.9	100	1.9	118	298	977.2	NA	0.0000		9999	560	0	0	0
2019/01/29 21:03:00	BASE	0.00	288	1.03	323	1.9	100	1.9	124	310	977.2	NA	0.0000		9999	560	0	0	0
2019/01/29 21:04:00	BASE	0.00	307	1.03	323	2.0	100	2.0	130	324	977.2	NA	0.0000		9999	520	0	0	0
2019/01/29 21:05:00	BASE	0.20	317	1.29	302	2.0	100	2.0	136	336	977.2	NA	0.0000		9999	490	0	0	0
2019/01/29 21:06:00	BASE	0.24	325	1.29	302	2.0	100	2.0	139	344	977.2	NA	0.0000		9000	490	1080	0	0
2019/01/29 21:07:00	BASE	0.32	322	1.29	302	2.1	100	2.1	141	348	977.2	NA	0.0000		9999	460	3050	0	0
2019/01/29 21:08:00	BASE	0.37	321	1.29	302	2.0	100	2.0	140	347	977.2	NA	0.0000		9999	360	3250	0	0
2019/01/29 21:09:00	BASE	0.56	325	1.29	323	2.0	100	2.0	139	344	977.2	NA	0.0000		9999	360	3180	0	0
2019/01/29 21:10:00	BASE	0.85	323	1.29	323	1.9	100	1.9	138	342	977.2	NA	0.0000		9999	260	3150	0	0
2019/01/29 21:11:00	BASE	0.48	319	1.29	322	1.9	100	1.9	136	337	977.2	NA	0.0000		9999	490	1440	0	0
2019/01/29 21:12:00	BASE	0.37	316	1.29	322	1.9	100	1.9	132	328	977.3	NA	0.0000		9999	520	1280	0	0
2019/01/29 21:13:00	BASE	0.36	313	1.29	322	1.9	100	1.9	128	320	977.3	NA	0.0000		9999	520	1180	0	0
2019/01/29 21:14:00	BASE	0.13	315	1.29	322	1.9	100	1.9	125	311	977.3	NA	0.0000		9999	490	1250	0	0
2019/01/29 21:15:00	BASE	0.09	323	1.29	322	1.9	100	1.9	121	302	977.3	NA	0.0000		9999	490	1210	0	0
2019/01/29 21:16:00	BASE	0.05	328	1.29	322	1.8	100	1.8	118	295	977.3	NA	0.0000		9999	490	0	0	0
2019/01/29 21:17:00	BASE	0.00	331	1.29	322	1.9	100	1.9	115	289	977.3	NA	0.0000		9999	520	0	0	0
2019/01/29 21:18:00	BASE	0.05	329	1.29	322	1.9	100	1.9	113	283	977.2	NA	0.0000		9999	590	0	0	0
2019/01/29 21:19:00	BASE	0.09	328	1.29	322	1.8	100	1.8	110	276	977.2	NA	0.0000		9999	520	0	0	0
2019/01/29 21:20:00	BASE	0.43	331	1.29	326	1.8	100	1.8	107	269	977.3	NA	0.0000		9999	490	0	0	0
2019/01/29 21:21:00	BASE	0.81	328	1.29	324	1.9	100	1.9	103	260	977.3	NA	0.0000		9999	460	0	0	0
2019/01/29 21:22:00	BASE	0.42	326	1.29	324	1.8	100	1.8	100	253	977.3	NA	0.0000		9999	560	0	0	0
2019/01/29 21:23:00	BASE	0.23	334	1.29	324	1.8	100	1.8	99	249	977.3	NA	0.0000		9999	520	0	0	0
2019/01/29 21:24:00	BASE	0.37	343	1.29	324	1.8	100	1.8	98	247	977.3	NA	0.0000		9999	490	0	0	0
2019/01/29 21:25:00	BASE	0.13	348	1.29	324	1.8	100	1.8	96	241	977.3	NA	0.0000		9999	460	0	0	0
2019/01/29 21:26:00	BASE	0.00	350	1.29	324	1.8	100	1.8	92	234	977.3	NA	0.0000		9999	460	0	0	0
2019/01/29 21:27:00	BASE	0.00	355	1.29	324	1.8	100	1.8	90	229	977.3	NA	0.0000		9999	330	0	0	0
2019/01/29 21:28:00	BASE	0.00	0	1.29	324	1.7	100	1.7	88	224	977.3	NA	0.0000		9999	360	0	0	0
2019/01/29 21:29:00	BASE	0.00	0	1.29	324	1.7	100	1.7	86	219	977.3	NA	0.0000		9999	360	0	0	0
2019/01/29 21:30:00	BASE	0.00	360	1.29	324	1.6	100	1.6	84	215	977.3	NA	0.0000		9999	360	0	0	0
2019/01/29 21:31:00	BASE	0.00	352	1.18	351	1.6	100	1.6	82	211	977.3	NA	0.0000		9999	360	0	0	0
2019/01/29 21:32:00	BASE	0.00	338	1.18	351	1.6	100	1.6	81	208	977.3	NA	0.0000		9999	330	0	0	0
2019/01/29 21:33:00	BASE	0.00	335	1.08	345	1.6	100	1.6	80	205	977.3	NA	0.0000		9999	330	0	0	0
2019/01/29 21:34:00	BASE	0.00	342	M	M	1.7	100	1.7	79	204	977.3	NA	0.0000		9999	330	0	0	0
2019/01/29 21:35:00	BASE	0.00	345	M	M	1.7	100	1.7	79	204	977.3	NA	0.0000		9999	360	0	0	0
2019/01/29 21:36:00	BASE	0.00	350	M	M	1.7	100	1.7	80	204	977.3	NA	0.0000		9999	330	0	0	0
2019/01/29 21:37:00	BASE	0.00	353	M	M	1.7	100	1.7	79	203	977.3	NA	0.0000		9999	360	0	0	0
2019/01/29 21:38:00	BASE	0.00	356	M	M	1.7	100	1.7	79	202	977.3	NA	0.0000		9999	360	0	0	0
2019/01/29 21:39:00	BASE	0.00	3	M	M	1.7	100	1.7	79	202	977.3	NA	0.0000		9999	360	0	0	0
2019/01/29 21:40:00	BASE	0.00	358	M	M	1.7	100	1.7	79	203	977.3	NA	0.0000		9999	360	0	0	0
2019/01/29 21:41:00	BASE	0.00	344	M	M	1.7	100	1.7	81	208	977.3	NA	0.0000		9999	260	0	0	0
2019/01/29 21:42:00	BASE	0.00	333	M	M	1.6	100	1.6	84	213	977.3	NA	0.0000		9999	230	0	0	0
2019/01/29 21:43:00	BASE	0.00	321	M	M	1.6	100	1.6	86	217	977.3	NA	0.0000		9999	300	0	0	0
2019/01/29 21:44:00	BASE	0.00	305	M	M	1.6	100	1.6	86	217	977.3	NA	0.0000		9999	560	0	0	0
2019/01/29 21:45:00	BASE	0.00	289	M	M	1.6	100	1.6	84	214	977.3	NA	0.0000		9999	460	0	0	0
2019/01/29 21:46:00	BASE	0.00	307	M	M	1.6	100	1.6	83	211	977.3	NA	0.0000		9999	490	0	0	0
2019/01/29 21:47:00	BASE	0.00	333	M	M	1.7	100	1.7	83	210	977.3	NA	0.0000		9999	490	0	0	0
2019/01/29 21:48:00	BASE	0.00	318	M	M	1.7	100	1.7	82	208	977.3	NA	0.0000		9999	490	0	0	0
2019/01/29 21:49:00	BASE	0.00	315	M	M	1.8	100	1.8	82	209	977.4	NA	0.0000		9999	430	0	0	0
2019/01/29 21:50:00	BASE	0.05	319	1.08	325	1.8	100	1.8	83	209	977.4	NA	0.0000		9999	430	0	0	0
2019/01/29 21:51:00	BASE	0.59	302	1.34	306	1.7	100	1.7	83	209	977.4	NA	0.0000		9999	430	0	0	0
2019/01/29 21:52:00	BASE	0.64	291	1.34	306	1.7	100	1.7	82	207	977.4	NA	0.0000		9999	460	0	0	0
2019/01/29 21:53:00	BASE	0.18	290	1.34	306	1.7	100	1.7	81	205	977.4	NA	0.0000		9999	460	0	0	0
2019/01/29 21:54:00	BASE	0.09	287	1.34	306	1.6	100	1.6	80	202	977.4	NA	0.0000		9999	460	0	0	0
2019/01/29 21:55:00	BASE	0.27	278	1.34	306	1.6	100	1.6	78	199	977.4	NA	0.0000		9999	430	0	0	0
2019/01/29 21:56:00	BASE	0.53	277	1.34	306	1.6	100	1.6	77	196	977.4	NA	0.0000		9999	460	0	0	0
2019/01/29 21:57:00	BASE	0.50	278	1.34	306	1.6	100	1.6	76	193	977.4	NA	0.0000		9999	460	0	0	0
2019/01/29 21:58:00	BASE	0.51	279	1.34	306	1.7	100	1.7	75	191	977.4	NA	0.0000		9999	430	0	0	0
2019/01/29 21:59:00	BASE	0.85	281	1.34	306	1.7	100	1.7	74	189	977.4	NA	0.0000		9999	390	0	0	0
2019/01/29 22:00:00	BASE	0.62	284	1.34	306	1.7	100	1.7	74	188	977.4	NA	0.0000		9999	390	0	0	0
2019/01/29 22:01:00	BASE	0.23	291	1.29	294	1.7	100	1.7	74	189	977.4	NA	0.0000		9999	390	0	0	0
2019/01/29 22:02:00	BASE	0.64	294	1.29	294	1.7	100	1.7	75	190	977.4	NA	0.0000		9999	360	0	0	0
2019/01/29 22:03:00	BASE	0.68	285	1.29	274	1.7	100	1.7	75	190	977.4	NA	0.0000		9999	390	0	0	0
2019/01/29 22:04:00	BASE	0.27	283	1.29	274	1.8	100	1.8	75	189	977.4	NA	0.0000		9999	390	0	0	0
2019/01/29 22:05:00	BASE	0.04	287	1.29	274	1.8	100	1.8	73	185	977.4	NA	0.0000		9999	360	0	0	0
2019/01/29 22:06:00	BASE	0.00	289	1.29	274	1.8	100	1.8	71	179	977.4	NA	0.0000		9999	330	0	0	0
2019/01/29 22:07:00	BASE	0.05	290	1.29	274	1.8	100	1.8	67	171	977.5	NA	0.0000		9999	330	0	0	0
2019/01/29 22:08:00	BASE	0.05	286	1.29	274	1.9	100	1.9	64	162	977.5	NA	0.0000		9999	330	0	0	0
2019/01/29 22:09:00	BASE	0.00	278	1.29	274	1.8	100	1.8	60	153	977.6	NA	0.0000		9999	360	0	0	0
2019/01/29 22:10:00	BASE	0.00	276	1.29	274	1.8	100	1.8	57	146	977.6	NA	0.0000		9999	360	0	0	0
2019/01/29 22:11:00	BASE	0.00	269	1.29	274	1.7	100	1.7	55	140	977.6	NA	0.0000		9999	330	0	0	0
2019/01/29 22:12:00	BASE	0.40	261	1.29	262	1.7	100	1.7	53	135	977.6	NA	0.0000		9999	330	0	0	0
2019/01/29 22:13:00	BASE	0.49	259	1.29	262	1.7	100	1.7	51	131	977.6	NA	0.0000		9999	300	0	0	0
2019/01/29 22:14:00	BASE	0.09	243	1.29	262	1.7	100	1.7	51	130	977.6	NA	0.0000		9999	230	0	0	0
2019/01/29 22:15:00	BASE	0.00	227	1.29	262	1.6	100	1.6	50	129	977.6	NA	0.0000		9999	230	0	0	0
2019/01/29 22:16:00	BASE	0.00	222	1.29	262	1.7	100	1.7	50	127	977.6	NA	0.0000		9999	230	0	0	0
2019/01/29 22:17:00	BASE	0.05	226	1.29	262	1.7	100	1.7	50	126	977.6	NA	0.0000		9999	260	0	0	0
2019/01/29 22:18:00	BASE	0.42	226	1.29	262	1.7	100	1.7	50	126	977.7	NA	0.0000		9000	300	0	0	0
2019/01/29 22:19:00	BASE	0.41	218	1.29	262	1.7	100	1.7	49	126	977.7	NA	0.0000	UP	9000	360	0	0	0
2019/01/29 22:20:00	BASE	0.14	218	1.29	228	1.7	100	1.7	49	125	977.7	NA	0.0000	UP	9000	430	0	0	0
2019/01/29 22:21:00	BASE	0.29	224	1.29	228	1.7	100	1.7	48	123	977.7	NA	0.0000	UP	9999	490	0	0	0
2019/01/29 22:22:00	BASE	0.19	215	1.29	228	1.7	100	1.7	47	120	977.7	NA	0.0000	UP	9999	390	0	0	0
2019/01/29 22:23:00	BASE	0.18	201	1.29	228	1.8	100	1.8	45	116	977.7	NA	0.0000	UP	9000	390	0	0	0
2019/01/29 22:24:00	BASE	0.18	197	1.29	228	1.8	100	1.8	44	113	977.7	NA	0.0000	UP BR	9000	260	0	0	0
2019/01/29 22:25:00	BASE	0.09	198	1.29	228	1.8	100	1.8	44	112	977.7	NA	0.0000	UP BR	9000	200	0	0	0
2019/01/29 22:26:00	BASE	0.14	203	1.29	213	1.8	100	1.8	43	111	977.7	NA	0.0000	UP BR	9000	230	0	0	0
2019/01/29 22:27:00	BASE	0.59	207	1.29	204	1.9	100	1.9	43	109	977.7	NA	0.0000	UP BR	9000	390	0	0	0
2019/01/29 22:28:00	BASE	1.17	202	1.29	193	1.8	100	1.8	42	107	977.7	NA	0.0000	UP BR	9999	360	0	0	0
2019/01/29 22:29:00	BASE	1.05	192	1.29	196	1.8	100	1.8	42	108	977.7	NA	0.0000	UP BR	9999	260	0	0	0
2019/01/29 22:30:00	BASE	1.12	189	1.70	191	1.8	100	1.8	43	109	977.7	NA	0.0000	UP BR	9999	330	0	0	0
2019/01/29 22:31:00	BASE	1.40	194	1.75	198	1.8	100	1.8	43	108	977.8	NA	0.0000	UP BR	9000	430	0	0	0
2019/01/29 22:32:00	BASE	1.44	201	1.75	198	1.8	100	1.8	43	108	977.8	NA	0.0000	UP BR	9000	360	0	0	0
2019/01/29 22:33:00	BASE	1.43	204	1.75	198	1.8	100	1.8	43	108	977.8	NA	0.0000	UP BR	9000	360	0	0	0
2019/01/29 22:34:00	BASE	1.38	206	1.75	198	1.8	100	1.8	43	108	977.8	NA	0.0000	UP BR	9000	390	0	0	0
2019/01/29 22:35:00	BASE	1.22	214	1.75	198	1.7	100	1.7	43	108	977.8	NA	0.0000	UP BR	9999	390	0	0	0
2019/01/29 22:36:00	BASE	1.30	233	1.75	249	1.7	100	1.7	42	107	977.8	NA	0.0000	UP BR	9000	360	0	0	0
2019/01/29 22:37:00	BASE	1.24	248	1.80	245	1.7	100	1.7	42	105	977.8	NA	0.0000	UP BR	8000	330	0	0	0
2019/01/29 22:38:00	BASE	1.16	246	1.85	223	1.7	100	1.7	42	105	977.8	NA	0.0000	UP BR	9000	330	0	0	0
2019/01/29 22:39:00	BASE	1.03	246	1.85	223	1.7	100	1.7	42	106	977.8	NA	0.0000	UP BR	9999	330	0	0	0
2019/01/29 22:40:00	BASE	0.34	259	1.85	223	1.8	100	1.8	42	105	977.8	NA	0.0000	UP BR	9999	330	0	0	0
2019/01/29 22:41:00	BASE	0.19	285	1.85	223	1.8	100	1.8	41	104	977.8	NA	0.0000	UP BR	9000	300	0	0	0
2019/01/29 22:42:00	BASE	0.60	308	1.85	223	1.9	100	1.9	41	103	977.8	NA	0.0000	UP BR	9999	330	0	0	0
2019/01/29 22:43:00	BASE	0.50	311	1.85	223	1.9	100	1.9	40	101	977.8	NA	0.0000	BR	9000	300	0	0	0
2019/01/29 22:44:00	BASE	0.09	298	1.85	223	1.9	100	1.9	39	99	977.8	NA	0.0000	BR	7000	300	0	0	0
2019/01/29 22:45:00	BASE	0.00	287	1.85	223	1.9	100	1.9	39	99	977.8	NA	0.0000	BR	9000	260	0	0	0
2019/01/29 22:46:00	BASE	0.00	298	1.85	223	1.9	100	1.9	39	99	977.8	NA	0.0000	BR	8000	300	0	0	0
2019/01/29 22:47:00	BASE	0.00	301	1.85	223	1.8	100	1.8	39	99	977.8	NA	0.0000	BR	9000	260	0	0	0
2019/01/29 22:48:00	BASE	0.00	286	1.29	258	1.8	100	1.8	39	99	977.7	NA	0.0000	BR	9999	300	0	0	0
2019/01/29 22:49:00	BASE	0.00	257	1.18	303	1.8	100	1.8	39	99	977.8	NA	0.0000	BR	9999	300	0	0	0
2019/01/29 22:50:00	BASE	0.00	243	1.18	303	1.8	100	1.8	39	98	977.8	NA	0.0000	BR	9999	300	0	0	0
2019/01/29 22:51:00	BASE	0.00	285	1.13	336	1.8	100	1.8	38	96	977.8	NA	0.0000	BR	9999	300	0	0	0
2019/01/29 22:52:00	BASE	0.00	269	1.08	344	1.7	100	1.7	38	95	977.8	NA	0.0000	BR	9999	300	0	0	0
2019/01/29 22:53:00	BASE	0.24	227	1.29	220	1.7	100	1.7	38	95	977.8	NA	0.0000	BR	8000	330	0	0	0
2019/01/29 22:54:00	BASE	0.74	220	1.29	220	1.7	100	1.7	38	95	977.9	NA	0.0000	BR	8000	300	0	0	0
2019/01/29 22:55:00	BASE	0.55	216	1.29	220	1.6	100	1.6	38	94	977.9	NA	0.0000	BR	9999	330	0	0	0
2019/01/29 22:56:00	BASE	0.19	209	1.29	220	1.7	100	1.7	38	93	977.9	NA	0.0000	BR	9999	300	0	0	0
2019/01/29 22:57:00	BASE	0.14	208	1.29	220	1.7	100	1.7	37	92	977.9	NA	0.0000	BR	9000	330	0	0	0
2019/01/29 22:58:00	BASE	0.00	208	1.29	220	1.7	100	1.7	37	90	977.9	NA	0.0000	BR	9999	360	0	0	0
2019/01/29 22:59:00	BASE	0.00	210	1.29	220	1.7	100	1.7	36	89	977.9	NA	0.0000	BR	9000	330	0	0	0
2019/01/29 23:00:00	BASE	0.00	218	1.29	220	1.7	100	1.7	36	88	977.9	NA	0.0000	BR	9000	360	0	0	0
2019/01/29 23:01:00	BASE	0.00	227	1.29	220	1.7	100	1.7	35	87	977.9	NA	0.0000	BR	9000	360	0	0	0
2019/01/29 23:02:00	BASE	0.00	221	1.29	220	1.7	100	1.7	35	85	977.9	NA	0.0000	BR	9999	330	0	0	0
2019/01/29 23:03:00	BASE	0.00	207	1.18	223	1.7	100	1.7	34	83	977.9	NA	0.0000	BR	9999	300	0	0	0
2019/01/29 23:04:00	BASE	0.00	199	1.13	224	1.7	100	1.7	32	81	977.9	NA	0.0000	BR	9999	330	0	0	0
2019/01/29 23:05:00	BASE	0.00	193	1.13	224	1.7	100	1.7	31	78	977.9	NA	0.0000	BR	9000	330	0	0	0
2019/01/29 23:06:00	BASE	0.00	188	M	M	1.7	100	1.7	31	76	977.9	NA	0.0000	BR	9999	300	0	0	0
2019/01/29 23:07:00	BASE	0.27	197	1.13	204	1.7	100	1.7	30	75	977.9	NA	0.0000	BR	9999	330	0	0	0
2019/01/29 23:08:00	BASE	0.43	207	1.44	197	1.7	100	1.7	30	73	977.9	NA	0.0000	BR	9000	330	0	0	0
2019/01/29 23:09:00	BASE	0.60	204	1.44	197	1.7	100	1.7	29	72	977.9	NA	0.0000	BR	9999	330	0	0	0
2019/01/29 23:10:00	BASE	0.89	197	1.44	197	1.7	100	1.7	29	71	977.9	NA	0.0000	BR	9999	330	0	0	0
2019/01/29 23:11:00	BASE	0.74	200	1.44	197	1.7	100	1.7	29	71	977.9	NA	0.0000		9999	360	0	0	0
2019/01/29 23:12:00	BASE	0.87	204	1.44	197	1.7	100	1.7	28	70	977.9	NA	0.0000		9999	390	0	0	0
2019/01/29 23:13:00	BASE	0.90	206	1.44	197	1.7	100	1.7	28	70	977.9	NA	0.0000		9999	390	0	0	0
2019/01/29 23:14:00	BASE	0.58	209	1.44	197	1.7	100	1.7	27	68	977.9	NA	0.0000		9999	390	0	0	0
2019/01/29 23:15:00	BASE	0.66	208	1.44	197	1.7	100	1.7	26	66	977.9	NA	0.0000		9999	390	0	0	0
2019/01/29 23:16:00	BASE	0.40	205	1.44	197	1.6	100	1.6	25	63	977.9	NA	0.0000		9999	390	0	0	0
2019/01/29 23:17:00	BASE	0.00	205	1.44	197	1.6	100	1.6	24	61	977.9	NA	0.0000		9999	390	0	0	0
2019/01/29 23:18:00	BASE	0.00	200	1.39	200	1.6	100	1.6	23	59	978.0	NA	0.0000		9999	390	0	0	0
2019/01/29 23:19:00	BASE	0.00	198	1.34	187	1.6	100	1.6	22	57	978.1	NA	0.0000		9000	360	0	0	0
2019/01/29 23:20:00	BASE	0.00	197	1.29	204	1.7	100	1.7	22	55	978.1	NA	0.0000		9999	390	0	0	0
2019/01/29 23:21:00	BASE	0.00	193	1.29	204	1.7	100	1.7	21	53	978.1	NA	0.0000		9999	360	0	0	0
2019/01/29 23:22:00	BASE	0.00	192	1.18	209	1.7	100	1.7	20	51	978.0	NA	0.0000		9999	330	0	0	0
2019/01/29 23:23:00	BASE	0.05	192	1.13	206	1.8	100	1.8	19	49	978.1	NA	0.0000		9999	330	0	0	0
2019/01/29 23:24:00	BASE	0.62	196	1.29	200	1.8	100	1.8	19	48	978.1	NA	0.0000		9999	360	0	0	0
2019/01/29 23:25:00	BASE	0.77	195	1.29	200	1.8	100	1.8	19	48	978.1	NA	0.0000		9999	390	0	0	0
2019/01/29 23:26:00	BASE	0.32	193	1.29	200	1.8	100	1.8	19	47	978.0	NA	0.0000		9000	390	0	0	0
2019/01/29 23:27:00	BASE	0.53	194	1.29	200	1.8	100	1.8	19	47	978.1	NA	0.0000	BR	9000	390	0	0	0
2019/01/29 23:28:00	BASE	0.40	192	1.29	200	1.7	100	1.7	18	46	978.1	NA	0.0000	BR	9999	390	0	0	0
2019/01/29 23:29:00	BASE	0.00	195	1.29	200	1.7	100	1.7	18	45	978.1	NA	0.0000		9999	390	0	0	0
2019/01/29 23:30:00	BASE	0.00	203	1.29	200	1.7	100	1.7	18	44	978.1	NA	0.0000	UP	9999	390	0	0	0
2019/01/29 23:31:00	BASE	0.00	202	1.29	200	1.7	100	1.7	17	43	978.2	NA	0.0000		9999	390	0	0	0
2019/01/29 23:32:00	BASE	0.00	196	1.29	200	1.7	100	1.7	17	41	978.2	NA	0.0000		9999	390	0	0	0
2019/01/29 23:33:00	BASE	0.00	194	1.29	200	1.7	100	1.7	16	40	978.1	NA	0.0000		9999	390	0	0	0
2019/01/29 23:34:00	BASE	0.00	202	1.23	193	1.7	100	1.7	16	39	978.1	NA	0.0000		9999	390	0	0	0
2019/01/29 23:35:00	BASE	0.00	209	1.18	195	1.7	100	1.7	16	38	978.2	NA	0.0000		9999	360	0	0	0
2019/01/29 23:36:00	BASE	0.00	208	1.18	195	1.7	100	1.7	15	38	978.2	NA	0.0000		9999	360	0	0	0
2019/01/29 23:37:00	BASE	0.35	207	1.08	208	1.7	100	1.7	15	37	978.1	NA	0.0000		9999	330	0	0	0
2019/01/29 23:38:00	BASE	0.79	209	1.08	217	1.6	100	1.6	15	37	978.2	NA	0.0000		9999	300	0	0	0
2019/01/29 23:39:00	BASE	0.53	213	1.08	218	1.6	100	1.6	15	36	978.2	NA	0.0000		9999	330	0	0	0
2019/01/29 23:40:00	BASE	0.09	214	1.08	218	1.6	100	1.6	14	35	978.2	NA	0.0000		9999	330	0	0	0
2019/01/29 23:41:00	BASE	0.05	210	1.08	207	1.6	100	1.6	14	35	978.3	NA	0.0000		9999	330	0	0	0
2019/01/29 23:42:00	BASE	0.22	209	1.08	207	1.7	100	1.7	13	33	978.3	NA	0.0000		9999	300	0	0	0
2019/01/29 23:43:00	BASE	0.17	207	1.08	207	1.7	100	1.7	13	32	978.3	NA	0.0000		9999	360	0	0	0
2019/01/29 23:44:00	BASE	0.31	210	1.13	207	1.7	100	1.7	12	31	978.3	NA	0.0000		9999	390	0	0	0
2019/01/29 23:45:00	BASE	0.53	215	1.13	207	1.7	100	1.7	12	30	978.3	NA	0.0000		9999	360	0	0	0
2019/01/29 23:46:00	BASE	0.22	229	1.13	207	1.7	100	1.7	11	29	978.3	NA	0.0000		9999	390	0	0	0
2019/01/29 23:47:00	BASE	0.00	244	1.13	207	1.6	100	1.6	11	28	978.3	NA	0.0000		9999	390	0	0	0
2019/01/29 23:48:00	BASE	0.00	240	1.13	207	1.6	100	1.6	11	28	978.3	NA	0.0000		9999	360	0	0	0
2019/01/29 23:49:00	BASE	0.00	240	1.13	207	1.6	100	1.6	11	27	978.3	NA	0.0000		9999	360	0	0	0
2019/01/29 23:50:00	BASE	0.00	264	1.13	207	1.5	100	1.5	10	26	978.3	NA	0.0000		9999	330	0	0	0
2019/01/29 23:51:00	BASE	0.00	280	1.13	207	1.5	100	1.5	10	25	978.3	NA	0.0000		9999	300	0	0	0
2019/01/29 23:52:00	BASE	0.00	301	1.13	207	1.6	100	1.6	10	25	978.3	NA	0.0000		9999	300	0	0	0
2019/01/29 23:53:00	BASE	0.00	36	1.13	207	1.6	100	1.6	10	24	978.4	NA	0.0000		9999	300	0	0	0
2019/01/29 23:54:00	BASE	0.00	43	1.08	219	1.6	100	1.6	10	24	978.4	NA	0.0000		9999	300	0	0	0
2019/01/29 23:55:00	BASE	0.00	33	M	M	1.7	100	1.7	10	24	978.4	NA	0.0000		9999	260	0	0	0
2019/01/29 23:56:00	BASE	0.00	42	M	M	1.7	100	1.7	10	24	978.4	NA	0.0000		9999	260	0	0	0
2019/01/29 23:57:00	BASE	0.00	50	M	M	1.7	100	1.7	9	24	978.4	NA	0.0000		9999	260	0	0	0
2019/01/29 23:58:00	BASE	0.00	45	M	M	1.8	100	1.8	9	23	978.4	NA	0.0000		9999	260	0	0	0
2019/01/29 23:59:00	BASE	0.00	59	M	M	1.8	100	1.8	9	23	978.3	NA	0.0000		9999	260	0	0	0